<?xml version="1.0" encoding="UTF-8" standalone="no" ?>
<gpx xmlns="http://www.topografix.com/GPX/1/1" xmlns:xsi="http://www.w3.org/2001/XMLSchema-instance" xsi:schemaLocation="http://www.topografix.com/GPX/1/1 http://www.topografix.com/GPX/1/1/gpx.xsd" version="1.1" creator="VisuGPX - https://www.visugpx.com">
  <metadata>
    <name>83-D-Cotignac</name>
    <desc><![CDATA[83-D-Cotignac : le gros Bessillon
2025-11-23-RJFR]]></desc>
  </metadata>
  <trk>
    <name><![CDATA[2025-11-23-D-Cotignac RJFR]]></name>
    <extensions>
      <line xmlns="http://www.topografix.com/GPX/gpx_style/0/2">
        <width>4</width>
      </line>
    </extensions>
    <trkseg>
      <trkpt lat="43.53407" lon="6.12529">
        <ele>397.8</ele>
        <time>2025-11-23T08:41:20.000Z</time>
      </trkpt>
      <trkpt lat="43.53407" lon="6.12529">
        <ele>397.8</ele>
        <time>2025-11-23T08:41:21.000Z</time>
      </trkpt>
      <trkpt lat="43.53407" lon="6.12529">
        <ele>397.2</ele>
        <time>2025-11-23T08:42:35.000Z</time>
      </trkpt>
      <trkpt lat="43.53407" lon="6.12529">
        <ele>397.2</ele>
        <time>2025-11-23T08:42:35.000Z</time>
      </trkpt>
      <trkpt lat="43.53407" lon="6.12529">
        <ele>397.1</ele>
        <time>2025-11-23T08:43:36.000Z</time>
      </trkpt>
      <trkpt lat="43.53407" lon="6.12529">
        <ele>397.1</ele>
        <time>2025-11-23T08:43:49.000Z</time>
      </trkpt>
      <trkpt lat="43.53407" lon="6.12528">
        <ele>397.1</ele>
        <time>2025-11-23T08:43:51.000Z</time>
      </trkpt>
      <trkpt lat="43.53407" lon="6.12528">
        <ele>397</ele>
        <time>2025-11-23T08:44:08.000Z</time>
      </trkpt>
      <trkpt lat="43.53405" lon="6.12524">
        <ele>397</ele>
        <time>2025-11-23T08:44:19.000Z</time>
      </trkpt>
      <trkpt lat="43.53406" lon="6.12527">
        <ele>397</ele>
        <time>2025-11-23T08:45:21.000Z</time>
      </trkpt>
      <trkpt lat="43.53406" lon="6.12529">
        <ele>397.2</ele>
        <time>2025-11-23T08:45:26.000Z</time>
      </trkpt>
      <trkpt lat="43.53407" lon="6.12531">
        <ele>397.7</ele>
        <time>2025-11-23T08:45:46.000Z</time>
      </trkpt>
      <trkpt lat="43.53407" lon="6.12531">
        <ele>398</ele>
        <time>2025-11-23T08:45:59.000Z</time>
      </trkpt>
      <trkpt lat="43.53409" lon="6.1253">
        <ele>398</ele>
        <time>2025-11-23T08:46:36.000Z</time>
      </trkpt>
      <trkpt lat="43.53409" lon="6.1253">
        <ele>397.9</ele>
        <time>2025-11-23T08:47:15.000Z</time>
      </trkpt>
      <trkpt lat="43.5341" lon="6.12529">
        <ele>397.9</ele>
        <time>2025-11-23T08:47:35.000Z</time>
      </trkpt>
      <trkpt lat="43.53411" lon="6.12526">
        <ele>397.9</ele>
        <time>2025-11-23T08:47:48.000Z</time>
      </trkpt>
      <trkpt lat="43.5341" lon="6.12524">
        <ele>397.9</ele>
        <time>2025-11-23T08:48:11.000Z</time>
      </trkpt>
      <trkpt lat="43.5341" lon="6.12525">
        <ele>397.8</ele>
        <time>2025-11-23T08:49:35.000Z</time>
      </trkpt>
      <trkpt lat="43.53418" lon="6.12519">
        <ele>397.9</ele>
        <time>2025-11-23T08:50:08.000Z</time>
      </trkpt>
      <trkpt lat="43.53423" lon="6.12509">
        <ele>398</ele>
        <time>2025-11-23T08:50:16.000Z</time>
      </trkpt>
      <trkpt lat="43.53429" lon="6.12499">
        <ele>398.3</ele>
        <time>2025-11-23T08:50:24.000Z</time>
      </trkpt>
      <trkpt lat="43.53431" lon="6.12486">
        <ele>398.8</ele>
        <time>2025-11-23T08:50:34.000Z</time>
      </trkpt>
      <trkpt lat="43.53431" lon="6.12472">
        <ele>399.2</ele>
        <time>2025-11-23T08:50:43.000Z</time>
      </trkpt>
      <trkpt lat="43.5343" lon="6.1246">
        <ele>399.7</ele>
        <time>2025-11-23T08:50:52.000Z</time>
      </trkpt>
      <trkpt lat="43.5343" lon="6.12447">
        <ele>400.6</ele>
        <time>2025-11-23T08:51:04.000Z</time>
      </trkpt>
      <trkpt lat="43.53428" lon="6.12434">
        <ele>401.5</ele>
        <time>2025-11-23T08:51:14.000Z</time>
      </trkpt>
      <trkpt lat="43.5343" lon="6.12421">
        <ele>402.1</ele>
        <time>2025-11-23T08:51:23.000Z</time>
      </trkpt>
      <trkpt lat="43.53428" lon="6.12409">
        <ele>402.9</ele>
        <time>2025-11-23T08:51:33.000Z</time>
      </trkpt>
      <trkpt lat="43.53423" lon="6.12398">
        <ele>403.8</ele>
        <time>2025-11-23T08:51:43.000Z</time>
      </trkpt>
      <trkpt lat="43.53418" lon="6.12387">
        <ele>404.5</ele>
        <time>2025-11-23T08:51:52.000Z</time>
      </trkpt>
      <trkpt lat="43.53417" lon="6.12374">
        <ele>405.4</ele>
        <time>2025-11-23T08:52:04.000Z</time>
      </trkpt>
      <trkpt lat="43.53417" lon="6.12361">
        <ele>406.5</ele>
        <time>2025-11-23T08:52:15.000Z</time>
      </trkpt>
      <trkpt lat="43.53418" lon="6.12348">
        <ele>407.6</ele>
        <time>2025-11-23T08:52:26.000Z</time>
      </trkpt>
      <trkpt lat="43.53418" lon="6.12334">
        <ele>408.6</ele>
        <time>2025-11-23T08:52:38.000Z</time>
      </trkpt>
      <trkpt lat="43.53419" lon="6.12322">
        <ele>409.4</ele>
        <time>2025-11-23T08:52:48.000Z</time>
      </trkpt>
      <trkpt lat="43.53417" lon="6.12309">
        <ele>410.7</ele>
        <time>2025-11-23T08:53:00.000Z</time>
      </trkpt>
      <trkpt lat="43.53414" lon="6.12297">
        <ele>412.1</ele>
        <time>2025-11-23T08:53:12.000Z</time>
      </trkpt>
      <trkpt lat="43.53411" lon="6.12285">
        <ele>413.4</ele>
        <time>2025-11-23T08:53:24.000Z</time>
      </trkpt>
      <trkpt lat="43.53412" lon="6.12271">
        <ele>414.7</ele>
        <time>2025-11-23T08:53:37.000Z</time>
      </trkpt>
      <trkpt lat="43.53413" lon="6.12258">
        <ele>415.7</ele>
        <time>2025-11-23T08:53:47.000Z</time>
      </trkpt>
      <trkpt lat="43.53412" lon="6.12244">
        <ele>417.2</ele>
        <time>2025-11-23T08:53:59.000Z</time>
      </trkpt>
      <trkpt lat="43.53409" lon="6.12233">
        <ele>418.3</ele>
        <time>2025-11-23T08:54:08.000Z</time>
      </trkpt>
      <trkpt lat="43.53406" lon="6.12221">
        <ele>419.3</ele>
        <time>2025-11-23T08:54:18.000Z</time>
      </trkpt>
      <trkpt lat="43.534" lon="6.1221">
        <ele>420</ele>
        <time>2025-11-23T08:54:27.000Z</time>
      </trkpt>
      <trkpt lat="43.53394" lon="6.122">
        <ele>420.3</ele>
        <time>2025-11-23T08:54:36.000Z</time>
      </trkpt>
      <trkpt lat="43.53386" lon="6.12196">
        <ele>420.6</ele>
        <time>2025-11-23T08:54:53.000Z</time>
      </trkpt>
      <trkpt lat="43.53378" lon="6.12189">
        <ele>420.8</ele>
        <time>2025-11-23T08:55:02.000Z</time>
      </trkpt>
      <trkpt lat="43.53372" lon="6.1218">
        <ele>421.4</ele>
        <time>2025-11-23T08:55:12.000Z</time>
      </trkpt>
      <trkpt lat="43.53372" lon="6.12167">
        <ele>422.9</ele>
        <time>2025-11-23T08:55:28.000Z</time>
      </trkpt>
      <trkpt lat="43.53378" lon="6.12156">
        <ele>424.9</ele>
        <time>2025-11-23T08:55:43.000Z</time>
      </trkpt>
      <trkpt lat="43.53385" lon="6.12148">
        <ele>426</ele>
        <time>2025-11-23T08:55:56.000Z</time>
      </trkpt>
      <trkpt lat="43.53392" lon="6.1214">
        <ele>427.4</ele>
        <time>2025-11-23T08:56:10.000Z</time>
      </trkpt>
      <trkpt lat="43.53399" lon="6.12132">
        <ele>428.9</ele>
        <time>2025-11-23T08:56:23.000Z</time>
      </trkpt>
      <trkpt lat="43.53407" lon="6.12125">
        <ele>430.6</ele>
        <time>2025-11-23T08:56:35.000Z</time>
      </trkpt>
      <trkpt lat="43.53415" lon="6.12118">
        <ele>432.5</ele>
        <time>2025-11-23T08:56:50.000Z</time>
      </trkpt>
      <trkpt lat="43.53425" lon="6.12121">
        <ele>433.6</ele>
        <time>2025-11-23T08:57:02.000Z</time>
      </trkpt>
      <trkpt lat="43.53434" lon="6.12124">
        <ele>435.1</ele>
        <time>2025-11-23T08:57:17.000Z</time>
      </trkpt>
      <trkpt lat="43.53442" lon="6.12129">
        <ele>436.6</ele>
        <time>2025-11-23T08:57:30.000Z</time>
      </trkpt>
      <trkpt lat="43.53452" lon="6.1213">
        <ele>438.2</ele>
        <time>2025-11-23T08:57:44.000Z</time>
      </trkpt>
      <trkpt lat="43.53461" lon="6.12129">
        <ele>440.3</ele>
        <time>2025-11-23T08:57:58.000Z</time>
      </trkpt>
      <trkpt lat="43.5347" lon="6.1213">
        <ele>442.1</ele>
        <time>2025-11-23T08:58:12.000Z</time>
      </trkpt>
      <trkpt lat="43.53474" lon="6.12129">
        <ele>443.8</ele>
        <time>2025-11-23T08:58:34.000Z</time>
      </trkpt>
      <trkpt lat="43.53474" lon="6.12129">
        <ele>443.9</ele>
        <time>2025-11-23T08:58:41.000Z</time>
      </trkpt>
      <trkpt lat="43.53474" lon="6.12129">
        <ele>444</ele>
        <time>2025-11-23T08:58:53.000Z</time>
      </trkpt>
      <trkpt lat="43.53474" lon="6.12128">
        <ele>444.1</ele>
        <time>2025-11-23T09:00:00.000Z</time>
      </trkpt>
      <trkpt lat="43.53474" lon="6.12128">
        <ele>444.1</ele>
        <time>2025-11-23T09:00:07.000Z</time>
      </trkpt>
      <trkpt lat="43.53474" lon="6.12128">
        <ele>444.1</ele>
        <time>2025-11-23T09:00:51.000Z</time>
      </trkpt>
      <trkpt lat="43.53477" lon="6.12116">
        <ele>444.1</ele>
        <time>2025-11-23T09:01:01.000Z</time>
      </trkpt>
      <trkpt lat="43.53472" lon="6.12105">
        <ele>444</ele>
        <time>2025-11-23T09:01:11.000Z</time>
      </trkpt>
      <trkpt lat="43.53471" lon="6.12092">
        <ele>443.9</ele>
        <time>2025-11-23T09:01:20.000Z</time>
      </trkpt>
      <trkpt lat="43.53469" lon="6.1208">
        <ele>444</ele>
        <time>2025-11-23T09:01:29.000Z</time>
      </trkpt>
      <trkpt lat="43.53464" lon="6.12069">
        <ele>444.1</ele>
        <time>2025-11-23T09:01:37.000Z</time>
      </trkpt>
      <trkpt lat="43.53456" lon="6.1206">
        <ele>444.4</ele>
        <time>2025-11-23T09:01:46.000Z</time>
      </trkpt>
      <trkpt lat="43.5345" lon="6.1205">
        <ele>444.8</ele>
        <time>2025-11-23T09:01:56.000Z</time>
      </trkpt>
      <trkpt lat="43.53447" lon="6.12037">
        <ele>446.4</ele>
        <time>2025-11-23T09:02:12.000Z</time>
      </trkpt>
      <trkpt lat="43.53448" lon="6.12025">
        <ele>448.9</ele>
        <time>2025-11-23T09:02:25.000Z</time>
      </trkpt>
      <trkpt lat="43.53447" lon="6.12011">
        <ele>450.9</ele>
        <time>2025-11-23T09:02:37.000Z</time>
      </trkpt>
      <trkpt lat="43.53446" lon="6.11999">
        <ele>452.8</ele>
        <time>2025-11-23T09:02:49.000Z</time>
      </trkpt>
      <trkpt lat="43.53445" lon="6.11993">
        <ele>454.5</ele>
        <time>2025-11-23T09:03:21.000Z</time>
      </trkpt>
      <trkpt lat="43.53446" lon="6.11992">
        <ele>454.6</ele>
        <time>2025-11-23T09:03:31.000Z</time>
      </trkpt>
      <trkpt lat="43.53447" lon="6.11991">
        <ele>454.7</ele>
        <time>2025-11-23T09:03:48.000Z</time>
      </trkpt>
      <trkpt lat="43.53447" lon="6.11991">
        <ele>454.7</ele>
        <time>2025-11-23T09:04:01.000Z</time>
      </trkpt>
      <trkpt lat="43.53448" lon="6.11978">
        <ele>457.2</ele>
        <time>2025-11-23T09:04:40.000Z</time>
      </trkpt>
      <trkpt lat="43.53446" lon="6.11966">
        <ele>458.5</ele>
        <time>2025-11-23T09:04:50.000Z</time>
      </trkpt>
      <trkpt lat="43.53439" lon="6.11958">
        <ele>459.5</ele>
        <time>2025-11-23T09:05:09.000Z</time>
      </trkpt>
      <trkpt lat="43.53434" lon="6.11947">
        <ele>462.8</ele>
        <time>2025-11-23T09:05:33.000Z</time>
      </trkpt>
      <trkpt lat="43.53427" lon="6.1194">
        <ele>465.9</ele>
        <time>2025-11-23T09:06:01.000Z</time>
      </trkpt>
      <trkpt lat="43.53427" lon="6.11927">
        <ele>470.5</ele>
        <time>2025-11-23T09:06:39.000Z</time>
      </trkpt>
      <trkpt lat="43.53425" lon="6.11914">
        <ele>473</ele>
        <time>2025-11-23T09:07:00.000Z</time>
      </trkpt>
      <trkpt lat="43.53421" lon="6.11903">
        <ele>476.7</ele>
        <time>2025-11-23T09:07:32.000Z</time>
      </trkpt>
      <trkpt lat="43.53424" lon="6.11891">
        <ele>479.5</ele>
        <time>2025-11-23T09:07:58.000Z</time>
      </trkpt>
      <trkpt lat="43.53427" lon="6.11879">
        <ele>482.4</ele>
        <time>2025-11-23T09:08:19.000Z</time>
      </trkpt>
      <trkpt lat="43.53428" lon="6.11866">
        <ele>486.3</ele>
        <time>2025-11-23T09:08:52.000Z</time>
      </trkpt>
      <trkpt lat="43.53428" lon="6.11854">
        <ele>489.2</ele>
        <time>2025-11-23T09:09:20.000Z</time>
      </trkpt>
      <trkpt lat="43.53435" lon="6.11846">
        <ele>491.8</ele>
        <time>2025-11-23T09:09:54.000Z</time>
      </trkpt>
      <trkpt lat="43.53439" lon="6.11835">
        <ele>494.4</ele>
        <time>2025-11-23T09:10:27.000Z</time>
      </trkpt>
      <trkpt lat="43.53445" lon="6.11825">
        <ele>495.6</ele>
        <time>2025-11-23T09:11:11.000Z</time>
      </trkpt>
      <trkpt lat="43.53454" lon="6.11824">
        <ele>497.2</ele>
        <time>2025-11-23T09:11:45.000Z</time>
      </trkpt>
      <trkpt lat="43.53446" lon="6.11817">
        <ele>497.3</ele>
        <time>2025-11-23T09:12:27.000Z</time>
      </trkpt>
      <trkpt lat="43.53441" lon="6.11825">
        <ele>496.1</ele>
        <time>2025-11-23T09:13:05.000Z</time>
      </trkpt>
      <trkpt lat="43.53441" lon="6.11824">
        <ele>495.9</ele>
        <time>2025-11-23T09:13:45.000Z</time>
      </trkpt>
      <trkpt lat="43.53436" lon="6.11826">
        <ele>495.8</ele>
        <time>2025-11-23T09:15:08.000Z</time>
      </trkpt>
      <trkpt lat="43.53436" lon="6.11826">
        <ele>495.8</ele>
        <time>2025-11-23T09:15:09.000Z</time>
      </trkpt>
      <trkpt lat="43.53436" lon="6.11825">
        <ele>495.8</ele>
        <time>2025-11-23T09:15:26.000Z</time>
      </trkpt>
      <trkpt lat="43.53435" lon="6.11826">
        <ele>495.9</ele>
        <time>2025-11-23T09:15:50.000Z</time>
      </trkpt>
      <trkpt lat="43.53432" lon="6.11813">
        <ele>497.7</ele>
        <time>2025-11-23T09:16:19.000Z</time>
      </trkpt>
      <trkpt lat="43.5343" lon="6.11801">
        <ele>502.2</ele>
        <time>2025-11-23T09:16:54.000Z</time>
      </trkpt>
      <trkpt lat="43.5343" lon="6.11788">
        <ele>505.5</ele>
        <time>2025-11-23T09:17:18.000Z</time>
      </trkpt>
      <trkpt lat="43.53434" lon="6.11777">
        <ele>508.4</ele>
        <time>2025-11-23T09:17:44.000Z</time>
      </trkpt>
      <trkpt lat="43.53438" lon="6.11765">
        <ele>511.3</ele>
        <time>2025-11-23T09:18:11.000Z</time>
      </trkpt>
      <trkpt lat="43.53436" lon="6.11753">
        <ele>514.5</ele>
        <time>2025-11-23T09:18:46.000Z</time>
      </trkpt>
      <trkpt lat="43.53433" lon="6.1174">
        <ele>518.1</ele>
        <time>2025-11-23T09:19:18.000Z</time>
      </trkpt>
      <trkpt lat="43.53438" lon="6.11729">
        <ele>521</ele>
        <time>2025-11-23T09:19:43.000Z</time>
      </trkpt>
      <trkpt lat="43.53443" lon="6.11719">
        <ele>523.9</ele>
        <time>2025-11-23T09:20:18.000Z</time>
      </trkpt>
      <trkpt lat="43.53451" lon="6.11713">
        <ele>525</ele>
        <time>2025-11-23T09:20:32.000Z</time>
      </trkpt>
      <trkpt lat="43.53455" lon="6.11702">
        <ele>527.3</ele>
        <time>2025-11-23T09:20:52.000Z</time>
      </trkpt>
      <trkpt lat="43.53457" lon="6.11698">
        <ele>529.2</ele>
        <time>2025-11-23T09:21:23.000Z</time>
      </trkpt>
      <trkpt lat="43.53459" lon="6.11697">
        <ele>529.5</ele>
        <time>2025-11-23T09:22:11.000Z</time>
      </trkpt>
      <trkpt lat="43.53463" lon="6.11685">
        <ele>530.3</ele>
        <time>2025-11-23T09:22:27.000Z</time>
      </trkpt>
      <trkpt lat="43.53464" lon="6.11672">
        <ele>533.7</ele>
        <time>2025-11-23T09:22:46.000Z</time>
      </trkpt>
      <trkpt lat="43.53466" lon="6.1166">
        <ele>536.6</ele>
        <time>2025-11-23T09:23:10.000Z</time>
      </trkpt>
      <trkpt lat="43.5347" lon="6.11648">
        <ele>538.8</ele>
        <time>2025-11-23T09:23:29.000Z</time>
      </trkpt>
      <trkpt lat="43.53476" lon="6.11638">
        <ele>540.1</ele>
        <time>2025-11-23T09:23:43.000Z</time>
      </trkpt>
      <trkpt lat="43.53478" lon="6.11625">
        <ele>542</ele>
        <time>2025-11-23T09:24:01.000Z</time>
      </trkpt>
      <trkpt lat="43.53477" lon="6.11613">
        <ele>543.9</ele>
        <time>2025-11-23T09:24:19.000Z</time>
      </trkpt>
      <trkpt lat="43.53474" lon="6.11605">
        <ele>546.6</ele>
        <time>2025-11-23T09:24:51.000Z</time>
      </trkpt>
      <trkpt lat="43.53474" lon="6.11605">
        <ele>546.7</ele>
        <time>2025-11-23T09:25:01.000Z</time>
      </trkpt>
      <trkpt lat="43.53474" lon="6.11605">
        <ele>546.9</ele>
        <time>2025-11-23T09:25:14.000Z</time>
      </trkpt>
      <trkpt lat="43.53474" lon="6.11605">
        <ele>547</ele>
        <time>2025-11-23T09:25:23.000Z</time>
      </trkpt>
      <trkpt lat="43.53474" lon="6.11605">
        <ele>547</ele>
        <time>2025-11-23T09:25:34.000Z</time>
      </trkpt>
      <trkpt lat="43.53472" lon="6.11603">
        <ele>547</ele>
        <time>2025-11-23T09:25:54.000Z</time>
      </trkpt>
      <trkpt lat="43.53471" lon="6.11603">
        <ele>547.2</ele>
        <time>2025-11-23T09:26:05.000Z</time>
      </trkpt>
      <trkpt lat="43.53468" lon="6.11603">
        <ele>547.3</ele>
        <time>2025-11-23T09:26:19.000Z</time>
      </trkpt>
      <trkpt lat="43.53469" lon="6.11602">
        <ele>547.3</ele>
        <time>2025-11-23T09:26:55.000Z</time>
      </trkpt>
      <trkpt lat="43.53468" lon="6.116">
        <ele>547.4</ele>
        <time>2025-11-23T09:27:53.000Z</time>
      </trkpt>
      <trkpt lat="43.53463" lon="6.1159">
        <ele>548.4</ele>
        <time>2025-11-23T09:28:15.000Z</time>
      </trkpt>
      <trkpt lat="43.53459" lon="6.11578">
        <ele>551.2</ele>
        <time>2025-11-23T09:28:36.000Z</time>
      </trkpt>
      <trkpt lat="43.53454" lon="6.11567">
        <ele>553.7</ele>
        <time>2025-11-23T09:29:00.000Z</time>
      </trkpt>
      <trkpt lat="43.53457" lon="6.11555">
        <ele>554.5</ele>
        <time>2025-11-23T09:29:14.000Z</time>
      </trkpt>
      <trkpt lat="43.53452" lon="6.11543">
        <ele>555.6</ele>
        <time>2025-11-23T09:29:28.000Z</time>
      </trkpt>
      <trkpt lat="43.5345" lon="6.1153">
        <ele>557.3</ele>
        <time>2025-11-23T09:29:45.000Z</time>
      </trkpt>
      <trkpt lat="43.53453" lon="6.11518">
        <ele>558.3</ele>
        <time>2025-11-23T09:30:00.000Z</time>
      </trkpt>
      <trkpt lat="43.53456" lon="6.11505">
        <ele>559.8</ele>
        <time>2025-11-23T09:30:15.000Z</time>
      </trkpt>
      <trkpt lat="43.53453" lon="6.11493">
        <ele>561.1</ele>
        <time>2025-11-23T09:30:28.000Z</time>
      </trkpt>
      <trkpt lat="43.53448" lon="6.11481">
        <ele>562.1</ele>
        <time>2025-11-23T09:30:40.000Z</time>
      </trkpt>
      <trkpt lat="43.53442" lon="6.11472">
        <ele>563.1</ele>
        <time>2025-11-23T09:30:54.000Z</time>
      </trkpt>
      <trkpt lat="43.5344" lon="6.11459">
        <ele>564.2</ele>
        <time>2025-11-23T09:31:08.000Z</time>
      </trkpt>
      <trkpt lat="43.53439" lon="6.11446">
        <ele>565.8</ele>
        <time>2025-11-23T09:31:23.000Z</time>
      </trkpt>
      <trkpt lat="43.53439" lon="6.11433">
        <ele>566.8</ele>
        <time>2025-11-23T09:31:35.000Z</time>
      </trkpt>
      <trkpt lat="43.5344" lon="6.11421">
        <ele>567.8</ele>
        <time>2025-11-23T09:31:47.000Z</time>
      </trkpt>
      <trkpt lat="43.53448" lon="6.11415">
        <ele>568.9</ele>
        <time>2025-11-23T09:32:05.000Z</time>
      </trkpt>
      <trkpt lat="43.53449" lon="6.11402">
        <ele>570.1</ele>
        <time>2025-11-23T09:32:18.000Z</time>
      </trkpt>
      <trkpt lat="43.53452" lon="6.1139">
        <ele>570.9</ele>
        <time>2025-11-23T09:32:31.000Z</time>
      </trkpt>
      <trkpt lat="43.53453" lon="6.11377">
        <ele>571.7</ele>
        <time>2025-11-23T09:32:46.000Z</time>
      </trkpt>
      <trkpt lat="43.53452" lon="6.11374">
        <ele>572</ele>
        <time>2025-11-23T09:33:03.000Z</time>
      </trkpt>
      <trkpt lat="43.53451" lon="6.11372">
        <ele>572</ele>
        <time>2025-11-23T09:33:10.000Z</time>
      </trkpt>
      <trkpt lat="43.53455" lon="6.11361">
        <ele>572.7</ele>
        <time>2025-11-23T09:33:31.000Z</time>
      </trkpt>
      <trkpt lat="43.5346" lon="6.11351">
        <ele>574</ele>
        <time>2025-11-23T09:33:45.000Z</time>
      </trkpt>
      <trkpt lat="43.53464" lon="6.11339">
        <ele>575.5</ele>
        <time>2025-11-23T09:33:58.000Z</time>
      </trkpt>
      <trkpt lat="43.53464" lon="6.11327">
        <ele>577</ele>
        <time>2025-11-23T09:34:18.000Z</time>
      </trkpt>
      <trkpt lat="43.53464" lon="6.11313">
        <ele>578.6</ele>
        <time>2025-11-23T09:34:57.000Z</time>
      </trkpt>
      <trkpt lat="43.53464" lon="6.11301">
        <ele>579.5</ele>
        <time>2025-11-23T09:35:10.000Z</time>
      </trkpt>
      <trkpt lat="43.53468" lon="6.11289">
        <ele>581.3</ele>
        <time>2025-11-23T09:35:30.000Z</time>
      </trkpt>
      <trkpt lat="43.53475" lon="6.1128">
        <ele>582</ele>
        <time>2025-11-23T09:35:44.000Z</time>
      </trkpt>
      <trkpt lat="43.5348" lon="6.1127">
        <ele>583.1</ele>
        <time>2025-11-23T09:35:57.000Z</time>
      </trkpt>
      <trkpt lat="43.53482" lon="6.11266">
        <ele>583.9</ele>
        <time>2025-11-23T09:36:12.000Z</time>
      </trkpt>
      <trkpt lat="43.53482" lon="6.11263">
        <ele>584.1</ele>
        <time>2025-11-23T09:36:25.000Z</time>
      </trkpt>
      <trkpt lat="43.53478" lon="6.11253">
        <ele>585.2</ele>
        <time>2025-11-23T09:37:10.000Z</time>
      </trkpt>
      <trkpt lat="43.53478" lon="6.11254">
        <ele>585.2</ele>
        <time>2025-11-23T09:37:13.000Z</time>
      </trkpt>
      <trkpt lat="43.53477" lon="6.11255">
        <ele>585.3</ele>
        <time>2025-11-23T09:37:24.000Z</time>
      </trkpt>
      <trkpt lat="43.53477" lon="6.11255">
        <ele>585.4</ele>
        <time>2025-11-23T09:37:53.000Z</time>
      </trkpt>
      <trkpt lat="43.53477" lon="6.11254">
        <ele>585.4</ele>
        <time>2025-11-23T09:38:08.000Z</time>
      </trkpt>
      <trkpt lat="43.53477" lon="6.11254">
        <ele>585.2</ele>
        <time>2025-11-23T09:39:46.000Z</time>
      </trkpt>
      <trkpt lat="43.53477" lon="6.11254">
        <ele>585.2</ele>
        <time>2025-11-23T09:39:56.000Z</time>
      </trkpt>
      <trkpt lat="43.53476" lon="6.11254">
        <ele>585.2</ele>
        <time>2025-11-23T09:40:36.000Z</time>
      </trkpt>
      <trkpt lat="43.53476" lon="6.11254">
        <ele>585.2</ele>
        <time>2025-11-23T09:40:46.000Z</time>
      </trkpt>
      <trkpt lat="43.53476" lon="6.11253">
        <ele>585.2</ele>
        <time>2025-11-23T09:40:50.000Z</time>
      </trkpt>
      <trkpt lat="43.53481" lon="6.11242">
        <ele>586.4</ele>
        <time>2025-11-23T09:41:15.000Z</time>
      </trkpt>
      <trkpt lat="43.53485" lon="6.11231">
        <ele>588</ele>
        <time>2025-11-23T09:41:28.000Z</time>
      </trkpt>
      <trkpt lat="43.5349" lon="6.11219">
        <ele>590.3</ele>
        <time>2025-11-23T09:41:50.000Z</time>
      </trkpt>
      <trkpt lat="43.53494" lon="6.11208">
        <ele>592.1</ele>
        <time>2025-11-23T09:42:24.000Z</time>
      </trkpt>
      <trkpt lat="43.53499" lon="6.11197">
        <ele>594.8</ele>
        <time>2025-11-23T09:42:43.000Z</time>
      </trkpt>
      <trkpt lat="43.53504" lon="6.11187">
        <ele>596.4</ele>
        <time>2025-11-23T09:42:58.000Z</time>
      </trkpt>
      <trkpt lat="43.53508" lon="6.11174">
        <ele>598.1</ele>
        <time>2025-11-23T09:43:13.000Z</time>
      </trkpt>
      <trkpt lat="43.53511" lon="6.11162">
        <ele>599.4</ele>
        <time>2025-11-23T09:43:27.000Z</time>
      </trkpt>
      <trkpt lat="43.53512" lon="6.11149">
        <ele>601.4</ele>
        <time>2025-11-23T09:43:44.000Z</time>
      </trkpt>
      <trkpt lat="43.53515" lon="6.11138">
        <ele>604.3</ele>
        <time>2025-11-23T09:44:07.000Z</time>
      </trkpt>
      <trkpt lat="43.5352" lon="6.11127">
        <ele>606.1</ele>
        <time>2025-11-23T09:44:26.000Z</time>
      </trkpt>
      <trkpt lat="43.53521" lon="6.11114">
        <ele>608.9</ele>
        <time>2025-11-23T09:44:52.000Z</time>
      </trkpt>
      <trkpt lat="43.53528" lon="6.11106">
        <ele>610.1</ele>
        <time>2025-11-23T09:45:09.000Z</time>
      </trkpt>
      <trkpt lat="43.53535" lon="6.11096">
        <ele>610.1</ele>
        <time>2025-11-23T09:45:20.000Z</time>
      </trkpt>
      <trkpt lat="43.53535" lon="6.11084">
        <ele>610.8</ele>
        <time>2025-11-23T09:45:33.000Z</time>
      </trkpt>
      <trkpt lat="43.5353" lon="6.11073">
        <ele>613.1</ele>
        <time>2025-11-23T09:45:53.000Z</time>
      </trkpt>
      <trkpt lat="43.5353" lon="6.1106">
        <ele>615.7</ele>
        <time>2025-11-23T09:46:21.000Z</time>
      </trkpt>
      <trkpt lat="43.53532" lon="6.11047">
        <ele>616.3</ele>
        <time>2025-11-23T09:46:39.000Z</time>
      </trkpt>
      <trkpt lat="43.53532" lon="6.11034">
        <ele>617</ele>
        <time>2025-11-23T09:46:50.000Z</time>
      </trkpt>
      <trkpt lat="43.53532" lon="6.11021">
        <ele>617.4</ele>
        <time>2025-11-23T09:46:58.000Z</time>
      </trkpt>
      <trkpt lat="43.53531" lon="6.11008">
        <ele>617.3</ele>
        <time>2025-11-23T09:47:17.000Z</time>
      </trkpt>
      <trkpt lat="43.5353" lon="6.10995">
        <ele>617.2</ele>
        <time>2025-11-23T09:47:28.000Z</time>
      </trkpt>
      <trkpt lat="43.53529" lon="6.10981">
        <ele>617.4</ele>
        <time>2025-11-23T09:47:42.000Z</time>
      </trkpt>
      <trkpt lat="43.53529" lon="6.10969">
        <ele>618.1</ele>
        <time>2025-11-23T09:47:59.000Z</time>
      </trkpt>
      <trkpt lat="43.53528" lon="6.10956">
        <ele>619.3</ele>
        <time>2025-11-23T09:48:16.000Z</time>
      </trkpt>
      <trkpt lat="43.53529" lon="6.10942">
        <ele>619.7</ele>
        <time>2025-11-23T09:48:28.000Z</time>
      </trkpt>
      <trkpt lat="43.53529" lon="6.10929">
        <ele>619.5</ele>
        <time>2025-11-23T09:48:42.000Z</time>
      </trkpt>
      <trkpt lat="43.53536" lon="6.10921">
        <ele>618.7</ele>
        <time>2025-11-23T09:48:54.000Z</time>
      </trkpt>
      <trkpt lat="43.53539" lon="6.10909">
        <ele>618.3</ele>
        <time>2025-11-23T09:49:03.000Z</time>
      </trkpt>
      <trkpt lat="43.53537" lon="6.10897">
        <ele>618.8</ele>
        <time>2025-11-23T09:49:20.000Z</time>
      </trkpt>
      <trkpt lat="43.5354" lon="6.10885">
        <ele>619</ele>
        <time>2025-11-23T09:49:34.000Z</time>
      </trkpt>
      <trkpt lat="43.53537" lon="6.10872">
        <ele>619.2</ele>
        <time>2025-11-23T09:49:43.000Z</time>
      </trkpt>
      <trkpt lat="43.53533" lon="6.10859">
        <ele>619.9</ele>
        <time>2025-11-23T09:49:58.000Z</time>
      </trkpt>
      <trkpt lat="43.53533" lon="6.10846">
        <ele>620.2</ele>
        <time>2025-11-23T09:50:10.000Z</time>
      </trkpt>
      <trkpt lat="43.53526" lon="6.10837">
        <ele>620.4</ele>
        <time>2025-11-23T09:50:22.000Z</time>
      </trkpt>
      <trkpt lat="43.53518" lon="6.1083">
        <ele>620.4</ele>
        <time>2025-11-23T09:50:38.000Z</time>
      </trkpt>
      <trkpt lat="43.53516" lon="6.10817">
        <ele>619.8</ele>
        <time>2025-11-23T09:50:52.000Z</time>
      </trkpt>
      <trkpt lat="43.53509" lon="6.10807">
        <ele>618.3</ele>
        <time>2025-11-23T09:51:04.000Z</time>
      </trkpt>
      <trkpt lat="43.53513" lon="6.10796">
        <ele>616.9</ele>
        <time>2025-11-23T09:51:27.000Z</time>
      </trkpt>
      <trkpt lat="43.53518" lon="6.10785">
        <ele>616.7</ele>
        <time>2025-11-23T09:51:39.000Z</time>
      </trkpt>
      <trkpt lat="43.53523" lon="6.10775">
        <ele>616.3</ele>
        <time>2025-11-23T09:51:51.000Z</time>
      </trkpt>
      <trkpt lat="43.53526" lon="6.10762">
        <ele>615.9</ele>
        <time>2025-11-23T09:52:00.000Z</time>
      </trkpt>
      <trkpt lat="43.53532" lon="6.10751">
        <ele>615.5</ele>
        <time>2025-11-23T09:52:16.000Z</time>
      </trkpt>
      <trkpt lat="43.53534" lon="6.10739">
        <ele>615.3</ele>
        <time>2025-11-23T09:52:25.000Z</time>
      </trkpt>
      <trkpt lat="43.53537" lon="6.10727">
        <ele>615</ele>
        <time>2025-11-23T09:52:36.000Z</time>
      </trkpt>
      <trkpt lat="43.5354" lon="6.10715">
        <ele>614.5</ele>
        <time>2025-11-23T09:52:48.000Z</time>
      </trkpt>
      <trkpt lat="43.5354" lon="6.10702">
        <ele>614</ele>
        <time>2025-11-23T09:52:58.000Z</time>
      </trkpt>
      <trkpt lat="43.5354" lon="6.1069">
        <ele>613.2</ele>
        <time>2025-11-23T09:53:09.000Z</time>
      </trkpt>
      <trkpt lat="43.53548" lon="6.10684">
        <ele>612.4</ele>
        <time>2025-11-23T09:53:28.000Z</time>
      </trkpt>
      <trkpt lat="43.53557" lon="6.10678">
        <ele>612.4</ele>
        <time>2025-11-23T09:53:38.000Z</time>
      </trkpt>
      <trkpt lat="43.53564" lon="6.1067">
        <ele>612.3</ele>
        <time>2025-11-23T09:53:50.000Z</time>
      </trkpt>
      <trkpt lat="43.53569" lon="6.1066">
        <ele>612.2</ele>
        <time>2025-11-23T09:54:02.000Z</time>
      </trkpt>
      <trkpt lat="43.53576" lon="6.10651">
        <ele>611.9</ele>
        <time>2025-11-23T09:54:20.000Z</time>
      </trkpt>
      <trkpt lat="43.53584" lon="6.10644">
        <ele>611.6</ele>
        <time>2025-11-23T09:54:45.000Z</time>
      </trkpt>
      <trkpt lat="43.53589" lon="6.10632">
        <ele>611.6</ele>
        <time>2025-11-23T09:54:53.000Z</time>
      </trkpt>
      <trkpt lat="43.53594" lon="6.10621">
        <ele>611.5</ele>
        <time>2025-11-23T09:55:04.000Z</time>
      </trkpt>
      <trkpt lat="43.53599" lon="6.10611">
        <ele>611.4</ele>
        <time>2025-11-23T09:55:11.000Z</time>
      </trkpt>
      <trkpt lat="43.53603" lon="6.10599">
        <ele>611.3</ele>
        <time>2025-11-23T09:55:21.000Z</time>
      </trkpt>
      <trkpt lat="43.53611" lon="6.1059">
        <ele>611.1</ele>
        <time>2025-11-23T09:55:36.000Z</time>
      </trkpt>
      <trkpt lat="43.53617" lon="6.1058">
        <ele>610.8</ele>
        <time>2025-11-23T09:55:44.000Z</time>
      </trkpt>
      <trkpt lat="43.53621" lon="6.10567">
        <ele>610.2</ele>
        <time>2025-11-23T09:55:54.000Z</time>
      </trkpt>
      <trkpt lat="43.53625" lon="6.10556">
        <ele>609.2</ele>
        <time>2025-11-23T09:56:05.000Z</time>
      </trkpt>
      <trkpt lat="43.53631" lon="6.10546">
        <ele>608.9</ele>
        <time>2025-11-23T09:56:14.000Z</time>
      </trkpt>
      <trkpt lat="43.53637" lon="6.10537">
        <ele>609</ele>
        <time>2025-11-23T09:56:25.000Z</time>
      </trkpt>
      <trkpt lat="43.53639" lon="6.10527">
        <ele>609.8</ele>
        <time>2025-11-23T09:57:03.000Z</time>
      </trkpt>
      <trkpt lat="43.53639" lon="6.10523">
        <ele>609.9</ele>
        <time>2025-11-23T09:57:34.000Z</time>
      </trkpt>
      <trkpt lat="43.53638" lon="6.1052">
        <ele>609.9</ele>
        <time>2025-11-23T09:57:49.000Z</time>
      </trkpt>
      <trkpt lat="43.53638" lon="6.10519">
        <ele>609.7</ele>
        <time>2025-11-23T09:58:30.000Z</time>
      </trkpt>
      <trkpt lat="43.53638" lon="6.10519">
        <ele>609.6</ele>
        <time>2025-11-23T09:59:08.000Z</time>
      </trkpt>
      <trkpt lat="43.53638" lon="6.10519">
        <ele>609.6</ele>
        <time>2025-11-23T09:59:46.000Z</time>
      </trkpt>
      <trkpt lat="43.53639" lon="6.10519">
        <ele>609.7</ele>
        <time>2025-11-23T10:00:05.000Z</time>
      </trkpt>
      <trkpt lat="43.53641" lon="6.10519">
        <ele>609.7</ele>
        <time>2025-11-23T10:00:37.000Z</time>
      </trkpt>
      <trkpt lat="43.53641" lon="6.1052">
        <ele>609.7</ele>
        <time>2025-11-23T10:00:53.000Z</time>
      </trkpt>
      <trkpt lat="43.5364" lon="6.10518">
        <ele>609.7</ele>
        <time>2025-11-23T10:01:19.000Z</time>
      </trkpt>
      <trkpt lat="43.5364" lon="6.10515">
        <ele>609.7</ele>
        <time>2025-11-23T10:01:39.000Z</time>
      </trkpt>
      <trkpt lat="43.5364" lon="6.10517">
        <ele>609.8</ele>
        <time>2025-11-23T10:01:56.000Z</time>
      </trkpt>
      <trkpt lat="43.5364" lon="6.10517">
        <ele>609.8</ele>
        <time>2025-11-23T10:02:06.000Z</time>
      </trkpt>
      <trkpt lat="43.53642" lon="6.10518">
        <ele>609.9</ele>
        <time>2025-11-23T10:03:06.000Z</time>
      </trkpt>
      <trkpt lat="43.53651" lon="6.10513">
        <ele>609.9</ele>
        <time>2025-11-23T10:03:29.000Z</time>
      </trkpt>
      <trkpt lat="43.53657" lon="6.10503">
        <ele>610</ele>
        <time>2025-11-23T10:03:37.000Z</time>
      </trkpt>
      <trkpt lat="43.53664" lon="6.10494">
        <ele>610.2</ele>
        <time>2025-11-23T10:03:46.000Z</time>
      </trkpt>
      <trkpt lat="43.53671" lon="6.10487">
        <ele>610.7</ele>
        <time>2025-11-23T10:03:55.000Z</time>
      </trkpt>
      <trkpt lat="43.5368" lon="6.10481">
        <ele>611.8</ele>
        <time>2025-11-23T10:04:10.000Z</time>
      </trkpt>
      <trkpt lat="43.53685" lon="6.1047">
        <ele>612.8</ele>
        <time>2025-11-23T10:04:26.000Z</time>
      </trkpt>
      <trkpt lat="43.53688" lon="6.10458">
        <ele>615.2</ele>
        <time>2025-11-23T10:04:45.000Z</time>
      </trkpt>
      <trkpt lat="43.5369" lon="6.10445">
        <ele>616.7</ele>
        <time>2025-11-23T10:04:59.000Z</time>
      </trkpt>
      <trkpt lat="43.53692" lon="6.10432">
        <ele>618.2</ele>
        <time>2025-11-23T10:05:15.000Z</time>
      </trkpt>
      <trkpt lat="43.53694" lon="6.1042">
        <ele>619.2</ele>
        <time>2025-11-23T10:05:24.000Z</time>
      </trkpt>
      <trkpt lat="43.53695" lon="6.10407">
        <ele>620.7</ele>
        <time>2025-11-23T10:05:39.000Z</time>
      </trkpt>
      <trkpt lat="43.53696" lon="6.10394">
        <ele>621.6</ele>
        <time>2025-11-23T10:05:52.000Z</time>
      </trkpt>
      <trkpt lat="43.53694" lon="6.10382">
        <ele>622.6</ele>
        <time>2025-11-23T10:06:04.000Z</time>
      </trkpt>
      <trkpt lat="43.53692" lon="6.10369">
        <ele>623.7</ele>
        <time>2025-11-23T10:06:17.000Z</time>
      </trkpt>
      <trkpt lat="43.53691" lon="6.10356">
        <ele>624.8</ele>
        <time>2025-11-23T10:06:31.000Z</time>
      </trkpt>
      <trkpt lat="43.53689" lon="6.10344">
        <ele>626.2</ele>
        <time>2025-11-23T10:06:49.000Z</time>
      </trkpt>
      <trkpt lat="43.5369" lon="6.10331">
        <ele>627.1</ele>
        <time>2025-11-23T10:06:58.000Z</time>
      </trkpt>
      <trkpt lat="43.53692" lon="6.10318">
        <ele>628.5</ele>
        <time>2025-11-23T10:07:11.000Z</time>
      </trkpt>
      <trkpt lat="43.53695" lon="6.10305">
        <ele>629.5</ele>
        <time>2025-11-23T10:07:22.000Z</time>
      </trkpt>
      <trkpt lat="43.53698" lon="6.10293">
        <ele>630.6</ele>
        <time>2025-11-23T10:07:36.000Z</time>
      </trkpt>
      <trkpt lat="43.53695" lon="6.10281">
        <ele>631.5</ele>
        <time>2025-11-23T10:07:47.000Z</time>
      </trkpt>
      <trkpt lat="43.5369" lon="6.1027">
        <ele>632.8</ele>
        <time>2025-11-23T10:08:00.000Z</time>
      </trkpt>
      <trkpt lat="43.53688" lon="6.10257">
        <ele>633.9</ele>
        <time>2025-11-23T10:08:14.000Z</time>
      </trkpt>
      <trkpt lat="43.53687" lon="6.10244">
        <ele>634.7</ele>
        <time>2025-11-23T10:08:28.000Z</time>
      </trkpt>
      <trkpt lat="43.53686" lon="6.1023">
        <ele>635.7</ele>
        <time>2025-11-23T10:08:40.000Z</time>
      </trkpt>
      <trkpt lat="43.53683" lon="6.10218">
        <ele>636.9</ele>
        <time>2025-11-23T10:08:51.000Z</time>
      </trkpt>
      <trkpt lat="43.53682" lon="6.10205">
        <ele>638.2</ele>
        <time>2025-11-23T10:09:05.000Z</time>
      </trkpt>
      <trkpt lat="43.53682" lon="6.10192">
        <ele>639.7</ele>
        <time>2025-11-23T10:09:25.000Z</time>
      </trkpt>
      <trkpt lat="43.53678" lon="6.1018">
        <ele>641</ele>
        <time>2025-11-23T10:09:49.000Z</time>
      </trkpt>
      <trkpt lat="43.53678" lon="6.10167">
        <ele>641.2</ele>
        <time>2025-11-23T10:09:57.000Z</time>
      </trkpt>
      <trkpt lat="43.53681" lon="6.10155">
        <ele>641.9</ele>
        <time>2025-11-23T10:10:06.000Z</time>
      </trkpt>
      <trkpt lat="43.53681" lon="6.10142">
        <ele>642.9</ele>
        <time>2025-11-23T10:10:15.000Z</time>
      </trkpt>
      <trkpt lat="43.53681" lon="6.10129">
        <ele>644</ele>
        <time>2025-11-23T10:10:27.000Z</time>
      </trkpt>
      <trkpt lat="43.53681" lon="6.10117">
        <ele>645</ele>
        <time>2025-11-23T10:10:40.000Z</time>
      </trkpt>
      <trkpt lat="43.53679" lon="6.10104">
        <ele>646</ele>
        <time>2025-11-23T10:10:50.000Z</time>
      </trkpt>
      <trkpt lat="43.53679" lon="6.10091">
        <ele>647.1</ele>
        <time>2025-11-23T10:11:03.000Z</time>
      </trkpt>
      <trkpt lat="43.5368" lon="6.10078">
        <ele>648.2</ele>
        <time>2025-11-23T10:11:15.000Z</time>
      </trkpt>
      <trkpt lat="43.5368" lon="6.10065">
        <ele>649.3</ele>
        <time>2025-11-23T10:11:26.000Z</time>
      </trkpt>
      <trkpt lat="43.5368" lon="6.10052">
        <ele>650.4</ele>
        <time>2025-11-23T10:11:36.000Z</time>
      </trkpt>
      <trkpt lat="43.53681" lon="6.10039">
        <ele>651.5</ele>
        <time>2025-11-23T10:11:51.000Z</time>
      </trkpt>
      <trkpt lat="43.53679" lon="6.10027">
        <ele>652.5</ele>
        <time>2025-11-23T10:12:05.000Z</time>
      </trkpt>
      <trkpt lat="43.53677" lon="6.10014">
        <ele>653.6</ele>
        <time>2025-11-23T10:12:19.000Z</time>
      </trkpt>
      <trkpt lat="43.53676" lon="6.10001">
        <ele>654.6</ele>
        <time>2025-11-23T10:12:35.000Z</time>
      </trkpt>
      <trkpt lat="43.53678" lon="6.09989">
        <ele>655.6</ele>
        <time>2025-11-23T10:12:49.000Z</time>
      </trkpt>
      <trkpt lat="43.53678" lon="6.09976">
        <ele>656.7</ele>
        <time>2025-11-23T10:13:03.000Z</time>
      </trkpt>
      <trkpt lat="43.53676" lon="6.09964">
        <ele>657.5</ele>
        <time>2025-11-23T10:13:13.000Z</time>
      </trkpt>
      <trkpt lat="43.53673" lon="6.09952">
        <ele>658.9</ele>
        <time>2025-11-23T10:13:24.000Z</time>
      </trkpt>
      <trkpt lat="43.53673" lon="6.09939">
        <ele>660.2</ele>
        <time>2025-11-23T10:13:39.000Z</time>
      </trkpt>
      <trkpt lat="43.53676" lon="6.09927">
        <ele>661.4</ele>
        <time>2025-11-23T10:13:55.000Z</time>
      </trkpt>
      <trkpt lat="43.53686" lon="6.09923">
        <ele>661.9</ele>
        <time>2025-11-23T10:14:08.000Z</time>
      </trkpt>
      <trkpt lat="43.53693" lon="6.09915">
        <ele>661.9</ele>
        <time>2025-11-23T10:14:19.000Z</time>
      </trkpt>
      <trkpt lat="43.53702" lon="6.0991">
        <ele>661.7</ele>
        <time>2025-11-23T10:14:34.000Z</time>
      </trkpt>
      <trkpt lat="43.53711" lon="6.09906">
        <ele>660.8</ele>
        <time>2025-11-23T10:14:48.000Z</time>
      </trkpt>
      <trkpt lat="43.53713" lon="6.09893">
        <ele>660</ele>
        <time>2025-11-23T10:14:58.000Z</time>
      </trkpt>
      <trkpt lat="43.53711" lon="6.0988">
        <ele>659.9</ele>
        <time>2025-11-23T10:15:06.000Z</time>
      </trkpt>
      <trkpt lat="43.5371" lon="6.09867">
        <ele>660.1</ele>
        <time>2025-11-23T10:15:14.000Z</time>
      </trkpt>
      <trkpt lat="43.53709" lon="6.09854">
        <ele>660.5</ele>
        <time>2025-11-23T10:15:23.000Z</time>
      </trkpt>
      <trkpt lat="43.53707" lon="6.09842">
        <ele>661.1</ele>
        <time>2025-11-23T10:15:33.000Z</time>
      </trkpt>
      <trkpt lat="43.53705" lon="6.09829">
        <ele>662.2</ele>
        <time>2025-11-23T10:15:44.000Z</time>
      </trkpt>
      <trkpt lat="43.53703" lon="6.09816">
        <ele>663.1</ele>
        <time>2025-11-23T10:15:54.000Z</time>
      </trkpt>
      <trkpt lat="43.53702" lon="6.09803">
        <ele>664.2</ele>
        <time>2025-11-23T10:16:05.000Z</time>
      </trkpt>
      <trkpt lat="43.53702" lon="6.0979">
        <ele>665.3</ele>
        <time>2025-11-23T10:16:16.000Z</time>
      </trkpt>
      <trkpt lat="43.537" lon="6.09778">
        <ele>666.1</ele>
        <time>2025-11-23T10:16:28.000Z</time>
      </trkpt>
      <trkpt lat="43.53702" lon="6.09765">
        <ele>667.2</ele>
        <time>2025-11-23T10:16:40.000Z</time>
      </trkpt>
      <trkpt lat="43.53702" lon="6.09752">
        <ele>668</ele>
        <time>2025-11-23T10:16:52.000Z</time>
      </trkpt>
      <trkpt lat="43.53703" lon="6.09739">
        <ele>669.2</ele>
        <time>2025-11-23T10:17:06.000Z</time>
      </trkpt>
      <trkpt lat="43.53701" lon="6.09726">
        <ele>670.2</ele>
        <time>2025-11-23T10:17:17.000Z</time>
      </trkpt>
      <trkpt lat="43.537" lon="6.09713">
        <ele>671.2</ele>
        <time>2025-11-23T10:17:28.000Z</time>
      </trkpt>
      <trkpt lat="43.53698" lon="6.09701">
        <ele>671.8</ele>
        <time>2025-11-23T10:17:38.000Z</time>
      </trkpt>
      <trkpt lat="43.53696" lon="6.09688">
        <ele>672.4</ele>
        <time>2025-11-23T10:17:49.000Z</time>
      </trkpt>
      <trkpt lat="43.53696" lon="6.09676">
        <ele>673</ele>
        <time>2025-11-23T10:17:59.000Z</time>
      </trkpt>
      <trkpt lat="43.53696" lon="6.09662">
        <ele>673.7</ele>
        <time>2025-11-23T10:18:10.000Z</time>
      </trkpt>
      <trkpt lat="43.53693" lon="6.0965">
        <ele>674.4</ele>
        <time>2025-11-23T10:18:21.000Z</time>
      </trkpt>
      <trkpt lat="43.53697" lon="6.09638">
        <ele>675</ele>
        <time>2025-11-23T10:18:32.000Z</time>
      </trkpt>
      <trkpt lat="43.53698" lon="6.09625">
        <ele>675.4</ele>
        <time>2025-11-23T10:18:42.000Z</time>
      </trkpt>
      <trkpt lat="43.53699" lon="6.09611">
        <ele>675.8</ele>
        <time>2025-11-23T10:18:52.000Z</time>
      </trkpt>
      <trkpt lat="43.53697" lon="6.09598">
        <ele>676.1</ele>
        <time>2025-11-23T10:19:03.000Z</time>
      </trkpt>
      <trkpt lat="43.53695" lon="6.09585">
        <ele>676.6</ele>
        <time>2025-11-23T10:19:13.000Z</time>
      </trkpt>
      <trkpt lat="43.53692" lon="6.09573">
        <ele>677.6</ele>
        <time>2025-11-23T10:19:25.000Z</time>
      </trkpt>
      <trkpt lat="43.53689" lon="6.09561">
        <ele>678.3</ele>
        <time>2025-11-23T10:19:36.000Z</time>
      </trkpt>
      <trkpt lat="43.53686" lon="6.09549">
        <ele>678.7</ele>
        <time>2025-11-23T10:19:46.000Z</time>
      </trkpt>
      <trkpt lat="43.53683" lon="6.09537">
        <ele>679.3</ele>
        <time>2025-11-23T10:19:56.000Z</time>
      </trkpt>
      <trkpt lat="43.5368" lon="6.09525">
        <ele>680.1</ele>
        <time>2025-11-23T10:20:07.000Z</time>
      </trkpt>
      <trkpt lat="43.53676" lon="6.09512">
        <ele>680.7</ele>
        <time>2025-11-23T10:20:18.000Z</time>
      </trkpt>
      <trkpt lat="43.53672" lon="6.095">
        <ele>681.2</ele>
        <time>2025-11-23T10:20:28.000Z</time>
      </trkpt>
      <trkpt lat="43.53671" lon="6.09488">
        <ele>682</ele>
        <time>2025-11-23T10:20:39.000Z</time>
      </trkpt>
      <trkpt lat="43.53671" lon="6.09475">
        <ele>682.9</ele>
        <time>2025-11-23T10:20:51.000Z</time>
      </trkpt>
      <trkpt lat="43.53673" lon="6.09462">
        <ele>683.6</ele>
        <time>2025-11-23T10:21:01.000Z</time>
      </trkpt>
      <trkpt lat="43.53675" lon="6.0945">
        <ele>684.2</ele>
        <time>2025-11-23T10:21:11.000Z</time>
      </trkpt>
      <trkpt lat="43.53678" lon="6.09438">
        <ele>684.9</ele>
        <time>2025-11-23T10:21:22.000Z</time>
      </trkpt>
      <trkpt lat="43.5368" lon="6.09426">
        <ele>685.6</ele>
        <time>2025-11-23T10:21:33.000Z</time>
      </trkpt>
      <trkpt lat="43.53682" lon="6.09414">
        <ele>686.3</ele>
        <time>2025-11-23T10:21:43.000Z</time>
      </trkpt>
      <trkpt lat="43.53682" lon="6.094">
        <ele>686.8</ele>
        <time>2025-11-23T10:21:54.000Z</time>
      </trkpt>
      <trkpt lat="43.53682" lon="6.09388">
        <ele>687.1</ele>
        <time>2025-11-23T10:22:03.000Z</time>
      </trkpt>
      <trkpt lat="43.5368" lon="6.09374">
        <ele>687.6</ele>
        <time>2025-11-23T10:22:13.000Z</time>
      </trkpt>
      <trkpt lat="43.53677" lon="6.09362">
        <ele>688.1</ele>
        <time>2025-11-23T10:22:23.000Z</time>
      </trkpt>
      <trkpt lat="43.53673" lon="6.0935">
        <ele>688.8</ele>
        <time>2025-11-23T10:22:33.000Z</time>
      </trkpt>
      <trkpt lat="43.53669" lon="6.09338">
        <ele>689.5</ele>
        <time>2025-11-23T10:22:43.000Z</time>
      </trkpt>
      <trkpt lat="43.53664" lon="6.09326">
        <ele>689.9</ele>
        <time>2025-11-23T10:22:53.000Z</time>
      </trkpt>
      <trkpt lat="43.53659" lon="6.09316">
        <ele>690.1</ele>
        <time>2025-11-23T10:23:02.000Z</time>
      </trkpt>
      <trkpt lat="43.53652" lon="6.09307">
        <ele>690.4</ele>
        <time>2025-11-23T10:23:12.000Z</time>
      </trkpt>
      <trkpt lat="43.53644" lon="6.09299">
        <ele>690.4</ele>
        <time>2025-11-23T10:23:24.000Z</time>
      </trkpt>
      <trkpt lat="43.53637" lon="6.09291">
        <ele>690.6</ele>
        <time>2025-11-23T10:23:33.000Z</time>
      </trkpt>
      <trkpt lat="43.53629" lon="6.09284">
        <ele>690.8</ele>
        <time>2025-11-23T10:23:42.000Z</time>
      </trkpt>
      <trkpt lat="43.53622" lon="6.09276">
        <ele>691</ele>
        <time>2025-11-23T10:23:51.000Z</time>
      </trkpt>
      <trkpt lat="43.53614" lon="6.0927">
        <ele>691.1</ele>
        <time>2025-11-23T10:24:02.000Z</time>
      </trkpt>
      <trkpt lat="43.53605" lon="6.09265">
        <ele>691.3</ele>
        <time>2025-11-23T10:24:13.000Z</time>
      </trkpt>
      <trkpt lat="43.53597" lon="6.09257">
        <ele>692.1</ele>
        <time>2025-11-23T10:24:24.000Z</time>
      </trkpt>
      <trkpt lat="43.53593" lon="6.09246">
        <ele>693.2</ele>
        <time>2025-11-23T10:24:35.000Z</time>
      </trkpt>
      <trkpt lat="43.53589" lon="6.09234">
        <ele>693.7</ele>
        <time>2025-11-23T10:24:45.000Z</time>
      </trkpt>
      <trkpt lat="43.53586" lon="6.09221">
        <ele>694</ele>
        <time>2025-11-23T10:24:54.000Z</time>
      </trkpt>
      <trkpt lat="43.53584" lon="6.09208">
        <ele>694.3</ele>
        <time>2025-11-23T10:25:04.000Z</time>
      </trkpt>
      <trkpt lat="43.53582" lon="6.09204">
        <ele>694.4</ele>
        <time>2025-11-23T10:25:21.000Z</time>
      </trkpt>
      <trkpt lat="43.53581" lon="6.09202">
        <ele>694.3</ele>
        <time>2025-11-23T10:26:21.000Z</time>
      </trkpt>
      <trkpt lat="43.53581" lon="6.09202">
        <ele>694.2</ele>
        <time>2025-11-23T10:26:32.000Z</time>
      </trkpt>
      <trkpt lat="43.53577" lon="6.09201">
        <ele>694.2</ele>
        <time>2025-11-23T10:26:42.000Z</time>
      </trkpt>
      <trkpt lat="43.53568" lon="6.09205">
        <ele>697.7</ele>
        <time>2025-11-23T10:27:20.000Z</time>
      </trkpt>
      <trkpt lat="43.5356" lon="6.09211">
        <ele>700.6</ele>
        <time>2025-11-23T10:27:52.000Z</time>
      </trkpt>
      <trkpt lat="43.53556" lon="6.09221">
        <ele>704.4</ele>
        <time>2025-11-23T10:28:39.000Z</time>
      </trkpt>
      <trkpt lat="43.53554" lon="6.09227">
        <ele>705.9</ele>
        <time>2025-11-23T10:29:26.000Z</time>
      </trkpt>
      <trkpt lat="43.53553" lon="6.09227">
        <ele>706.2</ele>
        <time>2025-11-23T10:29:37.000Z</time>
      </trkpt>
      <trkpt lat="43.53553" lon="6.09226">
        <ele>706.7</ele>
        <time>2025-11-23T10:30:09.000Z</time>
      </trkpt>
      <trkpt lat="43.53553" lon="6.09226">
        <ele>707.7</ele>
        <time>2025-11-23T10:30:35.000Z</time>
      </trkpt>
      <trkpt lat="43.53547" lon="6.09225">
        <ele>709.1</ele>
        <time>2025-11-23T10:31:13.000Z</time>
      </trkpt>
      <trkpt lat="43.53547" lon="6.09225">
        <ele>709</ele>
        <time>2025-11-23T10:32:10.000Z</time>
      </trkpt>
      <trkpt lat="43.53549" lon="6.0923">
        <ele>708.7</ele>
        <time>2025-11-23T10:32:53.000Z</time>
      </trkpt>
      <trkpt lat="43.53549" lon="6.0923">
        <ele>708.4</ele>
        <time>2025-11-23T10:33:11.000Z</time>
      </trkpt>
      <trkpt lat="43.53549" lon="6.0923">
        <ele>708.1</ele>
        <time>2025-11-23T10:33:24.000Z</time>
      </trkpt>
      <trkpt lat="43.53549" lon="6.09231">
        <ele>708.1</ele>
        <time>2025-11-23T10:34:53.000Z</time>
      </trkpt>
      <trkpt lat="43.5355" lon="6.09233">
        <ele>708.1</ele>
        <time>2025-11-23T10:35:11.000Z</time>
      </trkpt>
      <trkpt lat="43.5355" lon="6.09231">
        <ele>707.9</ele>
        <time>2025-11-23T10:35:38.000Z</time>
      </trkpt>
      <trkpt lat="43.53551" lon="6.09229">
        <ele>707.7</ele>
        <time>2025-11-23T10:36:01.000Z</time>
      </trkpt>
      <trkpt lat="43.53551" lon="6.09229">
        <ele>707.5</ele>
        <time>2025-11-23T10:36:11.000Z</time>
      </trkpt>
      <trkpt lat="43.53551" lon="6.09229">
        <ele>707.3</ele>
        <time>2025-11-23T10:36:20.000Z</time>
      </trkpt>
      <trkpt lat="43.53551" lon="6.09229">
        <ele>707.3</ele>
        <time>2025-11-23T10:36:26.000Z</time>
      </trkpt>
      <trkpt lat="43.5355" lon="6.09229">
        <ele>707</ele>
        <time>2025-11-23T10:36:41.000Z</time>
      </trkpt>
      <trkpt lat="43.5355" lon="6.09228">
        <ele>706.8</ele>
        <time>2025-11-23T10:37:26.000Z</time>
      </trkpt>
      <trkpt lat="43.53554" lon="6.09225">
        <ele>703</ele>
        <time>2025-11-23T10:38:50.000Z</time>
      </trkpt>
      <trkpt lat="43.53554" lon="6.09226">
        <ele>702.8</ele>
        <time>2025-11-23T10:38:56.000Z</time>
      </trkpt>
      <trkpt lat="43.5356" lon="6.09216">
        <ele>700.9</ele>
        <time>2025-11-23T10:39:17.000Z</time>
      </trkpt>
      <trkpt lat="43.53568" lon="6.09209">
        <ele>697</ele>
        <time>2025-11-23T10:39:38.000Z</time>
      </trkpt>
      <trkpt lat="43.53577" lon="6.09203">
        <ele>691.9</ele>
        <time>2025-11-23T10:39:59.000Z</time>
      </trkpt>
      <trkpt lat="43.53582" lon="6.09192">
        <ele>688.4</ele>
        <time>2025-11-23T10:40:14.000Z</time>
      </trkpt>
      <trkpt lat="43.53578" lon="6.0918">
        <ele>688.3</ele>
        <time>2025-11-23T10:40:23.000Z</time>
      </trkpt>
      <trkpt lat="43.53575" lon="6.09168">
        <ele>688.8</ele>
        <time>2025-11-23T10:40:31.000Z</time>
      </trkpt>
      <trkpt lat="43.53568" lon="6.09158">
        <ele>689.1</ele>
        <time>2025-11-23T10:40:40.000Z</time>
      </trkpt>
      <trkpt lat="43.53565" lon="6.09146">
        <ele>689.3</ele>
        <time>2025-11-23T10:40:50.000Z</time>
      </trkpt>
      <trkpt lat="43.53565" lon="6.09143">
        <ele>690.5</ele>
        <time>2025-11-23T10:41:08.000Z</time>
      </trkpt>
      <trkpt lat="43.53565" lon="6.09143">
        <ele>690.5</ele>
        <time>2025-11-23T10:41:09.000Z</time>
      </trkpt>
      <trkpt lat="43.53565" lon="6.09143">
        <ele>690.6</ele>
        <time>2025-11-23T10:41:23.000Z</time>
      </trkpt>
      <trkpt lat="43.53569" lon="6.0914">
        <ele>690.8</ele>
        <time>2025-11-23T10:41:44.000Z</time>
      </trkpt>
      <trkpt lat="43.53574" lon="6.09129">
        <ele>691.3</ele>
        <time>2025-11-23T10:41:54.000Z</time>
      </trkpt>
      <trkpt lat="43.53577" lon="6.09117">
        <ele>691.9</ele>
        <time>2025-11-23T10:42:04.000Z</time>
      </trkpt>
      <trkpt lat="43.53574" lon="6.09104">
        <ele>692.7</ele>
        <time>2025-11-23T10:42:14.000Z</time>
      </trkpt>
      <trkpt lat="43.53567" lon="6.09097">
        <ele>694.3</ele>
        <time>2025-11-23T10:42:29.000Z</time>
      </trkpt>
      <trkpt lat="43.53558" lon="6.09091">
        <ele>695.4</ele>
        <time>2025-11-23T10:42:39.000Z</time>
      </trkpt>
      <trkpt lat="43.5355" lon="6.09083">
        <ele>696.2</ele>
        <time>2025-11-23T10:42:48.000Z</time>
      </trkpt>
      <trkpt lat="43.53543" lon="6.09075">
        <ele>698</ele>
        <time>2025-11-23T10:43:05.000Z</time>
      </trkpt>
      <trkpt lat="43.53538" lon="6.09065">
        <ele>698.7</ele>
        <time>2025-11-23T10:43:38.000Z</time>
      </trkpt>
      <trkpt lat="43.53534" lon="6.09052">
        <ele>699</ele>
        <time>2025-11-23T10:43:46.000Z</time>
      </trkpt>
      <trkpt lat="43.53531" lon="6.0904">
        <ele>699.7</ele>
        <time>2025-11-23T10:43:56.000Z</time>
      </trkpt>
      <trkpt lat="43.53528" lon="6.09028">
        <ele>700.9</ele>
        <time>2025-11-23T10:44:06.000Z</time>
      </trkpt>
      <trkpt lat="43.53525" lon="6.09016">
        <ele>702.1</ele>
        <time>2025-11-23T10:44:16.000Z</time>
      </trkpt>
      <trkpt lat="43.53522" lon="6.09004">
        <ele>703</ele>
        <time>2025-11-23T10:44:25.000Z</time>
      </trkpt>
      <trkpt lat="43.53521" lon="6.08991">
        <ele>703.8</ele>
        <time>2025-11-23T10:44:35.000Z</time>
      </trkpt>
      <trkpt lat="43.53522" lon="6.08978">
        <ele>704.7</ele>
        <time>2025-11-23T10:44:45.000Z</time>
      </trkpt>
      <trkpt lat="43.53524" lon="6.08964">
        <ele>705.5</ele>
        <time>2025-11-23T10:44:55.000Z</time>
      </trkpt>
      <trkpt lat="43.53524" lon="6.08951">
        <ele>706</ele>
        <time>2025-11-23T10:45:04.000Z</time>
      </trkpt>
      <trkpt lat="43.53526" lon="6.08939">
        <ele>706.9</ele>
        <time>2025-11-23T10:45:14.000Z</time>
      </trkpt>
      <trkpt lat="43.53529" lon="6.08925">
        <ele>708</ele>
        <time>2025-11-23T10:45:25.000Z</time>
      </trkpt>
      <trkpt lat="43.53532" lon="6.08914">
        <ele>709</ele>
        <time>2025-11-23T10:45:34.000Z</time>
      </trkpt>
      <trkpt lat="43.53533" lon="6.08902">
        <ele>710.3</ele>
        <time>2025-11-23T10:45:45.000Z</time>
      </trkpt>
      <trkpt lat="43.53538" lon="6.0889">
        <ele>711.2</ele>
        <time>2025-11-23T10:45:55.000Z</time>
      </trkpt>
      <trkpt lat="43.53542" lon="6.08883">
        <ele>713.2</ele>
        <time>2025-11-23T10:46:41.000Z</time>
      </trkpt>
      <trkpt lat="43.53542" lon="6.08882">
        <ele>713.2</ele>
        <time>2025-11-23T10:46:44.000Z</time>
      </trkpt>
      <trkpt lat="43.53538" lon="6.08871">
        <ele>715.5</ele>
        <time>2025-11-23T10:47:18.000Z</time>
      </trkpt>
      <trkpt lat="43.53533" lon="6.0886">
        <ele>719.7</ele>
        <time>2025-11-23T10:47:50.000Z</time>
      </trkpt>
      <trkpt lat="43.53531" lon="6.08847">
        <ele>721.3</ele>
        <time>2025-11-23T10:48:08.000Z</time>
      </trkpt>
      <trkpt lat="43.53535" lon="6.08836">
        <ele>724.6</ele>
        <time>2025-11-23T10:48:35.000Z</time>
      </trkpt>
      <trkpt lat="43.53535" lon="6.08824">
        <ele>728.4</ele>
        <time>2025-11-23T10:49:05.000Z</time>
      </trkpt>
      <trkpt lat="43.53535" lon="6.08811">
        <ele>730.9</ele>
        <time>2025-11-23T10:49:25.000Z</time>
      </trkpt>
      <trkpt lat="43.53536" lon="6.08799">
        <ele>732.6</ele>
        <time>2025-11-23T10:49:42.000Z</time>
      </trkpt>
      <trkpt lat="43.53537" lon="6.08791">
        <ele>734</ele>
        <time>2025-11-23T10:50:05.000Z</time>
      </trkpt>
      <trkpt lat="43.53537" lon="6.08791">
        <ele>734.2</ele>
        <time>2025-11-23T10:50:16.000Z</time>
      </trkpt>
      <trkpt lat="43.53537" lon="6.08791">
        <ele>734.1</ele>
        <time>2025-11-23T10:50:26.000Z</time>
      </trkpt>
      <trkpt lat="43.53538" lon="6.08787">
        <ele>734.5</ele>
        <time>2025-11-23T10:50:46.000Z</time>
      </trkpt>
      <trkpt lat="43.53541" lon="6.08775">
        <ele>734.6</ele>
        <time>2025-11-23T10:50:57.000Z</time>
      </trkpt>
      <trkpt lat="43.53537" lon="6.08765">
        <ele>737.7</ele>
        <time>2025-11-23T10:51:26.000Z</time>
      </trkpt>
      <trkpt lat="43.53539" lon="6.08765">
        <ele>738.2</ele>
        <time>2025-11-23T10:52:25.000Z</time>
      </trkpt>
      <trkpt lat="43.53543" lon="6.08753">
        <ele>738.1</ele>
        <time>2025-11-23T10:52:42.000Z</time>
      </trkpt>
      <trkpt lat="43.53551" lon="6.08748">
        <ele>738.4</ele>
        <time>2025-11-23T10:52:51.000Z</time>
      </trkpt>
      <trkpt lat="43.5356" lon="6.08741">
        <ele>740</ele>
        <time>2025-11-23T10:53:05.000Z</time>
      </trkpt>
      <trkpt lat="43.53568" lon="6.08736">
        <ele>741.3</ele>
        <time>2025-11-23T10:53:15.000Z</time>
      </trkpt>
      <trkpt lat="43.53576" lon="6.0873">
        <ele>742.2</ele>
        <time>2025-11-23T10:53:23.000Z</time>
      </trkpt>
      <trkpt lat="43.53585" lon="6.08723">
        <ele>743.1</ele>
        <time>2025-11-23T10:53:32.000Z</time>
      </trkpt>
      <trkpt lat="43.5359" lon="6.08712">
        <ele>744</ele>
        <time>2025-11-23T10:53:42.000Z</time>
      </trkpt>
      <trkpt lat="43.53588" lon="6.08699">
        <ele>744.5</ele>
        <time>2025-11-23T10:53:51.000Z</time>
      </trkpt>
      <trkpt lat="43.53585" lon="6.08687">
        <ele>745</ele>
        <time>2025-11-23T10:54:00.000Z</time>
      </trkpt>
      <trkpt lat="43.53581" lon="6.08676">
        <ele>745.2</ele>
        <time>2025-11-23T10:54:09.000Z</time>
      </trkpt>
      <trkpt lat="43.53578" lon="6.08663">
        <ele>745.6</ele>
        <time>2025-11-23T10:54:18.000Z</time>
      </trkpt>
      <trkpt lat="43.53576" lon="6.0865">
        <ele>745.9</ele>
        <time>2025-11-23T10:54:27.000Z</time>
      </trkpt>
      <trkpt lat="43.53573" lon="6.08638">
        <ele>746.3</ele>
        <time>2025-11-23T10:54:35.000Z</time>
      </trkpt>
      <trkpt lat="43.5357" lon="6.08625">
        <ele>746.6</ele>
        <time>2025-11-23T10:54:44.000Z</time>
      </trkpt>
      <trkpt lat="43.5357" lon="6.08612">
        <ele>747</ele>
        <time>2025-11-23T10:54:51.000Z</time>
      </trkpt>
      <trkpt lat="43.53565" lon="6.086">
        <ele>747.5</ele>
        <time>2025-11-23T10:55:00.000Z</time>
      </trkpt>
      <trkpt lat="43.53563" lon="6.08588">
        <ele>747.7</ele>
        <time>2025-11-23T10:55:08.000Z</time>
      </trkpt>
      <trkpt lat="43.5356" lon="6.08575">
        <ele>748</ele>
        <time>2025-11-23T10:55:16.000Z</time>
      </trkpt>
      <trkpt lat="43.5356" lon="6.08563">
        <ele>748.3</ele>
        <time>2025-11-23T10:55:24.000Z</time>
      </trkpt>
      <trkpt lat="43.53557" lon="6.0855">
        <ele>748.9</ele>
        <time>2025-11-23T10:55:34.000Z</time>
      </trkpt>
      <trkpt lat="43.53557" lon="6.08537">
        <ele>749.4</ele>
        <time>2025-11-23T10:55:44.000Z</time>
      </trkpt>
      <trkpt lat="43.53559" lon="6.08524">
        <ele>750.1</ele>
        <time>2025-11-23T10:55:52.000Z</time>
      </trkpt>
      <trkpt lat="43.53559" lon="6.08512">
        <ele>750.9</ele>
        <time>2025-11-23T10:56:01.000Z</time>
      </trkpt>
      <trkpt lat="43.53563" lon="6.085">
        <ele>751.5</ele>
        <time>2025-11-23T10:56:10.000Z</time>
      </trkpt>
      <trkpt lat="43.53569" lon="6.0849">
        <ele>752</ele>
        <time>2025-11-23T10:56:20.000Z</time>
      </trkpt>
      <trkpt lat="43.53572" lon="6.08487">
        <ele>752.4</ele>
        <time>2025-11-23T10:56:38.000Z</time>
      </trkpt>
      <trkpt lat="43.5357" lon="6.08484">
        <ele>753.8</ele>
        <time>2025-11-23T10:57:40.000Z</time>
      </trkpt>
      <trkpt lat="43.53573" lon="6.08472">
        <ele>754.5</ele>
        <time>2025-11-23T10:58:07.000Z</time>
      </trkpt>
      <trkpt lat="43.53575" lon="6.0846">
        <ele>759</ele>
        <time>2025-11-23T10:58:46.000Z</time>
      </trkpt>
      <trkpt lat="43.5358" lon="6.08449">
        <ele>762.6</ele>
        <time>2025-11-23T10:59:22.000Z</time>
      </trkpt>
      <trkpt lat="43.53576" lon="6.08438">
        <ele>767.1</ele>
        <time>2025-11-23T11:00:09.000Z</time>
      </trkpt>
      <trkpt lat="43.53571" lon="6.08427">
        <ele>770.7</ele>
        <time>2025-11-23T11:00:46.000Z</time>
      </trkpt>
      <trkpt lat="43.53571" lon="6.08415">
        <ele>775.8</ele>
        <time>2025-11-23T11:01:31.000Z</time>
      </trkpt>
      <trkpt lat="43.5357" lon="6.08402">
        <ele>778.8</ele>
        <time>2025-11-23T11:02:01.000Z</time>
      </trkpt>
      <trkpt lat="43.53563" lon="6.08394">
        <ele>781</ele>
        <time>2025-11-23T11:02:20.000Z</time>
      </trkpt>
      <trkpt lat="43.5356" lon="6.08381">
        <ele>785.3</ele>
        <time>2025-11-23T11:03:01.000Z</time>
      </trkpt>
      <trkpt lat="43.53555" lon="6.0837">
        <ele>787.7</ele>
        <time>2025-11-23T11:03:26.000Z</time>
      </trkpt>
      <trkpt lat="43.53554" lon="6.08366">
        <ele>789</ele>
        <time>2025-11-23T11:03:47.000Z</time>
      </trkpt>
      <trkpt lat="43.53553" lon="6.08362">
        <ele>789.7</ele>
        <time>2025-11-23T11:04:18.000Z</time>
      </trkpt>
      <trkpt lat="43.53554" lon="6.08359">
        <ele>790.1</ele>
        <time>2025-11-23T11:04:39.000Z</time>
      </trkpt>
      <trkpt lat="43.53553" lon="6.08359">
        <ele>790.3</ele>
        <time>2025-11-23T11:05:39.000Z</time>
      </trkpt>
      <trkpt lat="43.53553" lon="6.08359">
        <ele>790.5</ele>
        <time>2025-11-23T11:05:50.000Z</time>
      </trkpt>
      <trkpt lat="43.53555" lon="6.08357">
        <ele>790.5</ele>
        <time>2025-11-23T11:06:18.000Z</time>
      </trkpt>
      <trkpt lat="43.53554" lon="6.08357">
        <ele>790.7</ele>
        <time>2025-11-23T11:06:35.000Z</time>
      </trkpt>
      <trkpt lat="43.53553" lon="6.08351">
        <ele>790.7</ele>
        <time>2025-11-23T11:06:45.000Z</time>
      </trkpt>
      <trkpt lat="43.53559" lon="6.0834">
        <ele>791.2</ele>
        <time>2025-11-23T11:06:56.000Z</time>
      </trkpt>
      <trkpt lat="43.53558" lon="6.08327">
        <ele>792.3</ele>
        <time>2025-11-23T11:07:08.000Z</time>
      </trkpt>
      <trkpt lat="43.53556" lon="6.08314">
        <ele>793</ele>
        <time>2025-11-23T11:07:19.000Z</time>
      </trkpt>
      <trkpt lat="43.53555" lon="6.08301">
        <ele>793.8</ele>
        <time>2025-11-23T11:07:32.000Z</time>
      </trkpt>
      <trkpt lat="43.53555" lon="6.08288">
        <ele>794.6</ele>
        <time>2025-11-23T11:07:46.000Z</time>
      </trkpt>
      <trkpt lat="43.53554" lon="6.08275">
        <ele>795.3</ele>
        <time>2025-11-23T11:08:00.000Z</time>
      </trkpt>
      <trkpt lat="43.53555" lon="6.08263">
        <ele>796.3</ele>
        <time>2025-11-23T11:08:11.000Z</time>
      </trkpt>
      <trkpt lat="43.53557" lon="6.0825">
        <ele>797</ele>
        <time>2025-11-23T11:08:23.000Z</time>
      </trkpt>
      <trkpt lat="43.53558" lon="6.08236">
        <ele>797.4</ele>
        <time>2025-11-23T11:08:34.000Z</time>
      </trkpt>
      <trkpt lat="43.53564" lon="6.08226">
        <ele>797.8</ele>
        <time>2025-11-23T11:08:46.000Z</time>
      </trkpt>
      <trkpt lat="43.53567" lon="6.08213">
        <ele>798.9</ele>
        <time>2025-11-23T11:09:07.000Z</time>
      </trkpt>
      <trkpt lat="43.53572" lon="6.08203">
        <ele>799.4</ele>
        <time>2025-11-23T11:09:19.000Z</time>
      </trkpt>
      <trkpt lat="43.53579" lon="6.08193">
        <ele>800.7</ele>
        <time>2025-11-23T11:09:33.000Z</time>
      </trkpt>
      <trkpt lat="43.53584" lon="6.08182">
        <ele>802.2</ele>
        <time>2025-11-23T11:09:47.000Z</time>
      </trkpt>
      <trkpt lat="43.53591" lon="6.08174">
        <ele>803.7</ele>
        <time>2025-11-23T11:10:02.000Z</time>
      </trkpt>
      <trkpt lat="43.53596" lon="6.08164">
        <ele>804.6</ele>
        <time>2025-11-23T11:10:13.000Z</time>
      </trkpt>
      <trkpt lat="43.53602" lon="6.08155">
        <ele>806.2</ele>
        <time>2025-11-23T11:10:35.000Z</time>
      </trkpt>
      <trkpt lat="43.53611" lon="6.08148">
        <ele>806.8</ele>
        <time>2025-11-23T11:10:47.000Z</time>
      </trkpt>
      <trkpt lat="43.53617" lon="6.08138">
        <ele>807.6</ele>
        <time>2025-11-23T11:11:00.000Z</time>
      </trkpt>
      <trkpt lat="43.53616" lon="6.08125">
        <ele>809.2</ele>
        <time>2025-11-23T11:11:13.000Z</time>
      </trkpt>
      <trkpt lat="43.5362" lon="6.08113">
        <ele>811.6</ele>
        <time>2025-11-23T11:11:29.000Z</time>
      </trkpt>
      <trkpt lat="43.53625" lon="6.08103">
        <ele>813</ele>
        <time>2025-11-23T11:11:48.000Z</time>
      </trkpt>
      <trkpt lat="43.53626" lon="6.0809">
        <ele>814.2</ele>
        <time>2025-11-23T11:12:05.000Z</time>
      </trkpt>
      <trkpt lat="43.53626" lon="6.08077">
        <ele>815.8</ele>
        <time>2025-11-23T11:12:29.000Z</time>
      </trkpt>
      <trkpt lat="43.53625" lon="6.08078">
        <ele>816.3</ele>
        <time>2025-11-23T11:12:58.000Z</time>
      </trkpt>
      <trkpt lat="43.53625" lon="6.08077">
        <ele>816.5</ele>
        <time>2025-11-23T11:13:11.000Z</time>
      </trkpt>
      <trkpt lat="43.53625" lon="6.08077">
        <ele>816.5</ele>
        <time>2025-11-23T11:13:20.000Z</time>
      </trkpt>
      <trkpt lat="43.53624" lon="6.08077">
        <ele>816.5</ele>
        <time>2025-11-23T11:13:23.000Z</time>
      </trkpt>
      <trkpt lat="43.53624" lon="6.08077">
        <ele>816.5</ele>
        <time>2025-11-23T11:13:36.000Z</time>
      </trkpt>
      <trkpt lat="43.53624" lon="6.08077">
        <ele>816.7</ele>
        <time>2025-11-23T11:14:16.000Z</time>
      </trkpt>
      <trkpt lat="43.53624" lon="6.08077">
        <ele>816.6</ele>
        <time>2025-11-23T11:14:27.000Z</time>
      </trkpt>
      <trkpt lat="43.53624" lon="6.08072">
        <ele>816.5</ele>
        <time>2025-11-23T11:14:52.000Z</time>
      </trkpt>
      <trkpt lat="43.53625" lon="6.0807">
        <ele>816.5</ele>
        <time>2025-11-23T11:15:13.000Z</time>
      </trkpt>
      <trkpt lat="43.53625" lon="6.0807">
        <ele>816.5</ele>
        <time>2025-11-23T11:15:14.000Z</time>
      </trkpt>
      <trkpt lat="43.53626" lon="6.08067">
        <ele>816.5</ele>
        <time>2025-11-23T11:15:36.000Z</time>
      </trkpt>
      <trkpt lat="43.53629" lon="6.08069">
        <ele>816.4</ele>
        <time>2025-11-23T11:15:46.000Z</time>
      </trkpt>
      <trkpt lat="43.53638" lon="6.08071">
        <ele>815.7</ele>
        <time>2025-11-23T11:16:00.000Z</time>
      </trkpt>
      <trkpt lat="43.53645" lon="6.08062">
        <ele>814.9</ele>
        <time>2025-11-23T11:16:10.000Z</time>
      </trkpt>
      <trkpt lat="43.53651" lon="6.08051">
        <ele>813.6</ele>
        <time>2025-11-23T11:16:21.000Z</time>
      </trkpt>
      <trkpt lat="43.53655" lon="6.0804">
        <ele>812.6</ele>
        <time>2025-11-23T11:16:31.000Z</time>
      </trkpt>
      <trkpt lat="43.5366" lon="6.08029">
        <ele>811.4</ele>
        <time>2025-11-23T11:16:49.000Z</time>
      </trkpt>
      <trkpt lat="43.53668" lon="6.08022">
        <ele>811.5</ele>
        <time>2025-11-23T11:17:02.000Z</time>
      </trkpt>
      <trkpt lat="43.53672" lon="6.08011">
        <ele>811.8</ele>
        <time>2025-11-23T11:17:21.000Z</time>
      </trkpt>
      <trkpt lat="43.5368" lon="6.08004">
        <ele>812.8</ele>
        <time>2025-11-23T11:17:40.000Z</time>
      </trkpt>
      <trkpt lat="43.53682" lon="6.07991">
        <ele>814.7</ele>
        <time>2025-11-23T11:18:13.000Z</time>
      </trkpt>
      <trkpt lat="43.53682" lon="6.07986">
        <ele>815.2</ele>
        <time>2025-11-23T11:18:34.000Z</time>
      </trkpt>
      <trkpt lat="43.53683" lon="6.07984">
        <ele>815.2</ele>
        <time>2025-11-23T11:18:36.000Z</time>
      </trkpt>
      <trkpt lat="43.53687" lon="6.07973">
        <ele>816.1</ele>
        <time>2025-11-23T11:18:54.000Z</time>
      </trkpt>
      <trkpt lat="43.53693" lon="6.07964">
        <ele>816.8</ele>
        <time>2025-11-23T11:19:08.000Z</time>
      </trkpt>
      <trkpt lat="43.53702" lon="6.07959">
        <ele>817</ele>
        <time>2025-11-23T11:19:28.000Z</time>
      </trkpt>
      <trkpt lat="43.53711" lon="6.07959">
        <ele>816.5</ele>
        <time>2025-11-23T11:19:47.000Z</time>
      </trkpt>
      <trkpt lat="43.53711" lon="6.07946">
        <ele>816.4</ele>
        <time>2025-11-23T11:19:57.000Z</time>
      </trkpt>
      <trkpt lat="43.53709" lon="6.07934">
        <ele>816.4</ele>
        <time>2025-11-23T11:20:06.000Z</time>
      </trkpt>
      <trkpt lat="43.53706" lon="6.07921">
        <ele>816.8</ele>
        <time>2025-11-23T11:20:16.000Z</time>
      </trkpt>
      <trkpt lat="43.53706" lon="6.07908">
        <ele>817</ele>
        <time>2025-11-23T11:20:26.000Z</time>
      </trkpt>
      <trkpt lat="43.53706" lon="6.07895">
        <ele>817.3</ele>
        <time>2025-11-23T11:20:36.000Z</time>
      </trkpt>
      <trkpt lat="43.53707" lon="6.07882">
        <ele>817.6</ele>
        <time>2025-11-23T11:20:46.000Z</time>
      </trkpt>
      <trkpt lat="43.53707" lon="6.07869">
        <ele>817.8</ele>
        <time>2025-11-23T11:20:57.000Z</time>
      </trkpt>
      <trkpt lat="43.53708" lon="6.07856">
        <ele>818.2</ele>
        <time>2025-11-23T11:21:09.000Z</time>
      </trkpt>
      <trkpt lat="43.53711" lon="6.07843">
        <ele>818.6</ele>
        <time>2025-11-23T11:21:23.000Z</time>
      </trkpt>
      <trkpt lat="43.53714" lon="6.07831">
        <ele>819</ele>
        <time>2025-11-23T11:21:34.000Z</time>
      </trkpt>
      <trkpt lat="43.53716" lon="6.07818">
        <ele>819.3</ele>
        <time>2025-11-23T11:21:45.000Z</time>
      </trkpt>
      <trkpt lat="43.53718" lon="6.07805">
        <ele>820.1</ele>
        <time>2025-11-23T11:22:02.000Z</time>
      </trkpt>
      <trkpt lat="43.5372" lon="6.07793">
        <ele>820.3</ele>
        <time>2025-11-23T11:22:22.000Z</time>
      </trkpt>
      <trkpt lat="43.53724" lon="6.07782">
        <ele>821.7</ele>
        <time>2025-11-23T11:22:41.000Z</time>
      </trkpt>
      <trkpt lat="43.53721" lon="6.0777">
        <ele>823.1</ele>
        <time>2025-11-23T11:23:38.000Z</time>
      </trkpt>
      <trkpt lat="43.53722" lon="6.07766">
        <ele>823.6</ele>
        <time>2025-11-23T11:23:53.000Z</time>
      </trkpt>
      <trkpt lat="43.53723" lon="6.07765">
        <ele>823.7</ele>
        <time>2025-11-23T11:24:31.000Z</time>
      </trkpt>
      <trkpt lat="43.53725" lon="6.07763">
        <ele>823.8</ele>
        <time>2025-11-23T11:25:30.000Z</time>
      </trkpt>
      <trkpt lat="43.53728" lon="6.07764">
        <ele>823.7</ele>
        <time>2025-11-23T11:26:14.000Z</time>
      </trkpt>
      <trkpt lat="43.53731" lon="6.07763">
        <ele>821.8</ele>
        <time>2025-11-23T11:26:42.000Z</time>
      </trkpt>
      <trkpt lat="43.53731" lon="6.07763">
        <ele>821.5</ele>
        <time>2025-11-23T11:26:49.000Z</time>
      </trkpt>
      <trkpt lat="43.53731" lon="6.07763">
        <ele>820.9</ele>
        <time>2025-11-23T11:27:01.000Z</time>
      </trkpt>
      <trkpt lat="43.53734" lon="6.07761">
        <ele>820.5</ele>
        <time>2025-11-23T11:27:10.000Z</time>
      </trkpt>
      <trkpt lat="43.5374" lon="6.07752">
        <ele>818.5</ele>
        <time>2025-11-23T11:27:29.000Z</time>
      </trkpt>
      <trkpt lat="43.53744" lon="6.07741">
        <ele>816.8</ele>
        <time>2025-11-23T11:27:47.000Z</time>
      </trkpt>
      <trkpt lat="43.5375" lon="6.0773">
        <ele>815.3</ele>
        <time>2025-11-23T11:28:02.000Z</time>
      </trkpt>
      <trkpt lat="43.53755" lon="6.0772">
        <ele>814</ele>
        <time>2025-11-23T11:28:22.000Z</time>
      </trkpt>
      <trkpt lat="43.53756" lon="6.07716">
        <ele>813.1</ele>
        <time>2025-11-23T11:28:53.000Z</time>
      </trkpt>
      <trkpt lat="43.53755" lon="6.07717">
        <ele>813</ele>
        <time>2025-11-23T11:29:05.000Z</time>
      </trkpt>
      <trkpt lat="43.53755" lon="6.07717">
        <ele>812.9</ele>
        <time>2025-11-23T11:29:28.000Z</time>
      </trkpt>
      <trkpt lat="43.53755" lon="6.07717">
        <ele>813.1</ele>
        <time>2025-11-23T11:30:19.000Z</time>
      </trkpt>
      <trkpt lat="43.53754" lon="6.07717">
        <ele>813</ele>
        <time>2025-11-23T11:30:35.000Z</time>
      </trkpt>
      <trkpt lat="43.53754" lon="6.07718">
        <ele>812.4</ele>
        <time>2025-11-23T11:32:53.000Z</time>
      </trkpt>
      <trkpt lat="43.53754" lon="6.07718">
        <ele>812.4</ele>
        <time>2025-11-23T11:33:06.000Z</time>
      </trkpt>
      <trkpt lat="43.53754" lon="6.07718">
        <ele>812.4</ele>
        <time>2025-11-23T11:33:18.000Z</time>
      </trkpt>
      <trkpt lat="43.53754" lon="6.07717">
        <ele>812.3</ele>
        <time>2025-11-23T11:33:49.000Z</time>
      </trkpt>
      <trkpt lat="43.53754" lon="6.07717">
        <ele>812.1</ele>
        <time>2025-11-23T11:35:45.000Z</time>
      </trkpt>
      <trkpt lat="43.53754" lon="6.07717">
        <ele>812.1</ele>
        <time>2025-11-23T11:35:56.000Z</time>
      </trkpt>
      <trkpt lat="43.53755" lon="6.07716">
        <ele>813.8</ele>
        <time>2025-11-23T12:02:26.000Z</time>
      </trkpt>
      <trkpt lat="43.53755" lon="6.07716">
        <ele>813.8</ele>
        <time>2025-11-23T12:02:29.000Z</time>
      </trkpt>
      <trkpt lat="43.53755" lon="6.07717">
        <ele>814.1</ele>
        <time>2025-11-23T12:02:56.000Z</time>
      </trkpt>
      <trkpt lat="43.53755" lon="6.07717">
        <ele>814.4</ele>
        <time>2025-11-23T12:03:09.000Z</time>
      </trkpt>
      <trkpt lat="43.53755" lon="6.07717">
        <ele>814.5</ele>
        <time>2025-11-23T12:03:20.000Z</time>
      </trkpt>
      <trkpt lat="43.53755" lon="6.07717">
        <ele>814.5</ele>
        <time>2025-11-23T12:03:34.000Z</time>
      </trkpt>
      <trkpt lat="43.53755" lon="6.07717">
        <ele>814.6</ele>
        <time>2025-11-23T12:03:49.000Z</time>
      </trkpt>
      <trkpt lat="43.53755" lon="6.07717">
        <ele>815.1</ele>
        <time>2025-11-23T12:04:05.000Z</time>
      </trkpt>
      <trkpt lat="43.53754" lon="6.07718">
        <ele>815.6</ele>
        <time>2025-11-23T12:05:00.000Z</time>
      </trkpt>
      <trkpt lat="43.53754" lon="6.07717">
        <ele>815.3</ele>
        <time>2025-11-23T12:05:16.000Z</time>
      </trkpt>
      <trkpt lat="43.53754" lon="6.07717">
        <ele>815.2</ele>
        <time>2025-11-23T12:05:19.000Z</time>
      </trkpt>
      <trkpt lat="43.53754" lon="6.07717">
        <ele>814.9</ele>
        <time>2025-11-23T12:05:33.000Z</time>
      </trkpt>
      <trkpt lat="43.53754" lon="6.07717">
        <ele>814.6</ele>
        <time>2025-11-23T12:07:52.000Z</time>
      </trkpt>
      <trkpt lat="43.53754" lon="6.07717">
        <ele>814.6</ele>
        <time>2025-11-23T12:08:03.000Z</time>
      </trkpt>
      <trkpt lat="43.53754" lon="6.07717">
        <ele>814.5</ele>
        <time>2025-11-23T12:08:23.000Z</time>
      </trkpt>
      <trkpt lat="43.53754" lon="6.07717">
        <ele>814.4</ele>
        <time>2025-11-23T12:08:46.000Z</time>
      </trkpt>
      <trkpt lat="43.53754" lon="6.07717">
        <ele>814.4</ele>
        <time>2025-11-23T12:08:59.000Z</time>
      </trkpt>
      <trkpt lat="43.53756" lon="6.07715">
        <ele>814.7</ele>
        <time>2025-11-23T12:09:23.000Z</time>
      </trkpt>
      <trkpt lat="43.53758" lon="6.07714">
        <ele>815.1</ele>
        <time>2025-11-23T12:10:42.000Z</time>
      </trkpt>
      <trkpt lat="43.53762" lon="6.07703">
        <ele>814.7</ele>
        <time>2025-11-23T12:10:59.000Z</time>
      </trkpt>
      <trkpt lat="43.53767" lon="6.07699">
        <ele>813.9</ele>
        <time>2025-11-23T12:11:29.000Z</time>
      </trkpt>
      <trkpt lat="43.53769" lon="6.07698">
        <ele>813.8</ele>
        <time>2025-11-23T12:11:34.000Z</time>
      </trkpt>
      <trkpt lat="43.5377" lon="6.07697">
        <ele>813</ele>
        <time>2025-11-23T12:11:54.000Z</time>
      </trkpt>
      <trkpt lat="43.53771" lon="6.07696">
        <ele>812.9</ele>
        <time>2025-11-23T12:11:59.000Z</time>
      </trkpt>
      <trkpt lat="43.53779" lon="6.07691">
        <ele>809.8</ele>
        <time>2025-11-23T12:13:00.000Z</time>
      </trkpt>
      <trkpt lat="43.53787" lon="6.07684">
        <ele>806.2</ele>
        <time>2025-11-23T12:13:40.000Z</time>
      </trkpt>
      <trkpt lat="43.53795" lon="6.07678">
        <ele>805.1</ele>
        <time>2025-11-23T12:13:52.000Z</time>
      </trkpt>
      <trkpt lat="43.53799" lon="6.07667">
        <ele>803.3</ele>
        <time>2025-11-23T12:14:06.000Z</time>
      </trkpt>
      <trkpt lat="43.53807" lon="6.07659">
        <ele>802.7</ele>
        <time>2025-11-23T12:14:27.000Z</time>
      </trkpt>
      <trkpt lat="43.53815" lon="6.07654">
        <ele>801</ele>
        <time>2025-11-23T12:15:00.000Z</time>
      </trkpt>
      <trkpt lat="43.53819" lon="6.07649">
        <ele>800.3</ele>
        <time>2025-11-23T12:15:25.000Z</time>
      </trkpt>
      <trkpt lat="43.5382" lon="6.07649">
        <ele>800.2</ele>
        <time>2025-11-23T12:15:37.000Z</time>
      </trkpt>
      <trkpt lat="43.53824" lon="6.07639">
        <ele>799.4</ele>
        <time>2025-11-23T12:16:16.000Z</time>
      </trkpt>
      <trkpt lat="43.53824" lon="6.07639">
        <ele>799.3</ele>
        <time>2025-11-23T12:16:26.000Z</time>
      </trkpt>
      <trkpt lat="43.53824" lon="6.07639">
        <ele>799.3</ele>
        <time>2025-11-23T12:16:38.000Z</time>
      </trkpt>
      <trkpt lat="43.53826" lon="6.07635">
        <ele>799.3</ele>
        <time>2025-11-23T12:16:51.000Z</time>
      </trkpt>
      <trkpt lat="43.53834" lon="6.07631">
        <ele>799.2</ele>
        <time>2025-11-23T12:17:03.000Z</time>
      </trkpt>
      <trkpt lat="43.53841" lon="6.07627">
        <ele>798</ele>
        <time>2025-11-23T12:17:39.000Z</time>
      </trkpt>
      <trkpt lat="43.53844" lon="6.07625">
        <ele>797.8</ele>
        <time>2025-11-23T12:18:06.000Z</time>
      </trkpt>
      <trkpt lat="43.53851" lon="6.07633">
        <ele>793.9</ele>
        <time>2025-11-23T12:18:45.000Z</time>
      </trkpt>
      <trkpt lat="43.5386" lon="6.0763">
        <ele>790.6</ele>
        <time>2025-11-23T12:19:11.000Z</time>
      </trkpt>
      <trkpt lat="43.53869" lon="6.07626">
        <ele>787.5</ele>
        <time>2025-11-23T12:19:30.000Z</time>
      </trkpt>
      <trkpt lat="43.53878" lon="6.07624">
        <ele>785.5</ele>
        <time>2025-11-23T12:19:59.000Z</time>
      </trkpt>
      <trkpt lat="43.53878" lon="6.07624">
        <ele>785</ele>
        <time>2025-11-23T12:20:12.000Z</time>
      </trkpt>
      <trkpt lat="43.53878" lon="6.07624">
        <ele>784.8</ele>
        <time>2025-11-23T12:20:17.000Z</time>
      </trkpt>
      <trkpt lat="43.5388" lon="6.07626">
        <ele>784.4</ele>
        <time>2025-11-23T12:20:50.000Z</time>
      </trkpt>
      <trkpt lat="43.53881" lon="6.07626">
        <ele>784.4</ele>
        <time>2025-11-23T12:21:06.000Z</time>
      </trkpt>
      <trkpt lat="43.53883" lon="6.07624">
        <ele>784.5</ele>
        <time>2025-11-23T12:21:31.000Z</time>
      </trkpt>
      <trkpt lat="43.53883" lon="6.07624">
        <ele>784.5</ele>
        <time>2025-11-23T12:21:53.000Z</time>
      </trkpt>
      <trkpt lat="43.53883" lon="6.07624">
        <ele>784.5</ele>
        <time>2025-11-23T12:22:04.000Z</time>
      </trkpt>
      <trkpt lat="43.53884" lon="6.07623">
        <ele>784.3</ele>
        <time>2025-11-23T12:22:13.000Z</time>
      </trkpt>
      <trkpt lat="43.53892" lon="6.07615">
        <ele>779.4</ele>
        <time>2025-11-23T12:22:55.000Z</time>
      </trkpt>
      <trkpt lat="43.53896" lon="6.07615">
        <ele>777.4</ele>
        <time>2025-11-23T12:23:46.000Z</time>
      </trkpt>
      <trkpt lat="43.53898" lon="6.07617">
        <ele>777.2</ele>
        <time>2025-11-23T12:24:26.000Z</time>
      </trkpt>
      <trkpt lat="43.53906" lon="6.07625">
        <ele>774.7</ele>
        <time>2025-11-23T12:25:10.000Z</time>
      </trkpt>
      <trkpt lat="43.53905" lon="6.07625">
        <ele>774.5</ele>
        <time>2025-11-23T12:25:21.000Z</time>
      </trkpt>
      <trkpt lat="43.53906" lon="6.07626">
        <ele>774.5</ele>
        <time>2025-11-23T12:25:25.000Z</time>
      </trkpt>
      <trkpt lat="43.53906" lon="6.07626">
        <ele>774.3</ele>
        <time>2025-11-23T12:25:39.000Z</time>
      </trkpt>
      <trkpt lat="43.53908" lon="6.07626">
        <ele>774.1</ele>
        <time>2025-11-23T12:26:41.000Z</time>
      </trkpt>
      <trkpt lat="43.53909" lon="6.07624">
        <ele>773.9</ele>
        <time>2025-11-23T12:27:08.000Z</time>
      </trkpt>
      <trkpt lat="43.5391" lon="6.07625">
        <ele>773.8</ele>
        <time>2025-11-23T12:27:31.000Z</time>
      </trkpt>
      <trkpt lat="43.5391" lon="6.07624">
        <ele>773.2</ele>
        <time>2025-11-23T12:28:05.000Z</time>
      </trkpt>
      <trkpt lat="43.5391" lon="6.07623">
        <ele>772.8</ele>
        <time>2025-11-23T12:28:41.000Z</time>
      </trkpt>
      <trkpt lat="43.5391" lon="6.07623">
        <ele>772.6</ele>
        <time>2025-11-23T12:29:01.000Z</time>
      </trkpt>
      <trkpt lat="43.53911" lon="6.07622">
        <ele>772.6</ele>
        <time>2025-11-23T12:29:09.000Z</time>
      </trkpt>
      <trkpt lat="43.5392" lon="6.07622">
        <ele>769.1</ele>
        <time>2025-11-23T12:30:02.000Z</time>
      </trkpt>
      <trkpt lat="43.53929" lon="6.0762">
        <ele>763.4</ele>
        <time>2025-11-23T12:31:09.000Z</time>
      </trkpt>
      <trkpt lat="43.53938" lon="6.07622">
        <ele>759.5</ele>
        <time>2025-11-23T12:31:43.000Z</time>
      </trkpt>
      <trkpt lat="43.53944" lon="6.07618">
        <ele>756.5</ele>
        <time>2025-11-23T12:32:24.000Z</time>
      </trkpt>
      <trkpt lat="43.53944" lon="6.07616">
        <ele>756</ele>
        <time>2025-11-23T12:32:36.000Z</time>
      </trkpt>
      <trkpt lat="43.53946" lon="6.07615">
        <ele>754.2</ele>
        <time>2025-11-23T12:33:11.000Z</time>
      </trkpt>
      <trkpt lat="43.53946" lon="6.07615">
        <ele>753.9</ele>
        <time>2025-11-23T12:33:21.000Z</time>
      </trkpt>
      <trkpt lat="43.53955" lon="6.07616">
        <ele>751.2</ele>
        <time>2025-11-23T12:33:52.000Z</time>
      </trkpt>
      <trkpt lat="43.5396" lon="6.07626">
        <ele>749.5</ele>
        <time>2025-11-23T12:34:10.000Z</time>
      </trkpt>
      <trkpt lat="43.53969" lon="6.07631">
        <ele>747.3</ele>
        <time>2025-11-23T12:34:33.000Z</time>
      </trkpt>
      <trkpt lat="43.53975" lon="6.0764">
        <ele>743</ele>
        <time>2025-11-23T12:35:02.000Z</time>
      </trkpt>
      <trkpt lat="43.5398" lon="6.07651">
        <ele>738.9</ele>
        <time>2025-11-23T12:35:21.000Z</time>
      </trkpt>
      <trkpt lat="43.53989" lon="6.07651">
        <ele>735.6</ele>
        <time>2025-11-23T12:35:56.000Z</time>
      </trkpt>
      <trkpt lat="43.5399" lon="6.07663">
        <ele>730.1</ele>
        <time>2025-11-23T12:36:34.000Z</time>
      </trkpt>
      <trkpt lat="43.53998" lon="6.07669">
        <ele>726.5</ele>
        <time>2025-11-23T12:37:04.000Z</time>
      </trkpt>
      <trkpt lat="43.53994" lon="6.0768">
        <ele>722.6</ele>
        <time>2025-11-23T12:37:36.000Z</time>
      </trkpt>
      <trkpt lat="43.53988" lon="6.0769">
        <ele>719.5</ele>
        <time>2025-11-23T12:38:09.000Z</time>
      </trkpt>
      <trkpt lat="43.53997" lon="6.07694">
        <ele>715.3</ele>
        <time>2025-11-23T12:38:54.000Z</time>
      </trkpt>
      <trkpt lat="43.54005" lon="6.0769">
        <ele>712.7</ele>
        <time>2025-11-23T12:39:43.000Z</time>
      </trkpt>
      <trkpt lat="43.54012" lon="6.07682">
        <ele>711.6</ele>
        <time>2025-11-23T12:40:10.000Z</time>
      </trkpt>
      <trkpt lat="43.5402" lon="6.0769">
        <ele>705</ele>
        <time>2025-11-23T12:41:54.000Z</time>
      </trkpt>
      <trkpt lat="43.54029" lon="6.07692">
        <ele>701</ele>
        <time>2025-11-23T12:42:37.000Z</time>
      </trkpt>
      <trkpt lat="43.54038" lon="6.0769">
        <ele>697.7</ele>
        <time>2025-11-23T12:43:08.000Z</time>
      </trkpt>
      <trkpt lat="43.54048" lon="6.07689">
        <ele>694.6</ele>
        <time>2025-11-23T12:43:30.000Z</time>
      </trkpt>
      <trkpt lat="43.54056" lon="6.07694">
        <ele>688.8</ele>
        <time>2025-11-23T12:44:17.000Z</time>
      </trkpt>
      <trkpt lat="43.54065" lon="6.07691">
        <ele>685.3</ele>
        <time>2025-11-23T12:44:44.000Z</time>
      </trkpt>
      <trkpt lat="43.54074" lon="6.07696">
        <ele>680.2</ele>
        <time>2025-11-23T12:45:34.000Z</time>
      </trkpt>
      <trkpt lat="43.54083" lon="6.07697">
        <ele>676.7</ele>
        <time>2025-11-23T12:46:07.000Z</time>
      </trkpt>
      <trkpt lat="43.54092" lon="6.07698">
        <ele>671.7</ele>
        <time>2025-11-23T12:46:55.000Z</time>
      </trkpt>
      <trkpt lat="43.54101" lon="6.07696">
        <ele>667.9</ele>
        <time>2025-11-23T12:47:29.000Z</time>
      </trkpt>
      <trkpt lat="43.54109" lon="6.07689">
        <ele>663.8</ele>
        <time>2025-11-23T12:48:08.000Z</time>
      </trkpt>
      <trkpt lat="43.54113" lon="6.07688">
        <ele>660.6</ele>
        <time>2025-11-23T12:49:12.000Z</time>
      </trkpt>
      <trkpt lat="43.54112" lon="6.07689">
        <ele>660.5</ele>
        <time>2025-11-23T12:49:43.000Z</time>
      </trkpt>
      <trkpt lat="43.54114" lon="6.07692">
        <ele>658.7</ele>
        <time>2025-11-23T12:50:55.000Z</time>
      </trkpt>
      <trkpt lat="43.54115" lon="6.07692">
        <ele>658.6</ele>
        <time>2025-11-23T12:51:01.000Z</time>
      </trkpt>
      <trkpt lat="43.54116" lon="6.07692">
        <ele>658.4</ele>
        <time>2025-11-23T12:51:16.000Z</time>
      </trkpt>
      <trkpt lat="43.54117" lon="6.07691">
        <ele>658.1</ele>
        <time>2025-11-23T12:53:10.000Z</time>
      </trkpt>
      <trkpt lat="43.54125" lon="6.07687">
        <ele>650.9</ele>
        <time>2025-11-23T12:54:58.000Z</time>
      </trkpt>
      <trkpt lat="43.54128" lon="6.07687">
        <ele>649.9</ele>
        <time>2025-11-23T12:55:19.000Z</time>
      </trkpt>
      <trkpt lat="43.54128" lon="6.07687">
        <ele>649.8</ele>
        <time>2025-11-23T12:55:22.000Z</time>
      </trkpt>
      <trkpt lat="43.54131" lon="6.07685">
        <ele>646.5</ele>
        <time>2025-11-23T12:56:31.000Z</time>
      </trkpt>
      <trkpt lat="43.54131" lon="6.07685">
        <ele>646.5</ele>
        <time>2025-11-23T12:56:32.000Z</time>
      </trkpt>
      <trkpt lat="43.54132" lon="6.07685">
        <ele>646.4</ele>
        <time>2025-11-23T12:56:47.000Z</time>
      </trkpt>
      <trkpt lat="43.54132" lon="6.07686">
        <ele>646.2</ele>
        <time>2025-11-23T12:57:04.000Z</time>
      </trkpt>
      <trkpt lat="43.54141" lon="6.07686">
        <ele>641.5</ele>
        <time>2025-11-23T12:58:09.000Z</time>
      </trkpt>
      <trkpt lat="43.5415" lon="6.07688">
        <ele>634.9</ele>
        <time>2025-11-23T12:59:16.000Z</time>
      </trkpt>
      <trkpt lat="43.54158" lon="6.07681">
        <ele>631.1</ele>
        <time>2025-11-23T12:59:55.000Z</time>
      </trkpt>
      <trkpt lat="43.54167" lon="6.0768">
        <ele>627.7</ele>
        <time>2025-11-23T13:00:36.000Z</time>
      </trkpt>
      <trkpt lat="43.54176" lon="6.0768">
        <ele>620.4</ele>
        <time>2025-11-23T13:01:48.000Z</time>
      </trkpt>
      <trkpt lat="43.5418" lon="6.07679">
        <ele>616.5</ele>
        <time>2025-11-23T13:02:24.000Z</time>
      </trkpt>
      <trkpt lat="43.54183" lon="6.07677">
        <ele>616.4</ele>
        <time>2025-11-23T13:03:00.000Z</time>
      </trkpt>
      <trkpt lat="43.54191" lon="6.07683">
        <ele>611.4</ele>
        <time>2025-11-23T13:03:42.000Z</time>
      </trkpt>
      <trkpt lat="43.54193" lon="6.07681">
        <ele>609.5</ele>
        <time>2025-11-23T13:04:18.000Z</time>
      </trkpt>
      <trkpt lat="43.54192" lon="6.07682">
        <ele>609.5</ele>
        <time>2025-11-23T13:04:40.000Z</time>
      </trkpt>
      <trkpt lat="43.54192" lon="6.07682">
        <ele>609.5</ele>
        <time>2025-11-23T13:04:51.000Z</time>
      </trkpt>
      <trkpt lat="43.54193" lon="6.07684">
        <ele>609.5</ele>
        <time>2025-11-23T13:05:21.000Z</time>
      </trkpt>
      <trkpt lat="43.54201" lon="6.07689">
        <ele>606.1</ele>
        <time>2025-11-23T13:06:00.000Z</time>
      </trkpt>
      <trkpt lat="43.5421" lon="6.07687">
        <ele>602</ele>
        <time>2025-11-23T13:06:34.000Z</time>
      </trkpt>
      <trkpt lat="43.5422" lon="6.07687">
        <ele>598.3</ele>
        <time>2025-11-23T13:07:05.000Z</time>
      </trkpt>
      <trkpt lat="43.54228" lon="6.0769">
        <ele>594.6</ele>
        <time>2025-11-23T13:07:34.000Z</time>
      </trkpt>
      <trkpt lat="43.54237" lon="6.07685">
        <ele>591.1</ele>
        <time>2025-11-23T13:07:59.000Z</time>
      </trkpt>
      <trkpt lat="43.54246" lon="6.07681">
        <ele>588.5</ele>
        <time>2025-11-23T13:08:12.000Z</time>
      </trkpt>
      <trkpt lat="43.54255" lon="6.0768">
        <ele>585</ele>
        <time>2025-11-23T13:08:32.000Z</time>
      </trkpt>
      <trkpt lat="43.54264" lon="6.07675">
        <ele>581.9</ele>
        <time>2025-11-23T13:08:50.000Z</time>
      </trkpt>
      <trkpt lat="43.54273" lon="6.0767">
        <ele>578.5</ele>
        <time>2025-11-23T13:09:09.000Z</time>
      </trkpt>
      <trkpt lat="43.5428" lon="6.07662">
        <ele>575.8</ele>
        <time>2025-11-23T13:09:23.000Z</time>
      </trkpt>
      <trkpt lat="43.54289" lon="6.0766">
        <ele>573</ele>
        <time>2025-11-23T13:09:40.000Z</time>
      </trkpt>
      <trkpt lat="43.54298" lon="6.07657">
        <ele>570.2</ele>
        <time>2025-11-23T13:10:06.000Z</time>
      </trkpt>
      <trkpt lat="43.54306" lon="6.0765">
        <ele>568.9</ele>
        <time>2025-11-23T13:10:20.000Z</time>
      </trkpt>
      <trkpt lat="43.54315" lon="6.07653">
        <ele>567.8</ele>
        <time>2025-11-23T13:10:33.000Z</time>
      </trkpt>
      <trkpt lat="43.54323" lon="6.07659">
        <ele>566.5</ele>
        <time>2025-11-23T13:10:46.000Z</time>
      </trkpt>
      <trkpt lat="43.54329" lon="6.07668">
        <ele>565.1</ele>
        <time>2025-11-23T13:10:59.000Z</time>
      </trkpt>
      <trkpt lat="43.54338" lon="6.07666">
        <ele>564</ele>
        <time>2025-11-23T13:11:08.000Z</time>
      </trkpt>
      <trkpt lat="43.54344" lon="6.07663">
        <ele>562</ele>
        <time>2025-11-23T13:11:33.000Z</time>
      </trkpt>
      <trkpt lat="43.54344" lon="6.07663">
        <ele>561.7</ele>
        <time>2025-11-23T13:12:28.000Z</time>
      </trkpt>
      <trkpt lat="43.54344" lon="6.07663">
        <ele>561.7</ele>
        <time>2025-11-23T13:12:36.000Z</time>
      </trkpt>
      <trkpt lat="43.54344" lon="6.07662">
        <ele>561.8</ele>
        <time>2025-11-23T13:12:53.000Z</time>
      </trkpt>
      <trkpt lat="43.54344" lon="6.07662">
        <ele>561.8</ele>
        <time>2025-11-23T13:13:03.000Z</time>
      </trkpt>
      <trkpt lat="43.54346" lon="6.07656">
        <ele>561.8</ele>
        <time>2025-11-23T13:13:13.000Z</time>
      </trkpt>
      <trkpt lat="43.54351" lon="6.07645">
        <ele>561.9</ele>
        <time>2025-11-23T13:13:21.000Z</time>
      </trkpt>
      <trkpt lat="43.54358" lon="6.07636">
        <ele>562.2</ele>
        <time>2025-11-23T13:13:33.000Z</time>
      </trkpt>
      <trkpt lat="43.54367" lon="6.0763">
        <ele>563.2</ele>
        <time>2025-11-23T13:13:46.000Z</time>
      </trkpt>
      <trkpt lat="43.54374" lon="6.0762">
        <ele>564.1</ele>
        <time>2025-11-23T13:13:54.000Z</time>
      </trkpt>
      <trkpt lat="43.54378" lon="6.07608">
        <ele>564.7</ele>
        <time>2025-11-23T13:14:03.000Z</time>
      </trkpt>
      <trkpt lat="43.54382" lon="6.07596">
        <ele>565.1</ele>
        <time>2025-11-23T13:14:12.000Z</time>
      </trkpt>
      <trkpt lat="43.54385" lon="6.07584">
        <ele>565.4</ele>
        <time>2025-11-23T13:14:21.000Z</time>
      </trkpt>
      <trkpt lat="43.54388" lon="6.07572">
        <ele>566</ele>
        <time>2025-11-23T13:14:33.000Z</time>
      </trkpt>
      <trkpt lat="43.54391" lon="6.07559">
        <ele>566.9</ele>
        <time>2025-11-23T13:14:44.000Z</time>
      </trkpt>
      <trkpt lat="43.54392" lon="6.07546">
        <ele>568.2</ele>
        <time>2025-11-23T13:15:05.000Z</time>
      </trkpt>
      <trkpt lat="43.5439" lon="6.07533">
        <ele>569.1</ele>
        <time>2025-11-23T13:15:15.000Z</time>
      </trkpt>
      <trkpt lat="43.54382" lon="6.07526">
        <ele>569.9</ele>
        <time>2025-11-23T13:15:23.000Z</time>
      </trkpt>
      <trkpt lat="43.54377" lon="6.07514">
        <ele>570.7</ele>
        <time>2025-11-23T13:15:36.000Z</time>
      </trkpt>
      <trkpt lat="43.54373" lon="6.07503">
        <ele>571.1</ele>
        <time>2025-11-23T13:15:47.000Z</time>
      </trkpt>
      <trkpt lat="43.5437" lon="6.07491">
        <ele>571.4</ele>
        <time>2025-11-23T13:15:57.000Z</time>
      </trkpt>
      <trkpt lat="43.54368" lon="6.07479">
        <ele>571.5</ele>
        <time>2025-11-23T13:16:07.000Z</time>
      </trkpt>
      <trkpt lat="43.54364" lon="6.07466">
        <ele>571.5</ele>
        <time>2025-11-23T13:16:17.000Z</time>
      </trkpt>
      <trkpt lat="43.54359" lon="6.07456">
        <ele>571.4</ele>
        <time>2025-11-23T13:16:26.000Z</time>
      </trkpt>
      <trkpt lat="43.54352" lon="6.07447">
        <ele>571.2</ele>
        <time>2025-11-23T13:16:36.000Z</time>
      </trkpt>
      <trkpt lat="43.54345" lon="6.07439">
        <ele>571</ele>
        <time>2025-11-23T13:16:48.000Z</time>
      </trkpt>
      <trkpt lat="43.54337" lon="6.0743">
        <ele>571</ele>
        <time>2025-11-23T13:16:57.000Z</time>
      </trkpt>
      <trkpt lat="43.5433" lon="6.07422">
        <ele>570.7</ele>
        <time>2025-11-23T13:17:07.000Z</time>
      </trkpt>
      <trkpt lat="43.54322" lon="6.07415">
        <ele>570.4</ele>
        <time>2025-11-23T13:17:17.000Z</time>
      </trkpt>
      <trkpt lat="43.54314" lon="6.07408">
        <ele>569.9</ele>
        <time>2025-11-23T13:17:27.000Z</time>
      </trkpt>
      <trkpt lat="43.54308" lon="6.07398">
        <ele>569.4</ele>
        <time>2025-11-23T13:17:37.000Z</time>
      </trkpt>
      <trkpt lat="43.54303" lon="6.07388">
        <ele>568.9</ele>
        <time>2025-11-23T13:17:46.000Z</time>
      </trkpt>
      <trkpt lat="43.54296" lon="6.07378">
        <ele>568.5</ele>
        <time>2025-11-23T13:17:56.000Z</time>
      </trkpt>
      <trkpt lat="43.54293" lon="6.07366">
        <ele>568.2</ele>
        <time>2025-11-23T13:18:04.000Z</time>
      </trkpt>
      <trkpt lat="43.54288" lon="6.07355">
        <ele>568.1</ele>
        <time>2025-11-23T13:18:14.000Z</time>
      </trkpt>
      <trkpt lat="43.54281" lon="6.07346">
        <ele>568.1</ele>
        <time>2025-11-23T13:18:24.000Z</time>
      </trkpt>
      <trkpt lat="43.54275" lon="6.07336">
        <ele>568</ele>
        <time>2025-11-23T13:18:33.000Z</time>
      </trkpt>
      <trkpt lat="43.54273" lon="6.07323">
        <ele>567.6</ele>
        <time>2025-11-23T13:18:43.000Z</time>
      </trkpt>
      <trkpt lat="43.54277" lon="6.07312">
        <ele>567.4</ele>
        <time>2025-11-23T13:18:52.000Z</time>
      </trkpt>
      <trkpt lat="43.54283" lon="6.07302">
        <ele>567.3</ele>
        <time>2025-11-23T13:19:00.000Z</time>
      </trkpt>
      <trkpt lat="43.54286" lon="6.0729">
        <ele>567.4</ele>
        <time>2025-11-23T13:19:10.000Z</time>
      </trkpt>
      <trkpt lat="43.54289" lon="6.07277">
        <ele>567.5</ele>
        <time>2025-11-23T13:19:18.000Z</time>
      </trkpt>
      <trkpt lat="43.54286" lon="6.07265">
        <ele>567.9</ele>
        <time>2025-11-23T13:19:28.000Z</time>
      </trkpt>
      <trkpt lat="43.54282" lon="6.07253">
        <ele>568.3</ele>
        <time>2025-11-23T13:19:38.000Z</time>
      </trkpt>
      <trkpt lat="43.54277" lon="6.07242">
        <ele>569.1</ele>
        <time>2025-11-23T13:19:49.000Z</time>
      </trkpt>
      <trkpt lat="43.54274" lon="6.0723">
        <ele>569.5</ele>
        <time>2025-11-23T13:19:59.000Z</time>
      </trkpt>
      <trkpt lat="43.54269" lon="6.07219">
        <ele>570.2</ele>
        <time>2025-11-23T13:20:10.000Z</time>
      </trkpt>
      <trkpt lat="43.54264" lon="6.07208">
        <ele>570.9</ele>
        <time>2025-11-23T13:20:20.000Z</time>
      </trkpt>
      <trkpt lat="43.54257" lon="6.07198">
        <ele>571.5</ele>
        <time>2025-11-23T13:20:30.000Z</time>
      </trkpt>
      <trkpt lat="43.54252" lon="6.07188">
        <ele>571.8</ele>
        <time>2025-11-23T13:20:39.000Z</time>
      </trkpt>
      <trkpt lat="43.54245" lon="6.0718">
        <ele>572.3</ele>
        <time>2025-11-23T13:20:52.000Z</time>
      </trkpt>
      <trkpt lat="43.54237" lon="6.07172">
        <ele>572.8</ele>
        <time>2025-11-23T13:21:03.000Z</time>
      </trkpt>
      <trkpt lat="43.54229" lon="6.07165">
        <ele>573</ele>
        <time>2025-11-23T13:21:11.000Z</time>
      </trkpt>
      <trkpt lat="43.5422" lon="6.07159">
        <ele>573.2</ele>
        <time>2025-11-23T13:21:21.000Z</time>
      </trkpt>
      <trkpt lat="43.54211" lon="6.07154">
        <ele>573.3</ele>
        <time>2025-11-23T13:21:30.000Z</time>
      </trkpt>
      <trkpt lat="43.54204" lon="6.07152">
        <ele>573.4</ele>
        <time>2025-11-23T13:21:54.000Z</time>
      </trkpt>
      <trkpt lat="43.54201" lon="6.07152">
        <ele>573.7</ele>
        <time>2025-11-23T13:24:46.000Z</time>
      </trkpt>
      <trkpt lat="43.54201" lon="6.07152">
        <ele>573.7</ele>
        <time>2025-11-23T13:24:59.000Z</time>
      </trkpt>
      <trkpt lat="43.54202" lon="6.07153">
        <ele>573.9</ele>
        <time>2025-11-23T13:25:33.000Z</time>
      </trkpt>
      <trkpt lat="43.54192" lon="6.0715">
        <ele>574</ele>
        <time>2025-11-23T13:25:52.000Z</time>
      </trkpt>
      <trkpt lat="43.54183" lon="6.07148">
        <ele>574.1</ele>
        <time>2025-11-23T13:26:24.000Z</time>
      </trkpt>
      <trkpt lat="43.54174" lon="6.07145">
        <ele>574.2</ele>
        <time>2025-11-23T13:26:39.000Z</time>
      </trkpt>
      <trkpt lat="43.54164" lon="6.07141">
        <ele>574.2</ele>
        <time>2025-11-23T13:26:50.000Z</time>
      </trkpt>
      <trkpt lat="43.54155" lon="6.07137">
        <ele>574.4</ele>
        <time>2025-11-23T13:27:00.000Z</time>
      </trkpt>
      <trkpt lat="43.54147" lon="6.07135">
        <ele>574.5</ele>
        <time>2025-11-23T13:27:10.000Z</time>
      </trkpt>
      <trkpt lat="43.54137" lon="6.07135">
        <ele>574.6</ele>
        <time>2025-11-23T13:27:20.000Z</time>
      </trkpt>
      <trkpt lat="43.54127" lon="6.07136">
        <ele>574.6</ele>
        <time>2025-11-23T13:27:29.000Z</time>
      </trkpt>
      <trkpt lat="43.54118" lon="6.07138">
        <ele>574.5</ele>
        <time>2025-11-23T13:27:37.000Z</time>
      </trkpt>
      <trkpt lat="43.54108" lon="6.07134">
        <ele>574.3</ele>
        <time>2025-11-23T13:27:46.000Z</time>
      </trkpt>
      <trkpt lat="43.54099" lon="6.0713">
        <ele>574.1</ele>
        <time>2025-11-23T13:27:54.000Z</time>
      </trkpt>
      <trkpt lat="43.5409" lon="6.07125">
        <ele>573.9</ele>
        <time>2025-11-23T13:28:03.000Z</time>
      </trkpt>
      <trkpt lat="43.5408" lon="6.07122">
        <ele>573.6</ele>
        <time>2025-11-23T13:28:12.000Z</time>
      </trkpt>
      <trkpt lat="43.54071" lon="6.07119">
        <ele>573.2</ele>
        <time>2025-11-23T13:28:20.000Z</time>
      </trkpt>
      <trkpt lat="43.54062" lon="6.07115">
        <ele>572.7</ele>
        <time>2025-11-23T13:28:29.000Z</time>
      </trkpt>
      <trkpt lat="43.54053" lon="6.07111">
        <ele>572.4</ele>
        <time>2025-11-23T13:28:37.000Z</time>
      </trkpt>
      <trkpt lat="43.54045" lon="6.07106">
        <ele>572.2</ele>
        <time>2025-11-23T13:28:45.000Z</time>
      </trkpt>
      <trkpt lat="43.54036" lon="6.07103">
        <ele>572</ele>
        <time>2025-11-23T13:28:55.000Z</time>
      </trkpt>
      <trkpt lat="43.54027" lon="6.07097">
        <ele>571.9</ele>
        <time>2025-11-23T13:29:03.000Z</time>
      </trkpt>
      <trkpt lat="43.54017" lon="6.07097">
        <ele>571.7</ele>
        <time>2025-11-23T13:29:13.000Z</time>
      </trkpt>
      <trkpt lat="43.54008" lon="6.07093">
        <ele>571.6</ele>
        <time>2025-11-23T13:29:27.000Z</time>
      </trkpt>
      <trkpt lat="43.53999" lon="6.07091">
        <ele>571.6</ele>
        <time>2025-11-23T13:29:36.000Z</time>
      </trkpt>
      <trkpt lat="43.5399" lon="6.07091">
        <ele>571.6</ele>
        <time>2025-11-23T13:29:44.000Z</time>
      </trkpt>
      <trkpt lat="43.5398" lon="6.07094">
        <ele>571.5</ele>
        <time>2025-11-23T13:29:52.000Z</time>
      </trkpt>
      <trkpt lat="43.53971" lon="6.07096">
        <ele>571.3</ele>
        <time>2025-11-23T13:30:00.000Z</time>
      </trkpt>
      <trkpt lat="43.53962" lon="6.07099">
        <ele>571</ele>
        <time>2025-11-23T13:30:08.000Z</time>
      </trkpt>
      <trkpt lat="43.53953" lon="6.07099">
        <ele>570.5</ele>
        <time>2025-11-23T13:30:18.000Z</time>
      </trkpt>
      <trkpt lat="43.53944" lon="6.07101">
        <ele>569.9</ele>
        <time>2025-11-23T13:30:27.000Z</time>
      </trkpt>
      <trkpt lat="43.53935" lon="6.07099">
        <ele>569.4</ele>
        <time>2025-11-23T13:30:35.000Z</time>
      </trkpt>
      <trkpt lat="43.53929" lon="6.07088">
        <ele>569.1</ele>
        <time>2025-11-23T13:30:45.000Z</time>
      </trkpt>
      <trkpt lat="43.53922" lon="6.07077">
        <ele>568.9</ele>
        <time>2025-11-23T13:30:55.000Z</time>
      </trkpt>
      <trkpt lat="43.53915" lon="6.07069">
        <ele>568.7</ele>
        <time>2025-11-23T13:31:03.000Z</time>
      </trkpt>
      <trkpt lat="43.53906" lon="6.07066">
        <ele>568.4</ele>
        <time>2025-11-23T13:31:12.000Z</time>
      </trkpt>
      <trkpt lat="43.53897" lon="6.07064">
        <ele>568.2</ele>
        <time>2025-11-23T13:31:22.000Z</time>
      </trkpt>
      <trkpt lat="43.53887" lon="6.07063">
        <ele>568</ele>
        <time>2025-11-23T13:31:32.000Z</time>
      </trkpt>
      <trkpt lat="43.53878" lon="6.07059">
        <ele>567.6</ele>
        <time>2025-11-23T13:31:40.000Z</time>
      </trkpt>
      <trkpt lat="43.53868" lon="6.07056">
        <ele>567.2</ele>
        <time>2025-11-23T13:31:49.000Z</time>
      </trkpt>
      <trkpt lat="43.53859" lon="6.07056">
        <ele>566.7</ele>
        <time>2025-11-23T13:31:58.000Z</time>
      </trkpt>
      <trkpt lat="43.53851" lon="6.07062">
        <ele>566.2</ele>
        <time>2025-11-23T13:32:09.000Z</time>
      </trkpt>
      <trkpt lat="43.53841" lon="6.07064">
        <ele>565.8</ele>
        <time>2025-11-23T13:32:18.000Z</time>
      </trkpt>
      <trkpt lat="43.53832" lon="6.07062">
        <ele>565.2</ele>
        <time>2025-11-23T13:32:25.000Z</time>
      </trkpt>
      <trkpt lat="43.53822" lon="6.07061">
        <ele>564.6</ele>
        <time>2025-11-23T13:32:33.000Z</time>
      </trkpt>
      <trkpt lat="43.53813" lon="6.07061">
        <ele>564</ele>
        <time>2025-11-23T13:32:42.000Z</time>
      </trkpt>
      <trkpt lat="43.53803" lon="6.07065">
        <ele>563.5</ele>
        <time>2025-11-23T13:32:50.000Z</time>
      </trkpt>
      <trkpt lat="43.53794" lon="6.0707">
        <ele>562.8</ele>
        <time>2025-11-23T13:32:59.000Z</time>
      </trkpt>
      <trkpt lat="43.53785" lon="6.07068">
        <ele>562.1</ele>
        <time>2025-11-23T13:33:08.000Z</time>
      </trkpt>
      <trkpt lat="43.53775" lon="6.07068">
        <ele>561.6</ele>
        <time>2025-11-23T13:33:16.000Z</time>
      </trkpt>
      <trkpt lat="43.53766" lon="6.07068">
        <ele>560.9</ele>
        <time>2025-11-23T13:33:25.000Z</time>
      </trkpt>
      <trkpt lat="43.53758" lon="6.07073">
        <ele>560.3</ele>
        <time>2025-11-23T13:33:33.000Z</time>
      </trkpt>
      <trkpt lat="43.53749" lon="6.07077">
        <ele>559.8</ele>
        <time>2025-11-23T13:33:43.000Z</time>
      </trkpt>
      <trkpt lat="43.5374" lon="6.07072">
        <ele>559.4</ele>
        <time>2025-11-23T13:33:52.000Z</time>
      </trkpt>
      <trkpt lat="43.53731" lon="6.07064">
        <ele>558.8</ele>
        <time>2025-11-23T13:34:02.000Z</time>
      </trkpt>
      <trkpt lat="43.53722" lon="6.07063">
        <ele>558</ele>
        <time>2025-11-23T13:34:13.000Z</time>
      </trkpt>
      <trkpt lat="43.53712" lon="6.07065">
        <ele>557.3</ele>
        <time>2025-11-23T13:34:22.000Z</time>
      </trkpt>
      <trkpt lat="43.53704" lon="6.07069">
        <ele>556.8</ele>
        <time>2025-11-23T13:34:29.000Z</time>
      </trkpt>
      <trkpt lat="43.53694" lon="6.07071">
        <ele>556.1</ele>
        <time>2025-11-23T13:34:37.000Z</time>
      </trkpt>
      <trkpt lat="43.53688" lon="6.07081">
        <ele>555.5</ele>
        <time>2025-11-23T13:34:45.000Z</time>
      </trkpt>
      <trkpt lat="43.53683" lon="6.07093">
        <ele>554.9</ele>
        <time>2025-11-23T13:34:54.000Z</time>
      </trkpt>
      <trkpt lat="43.5368" lon="6.07106">
        <ele>554.6</ele>
        <time>2025-11-23T13:35:03.000Z</time>
      </trkpt>
      <trkpt lat="43.5368" lon="6.07118">
        <ele>554.2</ele>
        <time>2025-11-23T13:35:12.000Z</time>
      </trkpt>
      <trkpt lat="43.53679" lon="6.07131">
        <ele>553.5</ele>
        <time>2025-11-23T13:35:23.000Z</time>
      </trkpt>
      <trkpt lat="43.53674" lon="6.07142">
        <ele>553.2</ele>
        <time>2025-11-23T13:35:33.000Z</time>
      </trkpt>
      <trkpt lat="43.53665" lon="6.07141">
        <ele>552.9</ele>
        <time>2025-11-23T13:35:44.000Z</time>
      </trkpt>
      <trkpt lat="43.53656" lon="6.07137">
        <ele>552.5</ele>
        <time>2025-11-23T13:35:54.000Z</time>
      </trkpt>
      <trkpt lat="43.53646" lon="6.0714">
        <ele>551.9</ele>
        <time>2025-11-23T13:36:04.000Z</time>
      </trkpt>
      <trkpt lat="43.53637" lon="6.07142">
        <ele>551.2</ele>
        <time>2025-11-23T13:36:14.000Z</time>
      </trkpt>
      <trkpt lat="43.53628" lon="6.07142">
        <ele>550.6</ele>
        <time>2025-11-23T13:36:25.000Z</time>
      </trkpt>
      <trkpt lat="43.53618" lon="6.07144">
        <ele>550.2</ele>
        <time>2025-11-23T13:36:32.000Z</time>
      </trkpt>
      <trkpt lat="43.53609" lon="6.07147">
        <ele>549.5</ele>
        <time>2025-11-23T13:36:43.000Z</time>
      </trkpt>
      <trkpt lat="43.536" lon="6.07149">
        <ele>548.7</ele>
        <time>2025-11-23T13:36:55.000Z</time>
      </trkpt>
      <trkpt lat="43.53591" lon="6.07155">
        <ele>548.3</ele>
        <time>2025-11-23T13:37:03.000Z</time>
      </trkpt>
      <trkpt lat="43.53583" lon="6.07163">
        <ele>547.8</ele>
        <time>2025-11-23T13:37:12.000Z</time>
      </trkpt>
      <trkpt lat="43.53575" lon="6.07172">
        <ele>547.3</ele>
        <time>2025-11-23T13:37:22.000Z</time>
      </trkpt>
      <trkpt lat="43.53567" lon="6.07179">
        <ele>546.9</ele>
        <time>2025-11-23T13:37:30.000Z</time>
      </trkpt>
      <trkpt lat="43.53559" lon="6.07186">
        <ele>546.3</ele>
        <time>2025-11-23T13:37:41.000Z</time>
      </trkpt>
      <trkpt lat="43.53552" lon="6.07195">
        <ele>545.8</ele>
        <time>2025-11-23T13:37:50.000Z</time>
      </trkpt>
      <trkpt lat="43.53546" lon="6.07204">
        <ele>545.3</ele>
        <time>2025-11-23T13:37:58.000Z</time>
      </trkpt>
      <trkpt lat="43.53538" lon="6.07213">
        <ele>544.8</ele>
        <time>2025-11-23T13:38:06.000Z</time>
      </trkpt>
      <trkpt lat="43.53532" lon="6.07224">
        <ele>544.3</ele>
        <time>2025-11-23T13:38:15.000Z</time>
      </trkpt>
      <trkpt lat="43.53525" lon="6.07234">
        <ele>543.6</ele>
        <time>2025-11-23T13:38:24.000Z</time>
      </trkpt>
      <trkpt lat="43.53521" lon="6.07245">
        <ele>542.6</ele>
        <time>2025-11-23T13:38:34.000Z</time>
      </trkpt>
      <trkpt lat="43.53517" lon="6.07258">
        <ele>542</ele>
        <time>2025-11-23T13:38:43.000Z</time>
      </trkpt>
      <trkpt lat="43.53512" lon="6.07269">
        <ele>541.3</ele>
        <time>2025-11-23T13:38:52.000Z</time>
      </trkpt>
      <trkpt lat="43.53503" lon="6.07271">
        <ele>540.7</ele>
        <time>2025-11-23T13:39:02.000Z</time>
      </trkpt>
      <trkpt lat="43.53494" lon="6.07268">
        <ele>540.2</ele>
        <time>2025-11-23T13:39:10.000Z</time>
      </trkpt>
      <trkpt lat="43.53484" lon="6.07272">
        <ele>539.6</ele>
        <time>2025-11-23T13:39:19.000Z</time>
      </trkpt>
      <trkpt lat="43.53478" lon="6.07283">
        <ele>539.1</ele>
        <time>2025-11-23T13:39:28.000Z</time>
      </trkpt>
      <trkpt lat="43.53473" lon="6.07294">
        <ele>538.4</ele>
        <time>2025-11-23T13:39:37.000Z</time>
      </trkpt>
      <trkpt lat="43.53463" lon="6.07296">
        <ele>537.7</ele>
        <time>2025-11-23T13:39:46.000Z</time>
      </trkpt>
      <trkpt lat="43.53454" lon="6.07297">
        <ele>537.2</ele>
        <time>2025-11-23T13:39:55.000Z</time>
      </trkpt>
      <trkpt lat="43.53444" lon="6.07299">
        <ele>536.7</ele>
        <time>2025-11-23T13:40:03.000Z</time>
      </trkpt>
      <trkpt lat="43.53435" lon="6.07303">
        <ele>536.1</ele>
        <time>2025-11-23T13:40:11.000Z</time>
      </trkpt>
      <trkpt lat="43.53428" lon="6.07314">
        <ele>535.4</ele>
        <time>2025-11-23T13:40:20.000Z</time>
      </trkpt>
      <trkpt lat="43.53426" lon="6.07326">
        <ele>534.8</ele>
        <time>2025-11-23T13:40:29.000Z</time>
      </trkpt>
      <trkpt lat="43.53416" lon="6.0733">
        <ele>534.1</ele>
        <time>2025-11-23T13:40:42.000Z</time>
      </trkpt>
      <trkpt lat="43.53407" lon="6.07332">
        <ele>533.8</ele>
        <time>2025-11-23T13:40:49.000Z</time>
      </trkpt>
      <trkpt lat="43.53403" lon="6.07333">
        <ele>533.1</ele>
        <time>2025-11-23T13:41:08.000Z</time>
      </trkpt>
      <trkpt lat="43.53399" lon="6.07336">
        <ele>532.9</ele>
        <time>2025-11-23T13:41:29.000Z</time>
      </trkpt>
      <trkpt lat="43.53391" lon="6.07342">
        <ele>532.6</ele>
        <time>2025-11-23T13:41:40.000Z</time>
      </trkpt>
      <trkpt lat="43.53382" lon="6.07349">
        <ele>532.1</ele>
        <time>2025-11-23T13:41:49.000Z</time>
      </trkpt>
      <trkpt lat="43.53374" lon="6.07354">
        <ele>531.5</ele>
        <time>2025-11-23T13:41:58.000Z</time>
      </trkpt>
      <trkpt lat="43.53366" lon="6.07361">
        <ele>531</ele>
        <time>2025-11-23T13:42:06.000Z</time>
      </trkpt>
      <trkpt lat="43.5336" lon="6.07371">
        <ele>530.4</ele>
        <time>2025-11-23T13:42:14.000Z</time>
      </trkpt>
      <trkpt lat="43.53357" lon="6.07383">
        <ele>529.8</ele>
        <time>2025-11-23T13:42:23.000Z</time>
      </trkpt>
      <trkpt lat="43.53352" lon="6.07395">
        <ele>529.2</ele>
        <time>2025-11-23T13:42:31.000Z</time>
      </trkpt>
      <trkpt lat="43.53344" lon="6.07403">
        <ele>528.6</ele>
        <time>2025-11-23T13:42:40.000Z</time>
      </trkpt>
      <trkpt lat="43.53336" lon="6.07411">
        <ele>528.1</ele>
        <time>2025-11-23T13:42:49.000Z</time>
      </trkpt>
      <trkpt lat="43.53329" lon="6.0742">
        <ele>527.6</ele>
        <time>2025-11-23T13:42:58.000Z</time>
      </trkpt>
      <trkpt lat="43.53322" lon="6.07431">
        <ele>527.3</ele>
        <time>2025-11-23T13:43:06.000Z</time>
      </trkpt>
      <trkpt lat="43.53316" lon="6.07442">
        <ele>527</ele>
        <time>2025-11-23T13:43:15.000Z</time>
      </trkpt>
      <trkpt lat="43.53312" lon="6.07453">
        <ele>526.6</ele>
        <time>2025-11-23T13:43:24.000Z</time>
      </trkpt>
      <trkpt lat="43.53308" lon="6.07464">
        <ele>526.2</ele>
        <time>2025-11-23T13:43:32.000Z</time>
      </trkpt>
      <trkpt lat="43.53307" lon="6.07478">
        <ele>525.7</ele>
        <time>2025-11-23T13:43:42.000Z</time>
      </trkpt>
      <trkpt lat="43.53311" lon="6.0749">
        <ele>525.4</ele>
        <time>2025-11-23T13:43:49.000Z</time>
      </trkpt>
      <trkpt lat="43.5331" lon="6.07503">
        <ele>525.2</ele>
        <time>2025-11-23T13:43:57.000Z</time>
      </trkpt>
      <trkpt lat="43.53311" lon="6.07516">
        <ele>525</ele>
        <time>2025-11-23T13:44:06.000Z</time>
      </trkpt>
      <trkpt lat="43.53311" lon="6.0753">
        <ele>524.8</ele>
        <time>2025-11-23T13:44:14.000Z</time>
      </trkpt>
      <trkpt lat="43.53312" lon="6.07543">
        <ele>524.6</ele>
        <time>2025-11-23T13:44:23.000Z</time>
      </trkpt>
      <trkpt lat="43.53311" lon="6.07556">
        <ele>524.4</ele>
        <time>2025-11-23T13:44:32.000Z</time>
      </trkpt>
      <trkpt lat="43.53307" lon="6.07566">
        <ele>524</ele>
        <time>2025-11-23T13:44:42.000Z</time>
      </trkpt>
      <trkpt lat="43.53298" lon="6.07572">
        <ele>523.6</ele>
        <time>2025-11-23T13:44:51.000Z</time>
      </trkpt>
      <trkpt lat="43.53289" lon="6.07574">
        <ele>522.8</ele>
        <time>2025-11-23T13:45:02.000Z</time>
      </trkpt>
      <trkpt lat="43.53281" lon="6.0758">
        <ele>522.4</ele>
        <time>2025-11-23T13:45:10.000Z</time>
      </trkpt>
      <trkpt lat="43.53278" lon="6.07594">
        <ele>522</ele>
        <time>2025-11-23T13:45:19.000Z</time>
      </trkpt>
      <trkpt lat="43.53281" lon="6.07606">
        <ele>521.8</ele>
        <time>2025-11-23T13:45:26.000Z</time>
      </trkpt>
      <trkpt lat="43.53282" lon="6.07619">
        <ele>521.4</ele>
        <time>2025-11-23T13:45:41.000Z</time>
      </trkpt>
      <trkpt lat="43.53274" lon="6.0763">
        <ele>521.3</ele>
        <time>2025-11-23T13:45:46.000Z</time>
      </trkpt>
      <trkpt lat="43.53268" lon="6.07638">
        <ele>520.8</ele>
        <time>2025-11-23T13:45:56.000Z</time>
      </trkpt>
      <trkpt lat="43.53261" lon="6.07648">
        <ele>519.7</ele>
        <time>2025-11-23T13:46:08.000Z</time>
      </trkpt>
      <trkpt lat="43.53254" lon="6.07658">
        <ele>519.1</ele>
        <time>2025-11-23T13:46:17.000Z</time>
      </trkpt>
      <trkpt lat="43.53248" lon="6.07667">
        <ele>518.6</ele>
        <time>2025-11-23T13:46:25.000Z</time>
      </trkpt>
      <trkpt lat="43.53246" lon="6.07679">
        <ele>518.2</ele>
        <time>2025-11-23T13:46:33.000Z</time>
      </trkpt>
      <trkpt lat="43.53246" lon="6.07692">
        <ele>517.8</ele>
        <time>2025-11-23T13:46:42.000Z</time>
      </trkpt>
      <trkpt lat="43.53246" lon="6.07706">
        <ele>517.7</ele>
        <time>2025-11-23T13:46:51.000Z</time>
      </trkpt>
      <trkpt lat="43.53242" lon="6.07718">
        <ele>517.7</ele>
        <time>2025-11-23T13:47:00.000Z</time>
      </trkpt>
      <trkpt lat="43.53233" lon="6.07724">
        <ele>517.7</ele>
        <time>2025-11-23T13:47:09.000Z</time>
      </trkpt>
      <trkpt lat="43.53224" lon="6.07728">
        <ele>517.5</ele>
        <time>2025-11-23T13:47:16.000Z</time>
      </trkpt>
      <trkpt lat="43.53215" lon="6.07729">
        <ele>517</ele>
        <time>2025-11-23T13:47:25.000Z</time>
      </trkpt>
      <trkpt lat="43.53205" lon="6.07733">
        <ele>516.5</ele>
        <time>2025-11-23T13:47:34.000Z</time>
      </trkpt>
      <trkpt lat="43.53199" lon="6.07739">
        <ele>515.6</ele>
        <time>2025-11-23T13:48:16.000Z</time>
      </trkpt>
      <trkpt lat="43.53195" lon="6.07745">
        <ele>515.6</ele>
        <time>2025-11-23T13:48:35.000Z</time>
      </trkpt>
      <trkpt lat="43.53188" lon="6.07754">
        <ele>515.5</ele>
        <time>2025-11-23T13:48:45.000Z</time>
      </trkpt>
      <trkpt lat="43.53181" lon="6.07762">
        <ele>515.3</ele>
        <time>2025-11-23T13:48:55.000Z</time>
      </trkpt>
      <trkpt lat="43.53173" lon="6.07771">
        <ele>515</ele>
        <time>2025-11-23T13:49:05.000Z</time>
      </trkpt>
      <trkpt lat="43.53167" lon="6.0778">
        <ele>514.5</ele>
        <time>2025-11-23T13:49:14.000Z</time>
      </trkpt>
      <trkpt lat="43.53161" lon="6.07791">
        <ele>514</ele>
        <time>2025-11-23T13:49:29.000Z</time>
      </trkpt>
      <trkpt lat="43.53156" lon="6.07803">
        <ele>513.8</ele>
        <time>2025-11-23T13:49:39.000Z</time>
      </trkpt>
      <trkpt lat="43.53153" lon="6.07815">
        <ele>513.5</ele>
        <time>2025-11-23T13:49:49.000Z</time>
      </trkpt>
      <trkpt lat="43.53152" lon="6.07828">
        <ele>513.1</ele>
        <time>2025-11-23T13:49:59.000Z</time>
      </trkpt>
      <trkpt lat="43.53152" lon="6.0784">
        <ele>512.7</ele>
        <time>2025-11-23T13:50:08.000Z</time>
      </trkpt>
      <trkpt lat="43.53153" lon="6.07853">
        <ele>512.2</ele>
        <time>2025-11-23T13:50:19.000Z</time>
      </trkpt>
      <trkpt lat="43.53153" lon="6.07866">
        <ele>511.7</ele>
        <time>2025-11-23T13:50:29.000Z</time>
      </trkpt>
      <trkpt lat="43.53152" lon="6.07879">
        <ele>511.4</ele>
        <time>2025-11-23T13:50:38.000Z</time>
      </trkpt>
      <trkpt lat="43.53144" lon="6.0789">
        <ele>511.2</ele>
        <time>2025-11-23T13:50:45.000Z</time>
      </trkpt>
      <trkpt lat="43.53139" lon="6.079">
        <ele>510.9</ele>
        <time>2025-11-23T13:50:57.000Z</time>
      </trkpt>
      <trkpt lat="43.53133" lon="6.07911">
        <ele>510.5</ele>
        <time>2025-11-23T13:51:09.000Z</time>
      </trkpt>
      <trkpt lat="43.53127" lon="6.07921">
        <ele>510.1</ele>
        <time>2025-11-23T13:51:19.000Z</time>
      </trkpt>
      <trkpt lat="43.53123" lon="6.07932">
        <ele>509.6</ele>
        <time>2025-11-23T13:51:29.000Z</time>
      </trkpt>
      <trkpt lat="43.53116" lon="6.07942">
        <ele>509.2</ele>
        <time>2025-11-23T13:51:38.000Z</time>
      </trkpt>
      <trkpt lat="43.5311" lon="6.07952">
        <ele>508.7</ele>
        <time>2025-11-23T13:51:48.000Z</time>
      </trkpt>
      <trkpt lat="43.53106" lon="6.07964">
        <ele>508.1</ele>
        <time>2025-11-23T13:51:58.000Z</time>
      </trkpt>
      <trkpt lat="43.53106" lon="6.07978">
        <ele>507.7</ele>
        <time>2025-11-23T13:52:08.000Z</time>
      </trkpt>
      <trkpt lat="43.53111" lon="6.07988">
        <ele>507.4</ele>
        <time>2025-11-23T13:52:17.000Z</time>
      </trkpt>
      <trkpt lat="43.53118" lon="6.07997">
        <ele>507.2</ele>
        <time>2025-11-23T13:52:25.000Z</time>
      </trkpt>
      <trkpt lat="43.53124" lon="6.08006">
        <ele>507</ele>
        <time>2025-11-23T13:52:35.000Z</time>
      </trkpt>
      <trkpt lat="43.53127" lon="6.08018">
        <ele>506.8</ele>
        <time>2025-11-23T13:52:44.000Z</time>
      </trkpt>
      <trkpt lat="43.53122" lon="6.08031">
        <ele>506.5</ele>
        <time>2025-11-23T13:52:56.000Z</time>
      </trkpt>
      <trkpt lat="43.53113" lon="6.08033">
        <ele>506.2</ele>
        <time>2025-11-23T13:53:04.000Z</time>
      </trkpt>
      <trkpt lat="43.53104" lon="6.08038">
        <ele>505.8</ele>
        <time>2025-11-23T13:53:13.000Z</time>
      </trkpt>
      <trkpt lat="43.53097" lon="6.08046">
        <ele>505.5</ele>
        <time>2025-11-23T13:53:22.000Z</time>
      </trkpt>
      <trkpt lat="43.53089" lon="6.08053">
        <ele>505.1</ele>
        <time>2025-11-23T13:53:31.000Z</time>
      </trkpt>
      <trkpt lat="43.53081" lon="6.08059">
        <ele>504.3</ele>
        <time>2025-11-23T13:53:43.000Z</time>
      </trkpt>
      <trkpt lat="43.53072" lon="6.08063">
        <ele>504</ele>
        <time>2025-11-23T13:53:51.000Z</time>
      </trkpt>
      <trkpt lat="43.53063" lon="6.08068">
        <ele>503.5</ele>
        <time>2025-11-23T13:54:00.000Z</time>
      </trkpt>
      <trkpt lat="43.53054" lon="6.08075">
        <ele>502.8</ele>
        <time>2025-11-23T13:54:10.000Z</time>
      </trkpt>
      <trkpt lat="43.53047" lon="6.08083">
        <ele>502.4</ele>
        <time>2025-11-23T13:54:20.000Z</time>
      </trkpt>
      <trkpt lat="43.53042" lon="6.08095">
        <ele>502.1</ele>
        <time>2025-11-23T13:54:30.000Z</time>
      </trkpt>
      <trkpt lat="43.53037" lon="6.08106">
        <ele>501.9</ele>
        <time>2025-11-23T13:54:39.000Z</time>
      </trkpt>
      <trkpt lat="43.53035" lon="6.0812">
        <ele>501.6</ele>
        <time>2025-11-23T13:54:49.000Z</time>
      </trkpt>
      <trkpt lat="43.53034" lon="6.08132">
        <ele>501.3</ele>
        <time>2025-11-23T13:54:57.000Z</time>
      </trkpt>
      <trkpt lat="43.53033" lon="6.08145">
        <ele>500.7</ele>
        <time>2025-11-23T13:55:07.000Z</time>
      </trkpt>
      <trkpt lat="43.53033" lon="6.08158">
        <ele>500.2</ele>
        <time>2025-11-23T13:55:15.000Z</time>
      </trkpt>
      <trkpt lat="43.53035" lon="6.0817">
        <ele>499.8</ele>
        <time>2025-11-23T13:55:24.000Z</time>
      </trkpt>
      <trkpt lat="43.53037" lon="6.08182">
        <ele>499.5</ele>
        <time>2025-11-23T13:55:32.000Z</time>
      </trkpt>
      <trkpt lat="43.53042" lon="6.08195">
        <ele>499.2</ele>
        <time>2025-11-23T13:55:41.000Z</time>
      </trkpt>
      <trkpt lat="43.53048" lon="6.08206">
        <ele>498.9</ele>
        <time>2025-11-23T13:55:50.000Z</time>
      </trkpt>
      <trkpt lat="43.53053" lon="6.08217">
        <ele>498.4</ele>
        <time>2025-11-23T13:56:01.000Z</time>
      </trkpt>
      <trkpt lat="43.53047" lon="6.08225">
        <ele>497.9</ele>
        <time>2025-11-23T13:56:10.000Z</time>
      </trkpt>
      <trkpt lat="43.53038" lon="6.08229">
        <ele>497.8</ele>
        <time>2025-11-23T13:56:19.000Z</time>
      </trkpt>
      <trkpt lat="43.53029" lon="6.08235">
        <ele>497.7</ele>
        <time>2025-11-23T13:56:28.000Z</time>
      </trkpt>
      <trkpt lat="43.5302" lon="6.08241">
        <ele>497.3</ele>
        <time>2025-11-23T13:56:38.000Z</time>
      </trkpt>
      <trkpt lat="43.53012" lon="6.08245">
        <ele>496.7</ele>
        <time>2025-11-23T13:56:48.000Z</time>
      </trkpt>
      <trkpt lat="43.53002" lon="6.08247">
        <ele>496.1</ele>
        <time>2025-11-23T13:56:57.000Z</time>
      </trkpt>
      <trkpt lat="43.52993" lon="6.08252">
        <ele>495.6</ele>
        <time>2025-11-23T13:57:06.000Z</time>
      </trkpt>
      <trkpt lat="43.52983" lon="6.08256">
        <ele>495.3</ele>
        <time>2025-11-23T13:57:15.000Z</time>
      </trkpt>
      <trkpt lat="43.52975" lon="6.08261">
        <ele>495</ele>
        <time>2025-11-23T13:57:24.000Z</time>
      </trkpt>
      <trkpt lat="43.52975" lon="6.08262">
        <ele>495.3</ele>
        <time>2025-11-23T13:57:51.000Z</time>
      </trkpt>
      <trkpt lat="43.52974" lon="6.08263">
        <ele>495.4</ele>
        <time>2025-11-23T13:58:08.000Z</time>
      </trkpt>
      <trkpt lat="43.52975" lon="6.08266">
        <ele>495</ele>
        <time>2025-11-23T13:58:50.000Z</time>
      </trkpt>
      <trkpt lat="43.52974" lon="6.08267">
        <ele>495</ele>
        <time>2025-11-23T13:59:05.000Z</time>
      </trkpt>
      <trkpt lat="43.52967" lon="6.08277">
        <ele>494.9</ele>
        <time>2025-11-23T13:59:28.000Z</time>
      </trkpt>
      <trkpt lat="43.52965" lon="6.0829">
        <ele>494.9</ele>
        <time>2025-11-23T13:59:39.000Z</time>
      </trkpt>
      <trkpt lat="43.52965" lon="6.08303">
        <ele>494.7</ele>
        <time>2025-11-23T13:59:50.000Z</time>
      </trkpt>
      <trkpt lat="43.52968" lon="6.08315">
        <ele>494.4</ele>
        <time>2025-11-23T13:59:59.000Z</time>
      </trkpt>
      <trkpt lat="43.52972" lon="6.08327">
        <ele>494</ele>
        <time>2025-11-23T14:00:09.000Z</time>
      </trkpt>
      <trkpt lat="43.52979" lon="6.08337">
        <ele>493.7</ele>
        <time>2025-11-23T14:00:24.000Z</time>
      </trkpt>
      <trkpt lat="43.5298" lon="6.0835">
        <ele>493.4</ele>
        <time>2025-11-23T14:00:34.000Z</time>
      </trkpt>
      <trkpt lat="43.52977" lon="6.08362">
        <ele>493.2</ele>
        <time>2025-11-23T14:00:46.000Z</time>
      </trkpt>
      <trkpt lat="43.52971" lon="6.08371">
        <ele>492.9</ele>
        <time>2025-11-23T14:00:58.000Z</time>
      </trkpt>
      <trkpt lat="43.52963" lon="6.08379">
        <ele>492.6</ele>
        <time>2025-11-23T14:01:12.000Z</time>
      </trkpt>
      <trkpt lat="43.52955" lon="6.08385">
        <ele>492.3</ele>
        <time>2025-11-23T14:01:21.000Z</time>
      </trkpt>
      <trkpt lat="43.52946" lon="6.08391">
        <ele>491.7</ele>
        <time>2025-11-23T14:01:31.000Z</time>
      </trkpt>
      <trkpt lat="43.52938" lon="6.08399">
        <ele>491.2</ele>
        <time>2025-11-23T14:01:40.000Z</time>
      </trkpt>
      <trkpt lat="43.5293" lon="6.08407">
        <ele>490.9</ele>
        <time>2025-11-23T14:01:48.000Z</time>
      </trkpt>
      <trkpt lat="43.52925" lon="6.08418">
        <ele>490.8</ele>
        <time>2025-11-23T14:01:56.000Z</time>
      </trkpt>
      <trkpt lat="43.52921" lon="6.0843">
        <ele>490.5</ele>
        <time>2025-11-23T14:02:04.000Z</time>
      </trkpt>
      <trkpt lat="43.52917" lon="6.08443">
        <ele>490.2</ele>
        <time>2025-11-23T14:02:13.000Z</time>
      </trkpt>
      <trkpt lat="43.52915" lon="6.08455">
        <ele>490</ele>
        <time>2025-11-23T14:02:21.000Z</time>
      </trkpt>
      <trkpt lat="43.52909" lon="6.08465">
        <ele>489.7</ele>
        <time>2025-11-23T14:02:29.000Z</time>
      </trkpt>
      <trkpt lat="43.52903" lon="6.08476">
        <ele>489.3</ele>
        <time>2025-11-23T14:02:38.000Z</time>
      </trkpt>
      <trkpt lat="43.52897" lon="6.08486">
        <ele>488.8</ele>
        <time>2025-11-23T14:02:48.000Z</time>
      </trkpt>
      <trkpt lat="43.52894" lon="6.085">
        <ele>488.5</ele>
        <time>2025-11-23T14:02:57.000Z</time>
      </trkpt>
      <trkpt lat="43.52894" lon="6.08513">
        <ele>488.2</ele>
        <time>2025-11-23T14:03:08.000Z</time>
      </trkpt>
      <trkpt lat="43.52899" lon="6.08523">
        <ele>488</ele>
        <time>2025-11-23T14:03:16.000Z</time>
      </trkpt>
      <trkpt lat="43.52908" lon="6.0853">
        <ele>487.7</ele>
        <time>2025-11-23T14:03:24.000Z</time>
      </trkpt>
      <trkpt lat="43.52917" lon="6.08532">
        <ele>487.4</ele>
        <time>2025-11-23T14:03:33.000Z</time>
      </trkpt>
      <trkpt lat="43.52927" lon="6.08535">
        <ele>487.2</ele>
        <time>2025-11-23T14:03:42.000Z</time>
      </trkpt>
      <trkpt lat="43.52935" lon="6.0854">
        <ele>486.9</ele>
        <time>2025-11-23T14:03:51.000Z</time>
      </trkpt>
      <trkpt lat="43.52945" lon="6.08545">
        <ele>486.7</ele>
        <time>2025-11-23T14:04:01.000Z</time>
      </trkpt>
      <trkpt lat="43.52954" lon="6.08549">
        <ele>486.4</ele>
        <time>2025-11-23T14:04:10.000Z</time>
      </trkpt>
      <trkpt lat="43.52955" lon="6.08562">
        <ele>485.9</ele>
        <time>2025-11-23T14:04:25.000Z</time>
      </trkpt>
      <trkpt lat="43.52949" lon="6.08572">
        <ele>485.4</ele>
        <time>2025-11-23T14:04:34.000Z</time>
      </trkpt>
      <trkpt lat="43.52943" lon="6.08582">
        <ele>484.9</ele>
        <time>2025-11-23T14:04:42.000Z</time>
      </trkpt>
      <trkpt lat="43.52938" lon="6.08593">
        <ele>484.3</ele>
        <time>2025-11-23T14:04:51.000Z</time>
      </trkpt>
      <trkpt lat="43.52931" lon="6.08603">
        <ele>483.8</ele>
        <time>2025-11-23T14:05:00.000Z</time>
      </trkpt>
      <trkpt lat="43.52927" lon="6.08615">
        <ele>483.6</ele>
        <time>2025-11-23T14:05:09.000Z</time>
      </trkpt>
      <trkpt lat="43.52923" lon="6.08625">
        <ele>483.4</ele>
        <time>2025-11-23T14:05:17.000Z</time>
      </trkpt>
      <trkpt lat="43.52918" lon="6.08637">
        <ele>483.1</ele>
        <time>2025-11-23T14:05:26.000Z</time>
      </trkpt>
      <trkpt lat="43.52914" lon="6.08649">
        <ele>482.7</ele>
        <time>2025-11-23T14:05:35.000Z</time>
      </trkpt>
      <trkpt lat="43.52911" lon="6.08661">
        <ele>482</ele>
        <time>2025-11-23T14:06:01.000Z</time>
      </trkpt>
      <trkpt lat="43.52908" lon="6.08673">
        <ele>481.7</ele>
        <time>2025-11-23T14:06:08.000Z</time>
      </trkpt>
      <trkpt lat="43.52908" lon="6.08687">
        <ele>481.3</ele>
        <time>2025-11-23T14:06:15.000Z</time>
      </trkpt>
      <trkpt lat="43.5291" lon="6.08701">
        <ele>480.8</ele>
        <time>2025-11-23T14:06:23.000Z</time>
      </trkpt>
      <trkpt lat="43.52914" lon="6.08713">
        <ele>480.6</ele>
        <time>2025-11-23T14:06:30.000Z</time>
      </trkpt>
      <trkpt lat="43.5292" lon="6.08723">
        <ele>480.5</ele>
        <time>2025-11-23T14:06:38.000Z</time>
      </trkpt>
      <trkpt lat="43.52924" lon="6.08734">
        <ele>480.1</ele>
        <time>2025-11-23T14:06:46.000Z</time>
      </trkpt>
      <trkpt lat="43.52926" lon="6.08747">
        <ele>479.4</ele>
        <time>2025-11-23T14:06:55.000Z</time>
      </trkpt>
      <trkpt lat="43.52923" lon="6.0876">
        <ele>478.6</ele>
        <time>2025-11-23T14:07:04.000Z</time>
      </trkpt>
      <trkpt lat="43.52921" lon="6.08773">
        <ele>478.1</ele>
        <time>2025-11-23T14:07:12.000Z</time>
      </trkpt>
      <trkpt lat="43.52921" lon="6.08786">
        <ele>477.6</ele>
        <time>2025-11-23T14:07:21.000Z</time>
      </trkpt>
      <trkpt lat="43.52921" lon="6.08799">
        <ele>477.1</ele>
        <time>2025-11-23T14:07:30.000Z</time>
      </trkpt>
      <trkpt lat="43.52924" lon="6.08812">
        <ele>476.6</ele>
        <time>2025-11-23T14:07:39.000Z</time>
      </trkpt>
      <trkpt lat="43.52928" lon="6.08823">
        <ele>476.3</ele>
        <time>2025-11-23T14:07:46.000Z</time>
      </trkpt>
      <trkpt lat="43.52933" lon="6.08834">
        <ele>476</ele>
        <time>2025-11-23T14:07:56.000Z</time>
      </trkpt>
      <trkpt lat="43.5294" lon="6.08844">
        <ele>475.4</ele>
        <time>2025-11-23T14:08:08.000Z</time>
      </trkpt>
      <trkpt lat="43.52943" lon="6.08856">
        <ele>474.8</ele>
        <time>2025-11-23T14:08:17.000Z</time>
      </trkpt>
      <trkpt lat="43.52943" lon="6.0887">
        <ele>474.4</ele>
        <time>2025-11-23T14:08:25.000Z</time>
      </trkpt>
      <trkpt lat="43.52943" lon="6.08883">
        <ele>473.9</ele>
        <time>2025-11-23T14:08:34.000Z</time>
      </trkpt>
      <trkpt lat="43.52944" lon="6.08897">
        <ele>473.3</ele>
        <time>2025-11-23T14:08:43.000Z</time>
      </trkpt>
      <trkpt lat="43.52945" lon="6.08907">
        <ele>472.1</ele>
        <time>2025-11-23T14:09:04.000Z</time>
      </trkpt>
      <trkpt lat="43.52946" lon="6.08913">
        <ele>471.8</ele>
        <time>2025-11-23T14:09:21.000Z</time>
      </trkpt>
      <trkpt lat="43.52948" lon="6.08926">
        <ele>471.7</ele>
        <time>2025-11-23T14:09:32.000Z</time>
      </trkpt>
      <trkpt lat="43.52948" lon="6.08939">
        <ele>471.4</ele>
        <time>2025-11-23T14:09:40.000Z</time>
      </trkpt>
      <trkpt lat="43.52951" lon="6.08952">
        <ele>471</ele>
        <time>2025-11-23T14:09:48.000Z</time>
      </trkpt>
      <trkpt lat="43.52952" lon="6.08965">
        <ele>470.5</ele>
        <time>2025-11-23T14:09:56.000Z</time>
      </trkpt>
      <trkpt lat="43.52952" lon="6.08979">
        <ele>469.9</ele>
        <time>2025-11-23T14:10:03.000Z</time>
      </trkpt>
      <trkpt lat="43.52947" lon="6.0899">
        <ele>469.4</ele>
        <time>2025-11-23T14:10:11.000Z</time>
      </trkpt>
      <trkpt lat="43.52939" lon="6.08997">
        <ele>468.7</ele>
        <time>2025-11-23T14:10:22.000Z</time>
      </trkpt>
      <trkpt lat="43.52932" lon="6.09007">
        <ele>468</ele>
        <time>2025-11-23T14:10:30.000Z</time>
      </trkpt>
      <trkpt lat="43.52924" lon="6.09014">
        <ele>467.5</ele>
        <time>2025-11-23T14:10:37.000Z</time>
      </trkpt>
      <trkpt lat="43.52917" lon="6.09023">
        <ele>467</ele>
        <time>2025-11-23T14:10:44.000Z</time>
      </trkpt>
      <trkpt lat="43.5291" lon="6.09032">
        <ele>466.8</ele>
        <time>2025-11-23T14:10:51.000Z</time>
      </trkpt>
      <trkpt lat="43.52907" lon="6.09045">
        <ele>466.3</ele>
        <time>2025-11-23T14:11:04.000Z</time>
      </trkpt>
      <trkpt lat="43.52904" lon="6.09058">
        <ele>466.2</ele>
        <time>2025-11-23T14:11:11.000Z</time>
      </trkpt>
      <trkpt lat="43.52906" lon="6.09072">
        <ele>465.9</ele>
        <time>2025-11-23T14:11:20.000Z</time>
      </trkpt>
      <trkpt lat="43.52905" lon="6.09078">
        <ele>465.5</ele>
        <time>2025-11-23T14:11:50.000Z</time>
      </trkpt>
      <trkpt lat="43.52904" lon="6.09076">
        <ele>465.2</ele>
        <time>2025-11-23T14:13:03.000Z</time>
      </trkpt>
      <trkpt lat="43.52905" lon="6.09079">
        <ele>465.3</ele>
        <time>2025-11-23T14:13:29.000Z</time>
      </trkpt>
      <trkpt lat="43.52905" lon="6.09079">
        <ele>465.4</ele>
        <time>2025-11-23T14:13:59.000Z</time>
      </trkpt>
      <trkpt lat="43.52905" lon="6.09079">
        <ele>465.5</ele>
        <time>2025-11-23T14:14:14.000Z</time>
      </trkpt>
      <trkpt lat="43.52905" lon="6.09079">
        <ele>465.5</ele>
        <time>2025-11-23T14:14:15.000Z</time>
      </trkpt>
      <trkpt lat="43.52906" lon="6.09078">
        <ele>465.6</ele>
        <time>2025-11-23T14:14:41.000Z</time>
      </trkpt>
      <trkpt lat="43.52906" lon="6.09079">
        <ele>465.5</ele>
        <time>2025-11-23T14:16:44.000Z</time>
      </trkpt>
      <trkpt lat="43.52906" lon="6.09078">
        <ele>465.5</ele>
        <time>2025-11-23T14:16:57.000Z</time>
      </trkpt>
      <trkpt lat="43.52906" lon="6.0908">
        <ele>465.5</ele>
        <time>2025-11-23T14:17:10.000Z</time>
      </trkpt>
      <trkpt lat="43.52904" lon="6.09092">
        <ele>465.4</ele>
        <time>2025-11-23T14:17:23.000Z</time>
      </trkpt>
      <trkpt lat="43.52904" lon="6.09105">
        <ele>465.3</ele>
        <time>2025-11-23T14:17:32.000Z</time>
      </trkpt>
      <trkpt lat="43.52905" lon="6.09119">
        <ele>465.1</ele>
        <time>2025-11-23T14:17:41.000Z</time>
      </trkpt>
      <trkpt lat="43.52906" lon="6.09131">
        <ele>464.6</ele>
        <time>2025-11-23T14:17:50.000Z</time>
      </trkpt>
      <trkpt lat="43.52904" lon="6.09144">
        <ele>463.9</ele>
        <time>2025-11-23T14:17:59.000Z</time>
      </trkpt>
      <trkpt lat="43.529" lon="6.09156">
        <ele>463</ele>
        <time>2025-11-23T14:18:09.000Z</time>
      </trkpt>
      <trkpt lat="43.52895" lon="6.09168">
        <ele>462.3</ele>
        <time>2025-11-23T14:18:21.000Z</time>
      </trkpt>
      <trkpt lat="43.52889" lon="6.09178">
        <ele>462.1</ele>
        <time>2025-11-23T14:18:30.000Z</time>
      </trkpt>
      <trkpt lat="43.52887" lon="6.0919">
        <ele>461.9</ele>
        <time>2025-11-23T14:18:38.000Z</time>
      </trkpt>
      <trkpt lat="43.52891" lon="6.09202">
        <ele>461.5</ele>
        <time>2025-11-23T14:18:47.000Z</time>
      </trkpt>
      <trkpt lat="43.52896" lon="6.09213">
        <ele>461.1</ele>
        <time>2025-11-23T14:18:56.000Z</time>
      </trkpt>
      <trkpt lat="43.52902" lon="6.09224">
        <ele>460.7</ele>
        <time>2025-11-23T14:19:04.000Z</time>
      </trkpt>
      <trkpt lat="43.5291" lon="6.09233">
        <ele>460.5</ele>
        <time>2025-11-23T14:19:12.000Z</time>
      </trkpt>
      <trkpt lat="43.52917" lon="6.0924">
        <ele>460.3</ele>
        <time>2025-11-23T14:19:21.000Z</time>
      </trkpt>
      <trkpt lat="43.52926" lon="6.09244">
        <ele>460.2</ele>
        <time>2025-11-23T14:19:30.000Z</time>
      </trkpt>
      <trkpt lat="43.52935" lon="6.09248">
        <ele>460.1</ele>
        <time>2025-11-23T14:19:40.000Z</time>
      </trkpt>
      <trkpt lat="43.52945" lon="6.09247">
        <ele>460.1</ele>
        <time>2025-11-23T14:19:49.000Z</time>
      </trkpt>
      <trkpt lat="43.52954" lon="6.09248">
        <ele>460</ele>
        <time>2025-11-23T14:19:57.000Z</time>
      </trkpt>
      <trkpt lat="43.52963" lon="6.09251">
        <ele>460</ele>
        <time>2025-11-23T14:20:06.000Z</time>
      </trkpt>
      <trkpt lat="43.52966" lon="6.09264">
        <ele>459.8</ele>
        <time>2025-11-23T14:20:21.000Z</time>
      </trkpt>
      <trkpt lat="43.52962" lon="6.09276">
        <ele>459.7</ele>
        <time>2025-11-23T14:20:31.000Z</time>
      </trkpt>
      <trkpt lat="43.52959" lon="6.0929">
        <ele>459.4</ele>
        <time>2025-11-23T14:20:41.000Z</time>
      </trkpt>
      <trkpt lat="43.52958" lon="6.09303">
        <ele>459.2</ele>
        <time>2025-11-23T14:20:50.000Z</time>
      </trkpt>
      <trkpt lat="43.5296" lon="6.09315">
        <ele>459</ele>
        <time>2025-11-23T14:20:58.000Z</time>
      </trkpt>
      <trkpt lat="43.52962" lon="6.09328">
        <ele>458.5</ele>
        <time>2025-11-23T14:21:07.000Z</time>
      </trkpt>
      <trkpt lat="43.52963" lon="6.09342">
        <ele>457.9</ele>
        <time>2025-11-23T14:21:18.000Z</time>
      </trkpt>
      <trkpt lat="43.52956" lon="6.09351">
        <ele>457.6</ele>
        <time>2025-11-23T14:21:29.000Z</time>
      </trkpt>
      <trkpt lat="43.52949" lon="6.0936">
        <ele>457.6</ele>
        <time>2025-11-23T14:21:39.000Z</time>
      </trkpt>
      <trkpt lat="43.52944" lon="6.09371">
        <ele>457.7</ele>
        <time>2025-11-23T14:21:48.000Z</time>
      </trkpt>
      <trkpt lat="43.52943" lon="6.09384">
        <ele>457.9</ele>
        <time>2025-11-23T14:21:58.000Z</time>
      </trkpt>
      <trkpt lat="43.52945" lon="6.09396">
        <ele>458</ele>
        <time>2025-11-23T14:22:07.000Z</time>
      </trkpt>
      <trkpt lat="43.52945" lon="6.09409">
        <ele>458.1</ele>
        <time>2025-11-23T14:22:17.000Z</time>
      </trkpt>
      <trkpt lat="43.52942" lon="6.09421">
        <ele>458.2</ele>
        <time>2025-11-23T14:22:26.000Z</time>
      </trkpt>
      <trkpt lat="43.52932" lon="6.09422">
        <ele>458.4</ele>
        <time>2025-11-23T14:22:37.000Z</time>
      </trkpt>
      <trkpt lat="43.52923" lon="6.09427">
        <ele>458.6</ele>
        <time>2025-11-23T14:22:46.000Z</time>
      </trkpt>
      <trkpt lat="43.52917" lon="6.09437">
        <ele>458.6</ele>
        <time>2025-11-23T14:22:55.000Z</time>
      </trkpt>
      <trkpt lat="43.52912" lon="6.09449">
        <ele>458.6</ele>
        <time>2025-11-23T14:23:05.000Z</time>
      </trkpt>
      <trkpt lat="43.52912" lon="6.09462">
        <ele>458.6</ele>
        <time>2025-11-23T14:23:14.000Z</time>
      </trkpt>
      <trkpt lat="43.52911" lon="6.09475">
        <ele>458.5</ele>
        <time>2025-11-23T14:23:21.000Z</time>
      </trkpt>
      <trkpt lat="43.52911" lon="6.09488">
        <ele>458.5</ele>
        <time>2025-11-23T14:23:29.000Z</time>
      </trkpt>
      <trkpt lat="43.52912" lon="6.09502">
        <ele>458.5</ele>
        <time>2025-11-23T14:23:38.000Z</time>
      </trkpt>
      <trkpt lat="43.52913" lon="6.09515">
        <ele>458.5</ele>
        <time>2025-11-23T14:23:46.000Z</time>
      </trkpt>
      <trkpt lat="43.52915" lon="6.09528">
        <ele>458.6</ele>
        <time>2025-11-23T14:23:55.000Z</time>
      </trkpt>
      <trkpt lat="43.52916" lon="6.09542">
        <ele>458.7</ele>
        <time>2025-11-23T14:24:05.000Z</time>
      </trkpt>
      <trkpt lat="43.52917" lon="6.09556">
        <ele>458.9</ele>
        <time>2025-11-23T14:24:14.000Z</time>
      </trkpt>
      <trkpt lat="43.52921" lon="6.09569">
        <ele>459.1</ele>
        <time>2025-11-23T14:24:23.000Z</time>
      </trkpt>
      <trkpt lat="43.52926" lon="6.09581">
        <ele>459.2</ele>
        <time>2025-11-23T14:24:31.000Z</time>
      </trkpt>
      <trkpt lat="43.52932" lon="6.09592">
        <ele>459.1</ele>
        <time>2025-11-23T14:24:41.000Z</time>
      </trkpt>
      <trkpt lat="43.52938" lon="6.09602">
        <ele>459.1</ele>
        <time>2025-11-23T14:24:49.000Z</time>
      </trkpt>
      <trkpt lat="43.52944" lon="6.09614">
        <ele>459.2</ele>
        <time>2025-11-23T14:24:57.000Z</time>
      </trkpt>
      <trkpt lat="43.52952" lon="6.09619">
        <ele>459.1</ele>
        <time>2025-11-23T14:25:08.000Z</time>
      </trkpt>
      <trkpt lat="43.52962" lon="6.09623">
        <ele>459.1</ele>
        <time>2025-11-23T14:25:16.000Z</time>
      </trkpt>
      <trkpt lat="43.52971" lon="6.09627">
        <ele>459.1</ele>
        <time>2025-11-23T14:25:24.000Z</time>
      </trkpt>
      <trkpt lat="43.52979" lon="6.09634">
        <ele>459.1</ele>
        <time>2025-11-23T14:25:32.000Z</time>
      </trkpt>
      <trkpt lat="43.52987" lon="6.0964">
        <ele>459.2</ele>
        <time>2025-11-23T14:25:41.000Z</time>
      </trkpt>
      <trkpt lat="43.52994" lon="6.09649">
        <ele>459.3</ele>
        <time>2025-11-23T14:25:50.000Z</time>
      </trkpt>
      <trkpt lat="43.53002" lon="6.09659">
        <ele>459.5</ele>
        <time>2025-11-23T14:25:59.000Z</time>
      </trkpt>
      <trkpt lat="43.53008" lon="6.09669">
        <ele>459.7</ele>
        <time>2025-11-23T14:26:08.000Z</time>
      </trkpt>
      <trkpt lat="43.53011" lon="6.09681">
        <ele>460</ele>
        <time>2025-11-23T14:26:17.000Z</time>
      </trkpt>
      <trkpt lat="43.53014" lon="6.09693">
        <ele>460.4</ele>
        <time>2025-11-23T14:26:27.000Z</time>
      </trkpt>
      <trkpt lat="43.53019" lon="6.09705">
        <ele>460.9</ele>
        <time>2025-11-23T14:26:36.000Z</time>
      </trkpt>
      <trkpt lat="43.53025" lon="6.09715">
        <ele>461.5</ele>
        <time>2025-11-23T14:26:46.000Z</time>
      </trkpt>
      <trkpt lat="43.5303" lon="6.09726">
        <ele>461.9</ele>
        <time>2025-11-23T14:26:54.000Z</time>
      </trkpt>
      <trkpt lat="43.53032" lon="6.09739">
        <ele>462</ele>
        <time>2025-11-23T14:27:02.000Z</time>
      </trkpt>
      <trkpt lat="43.53038" lon="6.0975">
        <ele>462.1</ele>
        <time>2025-11-23T14:27:10.000Z</time>
      </trkpt>
      <trkpt lat="43.53045" lon="6.09759">
        <ele>462.2</ele>
        <time>2025-11-23T14:27:20.000Z</time>
      </trkpt>
      <trkpt lat="43.53049" lon="6.09771">
        <ele>462.2</ele>
        <time>2025-11-23T14:27:30.000Z</time>
      </trkpt>
      <trkpt lat="43.53055" lon="6.09783">
        <ele>462.2</ele>
        <time>2025-11-23T14:27:39.000Z</time>
      </trkpt>
      <trkpt lat="43.5306" lon="6.09794">
        <ele>462.2</ele>
        <time>2025-11-23T14:27:48.000Z</time>
      </trkpt>
      <trkpt lat="43.53066" lon="6.09804">
        <ele>462.3</ele>
        <time>2025-11-23T14:27:57.000Z</time>
      </trkpt>
      <trkpt lat="43.5307" lon="6.09816">
        <ele>462.4</ele>
        <time>2025-11-23T14:28:06.000Z</time>
      </trkpt>
      <trkpt lat="43.53077" lon="6.09826">
        <ele>462.6</ele>
        <time>2025-11-23T14:28:15.000Z</time>
      </trkpt>
      <trkpt lat="43.53083" lon="6.09835">
        <ele>462.7</ele>
        <time>2025-11-23T14:28:22.000Z</time>
      </trkpt>
      <trkpt lat="43.53091" lon="6.09841">
        <ele>463</ele>
        <time>2025-11-23T14:28:31.000Z</time>
      </trkpt>
      <trkpt lat="43.53101" lon="6.09841">
        <ele>463.2</ele>
        <time>2025-11-23T14:28:40.000Z</time>
      </trkpt>
      <trkpt lat="43.53108" lon="6.09848">
        <ele>463.3</ele>
        <time>2025-11-23T14:28:49.000Z</time>
      </trkpt>
      <trkpt lat="43.53109" lon="6.09861">
        <ele>463.5</ele>
        <time>2025-11-23T14:28:56.000Z</time>
      </trkpt>
      <trkpt lat="43.53113" lon="6.09874">
        <ele>463.6</ele>
        <time>2025-11-23T14:29:04.000Z</time>
      </trkpt>
      <trkpt lat="43.53121" lon="6.0988">
        <ele>463.7</ele>
        <time>2025-11-23T14:29:13.000Z</time>
      </trkpt>
      <trkpt lat="43.5313" lon="6.09881">
        <ele>464.1</ele>
        <time>2025-11-23T14:29:22.000Z</time>
      </trkpt>
      <trkpt lat="43.53139" lon="6.09887">
        <ele>464.7</ele>
        <time>2025-11-23T14:29:32.000Z</time>
      </trkpt>
      <trkpt lat="43.53143" lon="6.09898">
        <ele>465.1</ele>
        <time>2025-11-23T14:29:42.000Z</time>
      </trkpt>
      <trkpt lat="43.53144" lon="6.0991">
        <ele>465.4</ele>
        <time>2025-11-23T14:29:51.000Z</time>
      </trkpt>
      <trkpt lat="43.53147" lon="6.09923">
        <ele>465.4</ele>
        <time>2025-11-23T14:30:00.000Z</time>
      </trkpt>
      <trkpt lat="43.53149" lon="6.09935">
        <ele>465.4</ele>
        <time>2025-11-23T14:30:09.000Z</time>
      </trkpt>
      <trkpt lat="43.53151" lon="6.09949">
        <ele>465.2</ele>
        <time>2025-11-23T14:30:18.000Z</time>
      </trkpt>
      <trkpt lat="43.53152" lon="6.09961">
        <ele>465.2</ele>
        <time>2025-11-23T14:30:27.000Z</time>
      </trkpt>
      <trkpt lat="43.53159" lon="6.09972">
        <ele>465.2</ele>
        <time>2025-11-23T14:30:36.000Z</time>
      </trkpt>
      <trkpt lat="43.53167" lon="6.09977">
        <ele>465.3</ele>
        <time>2025-11-23T14:30:44.000Z</time>
      </trkpt>
      <trkpt lat="43.53172" lon="6.09987">
        <ele>465.2</ele>
        <time>2025-11-23T14:30:54.000Z</time>
      </trkpt>
      <trkpt lat="43.53172" lon="6.10001">
        <ele>465.2</ele>
        <time>2025-11-23T14:31:04.000Z</time>
      </trkpt>
      <trkpt lat="43.53166" lon="6.10011">
        <ele>465</ele>
        <time>2025-11-23T14:31:14.000Z</time>
      </trkpt>
      <trkpt lat="43.53164" lon="6.10024">
        <ele>464.7</ele>
        <time>2025-11-23T14:31:23.000Z</time>
      </trkpt>
      <trkpt lat="43.53161" lon="6.10036">
        <ele>464.4</ele>
        <time>2025-11-23T14:31:31.000Z</time>
      </trkpt>
      <trkpt lat="43.53158" lon="6.10048">
        <ele>463.9</ele>
        <time>2025-11-23T14:31:39.000Z</time>
      </trkpt>
      <trkpt lat="43.53157" lon="6.10062">
        <ele>463</ele>
        <time>2025-11-23T14:31:50.000Z</time>
      </trkpt>
      <trkpt lat="43.53156" lon="6.10074">
        <ele>462.4</ele>
        <time>2025-11-23T14:31:58.000Z</time>
      </trkpt>
      <trkpt lat="43.53158" lon="6.10088">
        <ele>461.6</ele>
        <time>2025-11-23T14:32:06.000Z</time>
      </trkpt>
      <trkpt lat="43.53161" lon="6.101">
        <ele>460.7</ele>
        <time>2025-11-23T14:32:15.000Z</time>
      </trkpt>
      <trkpt lat="43.53163" lon="6.10112">
        <ele>460.1</ele>
        <time>2025-11-23T14:32:23.000Z</time>
      </trkpt>
      <trkpt lat="43.53165" lon="6.10125">
        <ele>459.6</ele>
        <time>2025-11-23T14:32:32.000Z</time>
      </trkpt>
      <trkpt lat="43.53165" lon="6.10139">
        <ele>459.1</ele>
        <time>2025-11-23T14:32:41.000Z</time>
      </trkpt>
      <trkpt lat="43.53165" lon="6.10151">
        <ele>458.7</ele>
        <time>2025-11-23T14:32:49.000Z</time>
      </trkpt>
      <trkpt lat="43.53169" lon="6.10163">
        <ele>458.3</ele>
        <time>2025-11-23T14:32:57.000Z</time>
      </trkpt>
      <trkpt lat="43.53172" lon="6.10175">
        <ele>458.1</ele>
        <time>2025-11-23T14:33:05.000Z</time>
      </trkpt>
      <trkpt lat="43.53175" lon="6.10188">
        <ele>457.8</ele>
        <time>2025-11-23T14:33:14.000Z</time>
      </trkpt>
      <trkpt lat="43.53176" lon="6.10202">
        <ele>457.1</ele>
        <time>2025-11-23T14:33:23.000Z</time>
      </trkpt>
      <trkpt lat="43.53179" lon="6.10215">
        <ele>456.5</ele>
        <time>2025-11-23T14:33:33.000Z</time>
      </trkpt>
      <trkpt lat="43.53182" lon="6.10228">
        <ele>455.9</ele>
        <time>2025-11-23T14:33:42.000Z</time>
      </trkpt>
      <trkpt lat="43.53179" lon="6.10241">
        <ele>455.4</ele>
        <time>2025-11-23T14:33:52.000Z</time>
      </trkpt>
      <trkpt lat="43.53173" lon="6.1025">
        <ele>455.3</ele>
        <time>2025-11-23T14:34:02.000Z</time>
      </trkpt>
      <trkpt lat="43.53164" lon="6.10254">
        <ele>455</ele>
        <time>2025-11-23T14:34:10.000Z</time>
      </trkpt>
      <trkpt lat="43.53157" lon="6.10261">
        <ele>454.7</ele>
        <time>2025-11-23T14:34:20.000Z</time>
      </trkpt>
      <trkpt lat="43.53149" lon="6.10269">
        <ele>454.3</ele>
        <time>2025-11-23T14:34:29.000Z</time>
      </trkpt>
      <trkpt lat="43.53141" lon="6.10279">
        <ele>453.7</ele>
        <time>2025-11-23T14:34:38.000Z</time>
      </trkpt>
      <trkpt lat="43.53134" lon="6.10287">
        <ele>453.1</ele>
        <time>2025-11-23T14:34:46.000Z</time>
      </trkpt>
      <trkpt lat="43.53127" lon="6.10296">
        <ele>452.5</ele>
        <time>2025-11-23T14:34:55.000Z</time>
      </trkpt>
      <trkpt lat="43.53119" lon="6.10304">
        <ele>452</ele>
        <time>2025-11-23T14:35:04.000Z</time>
      </trkpt>
      <trkpt lat="43.53112" lon="6.10314">
        <ele>451.5</ele>
        <time>2025-11-23T14:35:13.000Z</time>
      </trkpt>
      <trkpt lat="43.53105" lon="6.10322">
        <ele>450.9</ele>
        <time>2025-11-23T14:35:22.000Z</time>
      </trkpt>
      <trkpt lat="43.53099" lon="6.10334">
        <ele>450.3</ele>
        <time>2025-11-23T14:35:31.000Z</time>
      </trkpt>
      <trkpt lat="43.53096" lon="6.10347">
        <ele>449.9</ele>
        <time>2025-11-23T14:35:39.000Z</time>
      </trkpt>
      <trkpt lat="43.53094" lon="6.10359">
        <ele>449.7</ele>
        <time>2025-11-23T14:35:46.000Z</time>
      </trkpt>
      <trkpt lat="43.53091" lon="6.10373">
        <ele>449.4</ele>
        <time>2025-11-23T14:35:58.000Z</time>
      </trkpt>
      <trkpt lat="43.53089" lon="6.10386">
        <ele>449.3</ele>
        <time>2025-11-23T14:36:07.000Z</time>
      </trkpt>
      <trkpt lat="43.53088" lon="6.10399">
        <ele>449.3</ele>
        <time>2025-11-23T14:36:16.000Z</time>
      </trkpt>
      <trkpt lat="43.53089" lon="6.10412">
        <ele>449.3</ele>
        <time>2025-11-23T14:36:25.000Z</time>
      </trkpt>
      <trkpt lat="43.53089" lon="6.10425">
        <ele>449.5</ele>
        <time>2025-11-23T14:36:33.000Z</time>
      </trkpt>
      <trkpt lat="43.5309" lon="6.10438">
        <ele>449.8</ele>
        <time>2025-11-23T14:36:42.000Z</time>
      </trkpt>
      <trkpt lat="43.5309" lon="6.10451">
        <ele>450.5</ele>
        <time>2025-11-23T14:36:52.000Z</time>
      </trkpt>
      <trkpt lat="43.53089" lon="6.10464">
        <ele>451</ele>
        <time>2025-11-23T14:37:01.000Z</time>
      </trkpt>
      <trkpt lat="43.53086" lon="6.10477">
        <ele>451.3</ele>
        <time>2025-11-23T14:37:10.000Z</time>
      </trkpt>
      <trkpt lat="43.53086" lon="6.1049">
        <ele>451.7</ele>
        <time>2025-11-23T14:37:19.000Z</time>
      </trkpt>
      <trkpt lat="43.53088" lon="6.10503">
        <ele>451.8</ele>
        <time>2025-11-23T14:37:28.000Z</time>
      </trkpt>
      <trkpt lat="43.53089" lon="6.10516">
        <ele>451.9</ele>
        <time>2025-11-23T14:37:36.000Z</time>
      </trkpt>
      <trkpt lat="43.53091" lon="6.10528">
        <ele>451.8</ele>
        <time>2025-11-23T14:37:44.000Z</time>
      </trkpt>
      <trkpt lat="43.53098" lon="6.10537">
        <ele>451.7</ele>
        <time>2025-11-23T14:37:53.000Z</time>
      </trkpt>
      <trkpt lat="43.53107" lon="6.10539">
        <ele>451.5</ele>
        <time>2025-11-23T14:38:02.000Z</time>
      </trkpt>
      <trkpt lat="43.53116" lon="6.10539">
        <ele>451.2</ele>
        <time>2025-11-23T14:38:10.000Z</time>
      </trkpt>
      <trkpt lat="43.53126" lon="6.10537">
        <ele>451.1</ele>
        <time>2025-11-23T14:38:19.000Z</time>
      </trkpt>
      <trkpt lat="43.53135" lon="6.10536">
        <ele>451</ele>
        <time>2025-11-23T14:38:28.000Z</time>
      </trkpt>
      <trkpt lat="43.53145" lon="6.10537">
        <ele>451.1</ele>
        <time>2025-11-23T14:38:36.000Z</time>
      </trkpt>
      <trkpt lat="43.53154" lon="6.10538">
        <ele>451.1</ele>
        <time>2025-11-23T14:38:45.000Z</time>
      </trkpt>
      <trkpt lat="43.53163" lon="6.10542">
        <ele>451.3</ele>
        <time>2025-11-23T14:38:56.000Z</time>
      </trkpt>
      <trkpt lat="43.53173" lon="6.10545">
        <ele>451.6</ele>
        <time>2025-11-23T14:39:06.000Z</time>
      </trkpt>
      <trkpt lat="43.53182" lon="6.10545">
        <ele>452</ele>
        <time>2025-11-23T14:39:14.000Z</time>
      </trkpt>
      <trkpt lat="43.53191" lon="6.10543">
        <ele>452.8</ele>
        <time>2025-11-23T14:39:23.000Z</time>
      </trkpt>
      <trkpt lat="43.532" lon="6.10541">
        <ele>453.5</ele>
        <time>2025-11-23T14:39:32.000Z</time>
      </trkpt>
      <trkpt lat="43.53209" lon="6.10538">
        <ele>454.2</ele>
        <time>2025-11-23T14:39:42.000Z</time>
      </trkpt>
      <trkpt lat="43.53218" lon="6.10538">
        <ele>454.5</ele>
        <time>2025-11-23T14:39:51.000Z</time>
      </trkpt>
      <trkpt lat="43.53227" lon="6.10538">
        <ele>455</ele>
        <time>2025-11-23T14:40:01.000Z</time>
      </trkpt>
      <trkpt lat="43.53236" lon="6.1054">
        <ele>456.3</ele>
        <time>2025-11-23T14:40:20.000Z</time>
      </trkpt>
      <trkpt lat="43.53238" lon="6.10539">
        <ele>456.8</ele>
        <time>2025-11-23T14:40:43.000Z</time>
      </trkpt>
      <trkpt lat="43.5324" lon="6.10538">
        <ele>456.9</ele>
        <time>2025-11-23T14:40:50.000Z</time>
      </trkpt>
      <trkpt lat="43.5324" lon="6.10536">
        <ele>457.2</ele>
        <time>2025-11-23T14:41:07.000Z</time>
      </trkpt>
      <trkpt lat="43.53239" lon="6.10539">
        <ele>457.4</ele>
        <time>2025-11-23T14:41:43.000Z</time>
      </trkpt>
      <trkpt lat="43.53239" lon="6.10538">
        <ele>457.5</ele>
        <time>2025-11-23T14:42:01.000Z</time>
      </trkpt>
      <trkpt lat="43.5324" lon="6.10542">
        <ele>457.5</ele>
        <time>2025-11-23T14:42:20.000Z</time>
      </trkpt>
      <trkpt lat="43.53237" lon="6.10555">
        <ele>457.6</ele>
        <time>2025-11-23T14:42:40.000Z</time>
      </trkpt>
      <trkpt lat="43.53231" lon="6.10565">
        <ele>457.9</ele>
        <time>2025-11-23T14:42:51.000Z</time>
      </trkpt>
      <trkpt lat="43.53222" lon="6.1057">
        <ele>458.2</ele>
        <time>2025-11-23T14:43:00.000Z</time>
      </trkpt>
      <trkpt lat="43.53213" lon="6.10575">
        <ele>458.2</ele>
        <time>2025-11-23T14:43:08.000Z</time>
      </trkpt>
      <trkpt lat="43.53204" lon="6.10581">
        <ele>458.2</ele>
        <time>2025-11-23T14:43:17.000Z</time>
      </trkpt>
      <trkpt lat="43.53196" lon="6.10587">
        <ele>458</ele>
        <time>2025-11-23T14:43:25.000Z</time>
      </trkpt>
      <trkpt lat="43.53188" lon="6.10595">
        <ele>457.8</ele>
        <time>2025-11-23T14:43:35.000Z</time>
      </trkpt>
      <trkpt lat="43.5318" lon="6.10602">
        <ele>457.3</ele>
        <time>2025-11-23T14:43:47.000Z</time>
      </trkpt>
      <trkpt lat="43.53171" lon="6.10608">
        <ele>457.1</ele>
        <time>2025-11-23T14:43:57.000Z</time>
      </trkpt>
      <trkpt lat="43.53162" lon="6.10609">
        <ele>457</ele>
        <time>2025-11-23T14:44:06.000Z</time>
      </trkpt>
      <trkpt lat="43.53153" lon="6.1061">
        <ele>457</ele>
        <time>2025-11-23T14:44:14.000Z</time>
      </trkpt>
      <trkpt lat="43.53144" lon="6.10617">
        <ele>457</ele>
        <time>2025-11-23T14:44:23.000Z</time>
      </trkpt>
      <trkpt lat="43.53136" lon="6.10624">
        <ele>457</ele>
        <time>2025-11-23T14:44:30.000Z</time>
      </trkpt>
      <trkpt lat="43.5313" lon="6.10634">
        <ele>456.8</ele>
        <time>2025-11-23T14:44:41.000Z</time>
      </trkpt>
      <trkpt lat="43.53122" lon="6.10643">
        <ele>456.6</ele>
        <time>2025-11-23T14:44:50.000Z</time>
      </trkpt>
      <trkpt lat="43.53114" lon="6.1065">
        <ele>456.5</ele>
        <time>2025-11-23T14:44:58.000Z</time>
      </trkpt>
      <trkpt lat="43.53108" lon="6.10658">
        <ele>456.6</ele>
        <time>2025-11-23T14:45:06.000Z</time>
      </trkpt>
      <trkpt lat="43.53101" lon="6.10667">
        <ele>456.6</ele>
        <time>2025-11-23T14:45:14.000Z</time>
      </trkpt>
      <trkpt lat="43.53092" lon="6.10674">
        <ele>456.8</ele>
        <time>2025-11-23T14:45:24.000Z</time>
      </trkpt>
      <trkpt lat="43.53084" lon="6.10681">
        <ele>456.9</ele>
        <time>2025-11-23T14:45:33.000Z</time>
      </trkpt>
      <trkpt lat="43.53075" lon="6.10688">
        <ele>457.1</ele>
        <time>2025-11-23T14:45:42.000Z</time>
      </trkpt>
      <trkpt lat="43.53067" lon="6.10693">
        <ele>457.2</ele>
        <time>2025-11-23T14:45:50.000Z</time>
      </trkpt>
      <trkpt lat="43.53059" lon="6.10701">
        <ele>457.4</ele>
        <time>2025-11-23T14:45:59.000Z</time>
      </trkpt>
      <trkpt lat="43.5305" lon="6.10708">
        <ele>457.8</ele>
        <time>2025-11-23T14:46:10.000Z</time>
      </trkpt>
      <trkpt lat="43.53048" lon="6.1072">
        <ele>458.1</ele>
        <time>2025-11-23T14:46:18.000Z</time>
      </trkpt>
      <trkpt lat="43.53051" lon="6.10733">
        <ele>458.5</ele>
        <time>2025-11-23T14:46:26.000Z</time>
      </trkpt>
      <trkpt lat="43.53058" lon="6.10741">
        <ele>458.9</ele>
        <time>2025-11-23T14:46:35.000Z</time>
      </trkpt>
      <trkpt lat="43.53068" lon="6.10747">
        <ele>459.1</ele>
        <time>2025-11-23T14:46:43.000Z</time>
      </trkpt>
      <trkpt lat="43.53075" lon="6.10756">
        <ele>459.3</ele>
        <time>2025-11-23T14:46:53.000Z</time>
      </trkpt>
      <trkpt lat="43.53083" lon="6.10763">
        <ele>459.4</ele>
        <time>2025-11-23T14:47:01.000Z</time>
      </trkpt>
      <trkpt lat="43.53092" lon="6.10769">
        <ele>459.4</ele>
        <time>2025-11-23T14:47:09.000Z</time>
      </trkpt>
      <trkpt lat="43.531" lon="6.10775">
        <ele>459.3</ele>
        <time>2025-11-23T14:47:17.000Z</time>
      </trkpt>
      <trkpt lat="43.53108" lon="6.10783">
        <ele>459</ele>
        <time>2025-11-23T14:47:25.000Z</time>
      </trkpt>
      <trkpt lat="43.53111" lon="6.10796">
        <ele>458.6</ele>
        <time>2025-11-23T14:47:35.000Z</time>
      </trkpt>
      <trkpt lat="43.5311" lon="6.1081">
        <ele>458.1</ele>
        <time>2025-11-23T14:47:46.000Z</time>
      </trkpt>
      <trkpt lat="43.53108" lon="6.10822">
        <ele>457.9</ele>
        <time>2025-11-23T14:47:54.000Z</time>
      </trkpt>
      <trkpt lat="43.53107" lon="6.10836">
        <ele>457.5</ele>
        <time>2025-11-23T14:48:04.000Z</time>
      </trkpt>
      <trkpt lat="43.53108" lon="6.10848">
        <ele>457.1</ele>
        <time>2025-11-23T14:48:12.000Z</time>
      </trkpt>
      <trkpt lat="43.53111" lon="6.1086">
        <ele>456.5</ele>
        <time>2025-11-23T14:48:21.000Z</time>
      </trkpt>
      <trkpt lat="43.53116" lon="6.10872">
        <ele>456.1</ele>
        <time>2025-11-23T14:48:30.000Z</time>
      </trkpt>
      <trkpt lat="43.53121" lon="6.10884">
        <ele>455.6</ele>
        <time>2025-11-23T14:48:38.000Z</time>
      </trkpt>
      <trkpt lat="43.53126" lon="6.10894">
        <ele>455.1</ele>
        <time>2025-11-23T14:48:46.000Z</time>
      </trkpt>
      <trkpt lat="43.53131" lon="6.10904">
        <ele>454.7</ele>
        <time>2025-11-23T14:48:54.000Z</time>
      </trkpt>
      <trkpt lat="43.53137" lon="6.10914">
        <ele>454.4</ele>
        <time>2025-11-23T14:49:02.000Z</time>
      </trkpt>
      <trkpt lat="43.53143" lon="6.10925">
        <ele>454</ele>
        <time>2025-11-23T14:49:11.000Z</time>
      </trkpt>
      <trkpt lat="43.53149" lon="6.10937">
        <ele>453.4</ele>
        <time>2025-11-23T14:49:20.000Z</time>
      </trkpt>
      <trkpt lat="43.53152" lon="6.10949">
        <ele>452.6</ele>
        <time>2025-11-23T14:49:30.000Z</time>
      </trkpt>
      <trkpt lat="43.53153" lon="6.10963">
        <ele>452.1</ele>
        <time>2025-11-23T14:49:40.000Z</time>
      </trkpt>
      <trkpt lat="43.53154" lon="6.10977">
        <ele>451.7</ele>
        <time>2025-11-23T14:49:49.000Z</time>
      </trkpt>
      <trkpt lat="43.53156" lon="6.1099">
        <ele>451.1</ele>
        <time>2025-11-23T14:49:58.000Z</time>
      </trkpt>
      <trkpt lat="43.53159" lon="6.11002">
        <ele>450.6</ele>
        <time>2025-11-23T14:50:06.000Z</time>
      </trkpt>
      <trkpt lat="43.53162" lon="6.11014">
        <ele>450.1</ele>
        <time>2025-11-23T14:50:14.000Z</time>
      </trkpt>
      <trkpt lat="43.53167" lon="6.11026">
        <ele>449.5</ele>
        <time>2025-11-23T14:50:24.000Z</time>
      </trkpt>
      <trkpt lat="43.53171" lon="6.11038">
        <ele>449.3</ele>
        <time>2025-11-23T14:50:35.000Z</time>
      </trkpt>
      <trkpt lat="43.53173" lon="6.11051">
        <ele>449.3</ele>
        <time>2025-11-23T14:50:48.000Z</time>
      </trkpt>
      <trkpt lat="43.53175" lon="6.11064">
        <ele>449.3</ele>
        <time>2025-11-23T14:50:59.000Z</time>
      </trkpt>
      <trkpt lat="43.53177" lon="6.11077">
        <ele>449</ele>
        <time>2025-11-23T14:51:08.000Z</time>
      </trkpt>
      <trkpt lat="43.53179" lon="6.1109">
        <ele>448.8</ele>
        <time>2025-11-23T14:51:16.000Z</time>
      </trkpt>
      <trkpt lat="43.53185" lon="6.11102">
        <ele>448.6</ele>
        <time>2025-11-23T14:51:24.000Z</time>
      </trkpt>
      <trkpt lat="43.53188" lon="6.11114">
        <ele>448.3</ele>
        <time>2025-11-23T14:51:32.000Z</time>
      </trkpt>
      <trkpt lat="43.5319" lon="6.11126">
        <ele>448.1</ele>
        <time>2025-11-23T14:51:39.000Z</time>
      </trkpt>
      <trkpt lat="43.53186" lon="6.11137">
        <ele>447.6</ele>
        <time>2025-11-23T14:51:49.000Z</time>
      </trkpt>
      <trkpt lat="43.53177" lon="6.11145">
        <ele>447.2</ele>
        <time>2025-11-23T14:51:59.000Z</time>
      </trkpt>
      <trkpt lat="43.53171" lon="6.11155">
        <ele>446.9</ele>
        <time>2025-11-23T14:52:09.000Z</time>
      </trkpt>
      <trkpt lat="43.53168" lon="6.11167">
        <ele>446.7</ele>
        <time>2025-11-23T14:52:17.000Z</time>
      </trkpt>
      <trkpt lat="43.53169" lon="6.11181">
        <ele>446.3</ele>
        <time>2025-11-23T14:52:25.000Z</time>
      </trkpt>
      <trkpt lat="43.5317" lon="6.11193">
        <ele>445.8</ele>
        <time>2025-11-23T14:52:33.000Z</time>
      </trkpt>
      <trkpt lat="43.53171" lon="6.11206">
        <ele>444.8</ele>
        <time>2025-11-23T14:53:02.000Z</time>
      </trkpt>
      <trkpt lat="43.5317" lon="6.11219">
        <ele>444.7</ele>
        <time>2025-11-23T14:53:13.000Z</time>
      </trkpt>
      <trkpt lat="43.53169" lon="6.11233">
        <ele>444.4</ele>
        <time>2025-11-23T14:53:23.000Z</time>
      </trkpt>
      <trkpt lat="43.53169" lon="6.11245">
        <ele>444</ele>
        <time>2025-11-23T14:53:31.000Z</time>
      </trkpt>
      <trkpt lat="43.53169" lon="6.11259">
        <ele>443.5</ele>
        <time>2025-11-23T14:53:41.000Z</time>
      </trkpt>
      <trkpt lat="43.53168" lon="6.11272">
        <ele>443</ele>
        <time>2025-11-23T14:53:50.000Z</time>
      </trkpt>
      <trkpt lat="43.53167" lon="6.11286">
        <ele>442.5</ele>
        <time>2025-11-23T14:54:01.000Z</time>
      </trkpt>
      <trkpt lat="43.53163" lon="6.11297">
        <ele>442.3</ele>
        <time>2025-11-23T14:54:08.000Z</time>
      </trkpt>
      <trkpt lat="43.53158" lon="6.11309">
        <ele>442</ele>
        <time>2025-11-23T14:54:16.000Z</time>
      </trkpt>
      <trkpt lat="43.53154" lon="6.11321">
        <ele>441.5</ele>
        <time>2025-11-23T14:54:24.000Z</time>
      </trkpt>
      <trkpt lat="43.53149" lon="6.11332">
        <ele>441.1</ele>
        <time>2025-11-23T14:54:31.000Z</time>
      </trkpt>
      <trkpt lat="43.53143" lon="6.11341">
        <ele>440.8</ele>
        <time>2025-11-23T14:54:39.000Z</time>
      </trkpt>
      <trkpt lat="43.53138" lon="6.11352">
        <ele>440.4</ele>
        <time>2025-11-23T14:54:48.000Z</time>
      </trkpt>
      <trkpt lat="43.53133" lon="6.11363">
        <ele>440</ele>
        <time>2025-11-23T14:54:58.000Z</time>
      </trkpt>
      <trkpt lat="43.53124" lon="6.11367">
        <ele>439.7</ele>
        <time>2025-11-23T14:55:05.000Z</time>
      </trkpt>
      <trkpt lat="43.53115" lon="6.11372">
        <ele>439.3</ele>
        <time>2025-11-23T14:55:13.000Z</time>
      </trkpt>
      <trkpt lat="43.53108" lon="6.1138">
        <ele>438.9</ele>
        <time>2025-11-23T14:55:21.000Z</time>
      </trkpt>
      <trkpt lat="43.531" lon="6.11387">
        <ele>438.4</ele>
        <time>2025-11-23T14:55:29.000Z</time>
      </trkpt>
      <trkpt lat="43.53092" lon="6.11396">
        <ele>437.5</ele>
        <time>2025-11-23T14:55:39.000Z</time>
      </trkpt>
      <trkpt lat="43.53085" lon="6.11405">
        <ele>436.5</ele>
        <time>2025-11-23T14:55:53.000Z</time>
      </trkpt>
      <trkpt lat="43.53078" lon="6.11414">
        <ele>435.9</ele>
        <time>2025-11-23T14:56:04.000Z</time>
      </trkpt>
      <trkpt lat="43.53071" lon="6.11422">
        <ele>435.7</ele>
        <time>2025-11-23T14:56:10.000Z</time>
      </trkpt>
      <trkpt lat="43.53065" lon="6.11434">
        <ele>435.4</ele>
        <time>2025-11-23T14:56:20.000Z</time>
      </trkpt>
      <trkpt lat="43.53059" lon="6.11444">
        <ele>435.2</ele>
        <time>2025-11-23T14:56:28.000Z</time>
      </trkpt>
      <trkpt lat="43.53054" lon="6.11454">
        <ele>434.9</ele>
        <time>2025-11-23T14:56:36.000Z</time>
      </trkpt>
      <trkpt lat="43.53047" lon="6.11462">
        <ele>434.5</ele>
        <time>2025-11-23T14:56:46.000Z</time>
      </trkpt>
      <trkpt lat="43.5304" lon="6.11472">
        <ele>434</ele>
        <time>2025-11-23T14:56:56.000Z</time>
      </trkpt>
      <trkpt lat="43.53036" lon="6.11483">
        <ele>433.6</ele>
        <time>2025-11-23T14:57:04.000Z</time>
      </trkpt>
      <trkpt lat="43.53033" lon="6.11496">
        <ele>433.2</ele>
        <time>2025-11-23T14:57:11.000Z</time>
      </trkpt>
      <trkpt lat="43.53033" lon="6.11509">
        <ele>432.8</ele>
        <time>2025-11-23T14:57:20.000Z</time>
      </trkpt>
      <trkpt lat="43.53037" lon="6.11522">
        <ele>432.5</ele>
        <time>2025-11-23T14:57:29.000Z</time>
      </trkpt>
      <trkpt lat="43.5304" lon="6.11534">
        <ele>432.1</ele>
        <time>2025-11-23T14:57:37.000Z</time>
      </trkpt>
      <trkpt lat="43.53045" lon="6.11544">
        <ele>431.9</ele>
        <time>2025-11-23T14:57:46.000Z</time>
      </trkpt>
      <trkpt lat="43.53053" lon="6.11552">
        <ele>431.6</ele>
        <time>2025-11-23T14:57:55.000Z</time>
      </trkpt>
      <trkpt lat="43.53062" lon="6.11557">
        <ele>431.6</ele>
        <time>2025-11-23T14:58:03.000Z</time>
      </trkpt>
      <trkpt lat="43.53071" lon="6.11563">
        <ele>431.5</ele>
        <time>2025-11-23T14:58:11.000Z</time>
      </trkpt>
      <trkpt lat="43.53076" lon="6.11575">
        <ele>431.2</ele>
        <time>2025-11-23T14:58:20.000Z</time>
      </trkpt>
      <trkpt lat="43.53074" lon="6.11587">
        <ele>430.9</ele>
        <time>2025-11-23T14:58:30.000Z</time>
      </trkpt>
      <trkpt lat="43.53067" lon="6.11597">
        <ele>430.5</ele>
        <time>2025-11-23T14:58:37.000Z</time>
      </trkpt>
      <trkpt lat="43.5306" lon="6.11607">
        <ele>429.9</ele>
        <time>2025-11-23T14:58:45.000Z</time>
      </trkpt>
      <trkpt lat="43.53058" lon="6.1162">
        <ele>429.2</ele>
        <time>2025-11-23T14:58:54.000Z</time>
      </trkpt>
      <trkpt lat="43.53059" lon="6.11633">
        <ele>428.7</ele>
        <time>2025-11-23T14:59:02.000Z</time>
      </trkpt>
      <trkpt lat="43.53065" lon="6.11643">
        <ele>427.9</ele>
        <time>2025-11-23T14:59:31.000Z</time>
      </trkpt>
      <trkpt lat="43.53072" lon="6.11652">
        <ele>427.7</ele>
        <time>2025-11-23T14:59:41.000Z</time>
      </trkpt>
      <trkpt lat="43.53079" lon="6.1166">
        <ele>427.4</ele>
        <time>2025-11-23T14:59:50.000Z</time>
      </trkpt>
      <trkpt lat="43.53089" lon="6.11664">
        <ele>427.1</ele>
        <time>2025-11-23T15:00:00.000Z</time>
      </trkpt>
      <trkpt lat="43.53098" lon="6.11667">
        <ele>426.8</ele>
        <time>2025-11-23T15:00:09.000Z</time>
      </trkpt>
      <trkpt lat="43.53105" lon="6.11676">
        <ele>426.4</ele>
        <time>2025-11-23T15:00:18.000Z</time>
      </trkpt>
      <trkpt lat="43.53105" lon="6.11689">
        <ele>425.9</ele>
        <time>2025-11-23T15:00:29.000Z</time>
      </trkpt>
      <trkpt lat="43.53106" lon="6.11702">
        <ele>425.4</ele>
        <time>2025-11-23T15:00:39.000Z</time>
      </trkpt>
      <trkpt lat="43.53104" lon="6.11715">
        <ele>424.8</ele>
        <time>2025-11-23T15:00:49.000Z</time>
      </trkpt>
      <trkpt lat="43.53106" lon="6.11728">
        <ele>424.3</ele>
        <time>2025-11-23T15:00:58.000Z</time>
      </trkpt>
      <trkpt lat="43.53111" lon="6.11739">
        <ele>423.9</ele>
        <time>2025-11-23T15:01:06.000Z</time>
      </trkpt>
      <trkpt lat="43.53117" lon="6.11749">
        <ele>423.4</ele>
        <time>2025-11-23T15:01:15.000Z</time>
      </trkpt>
      <trkpt lat="43.53123" lon="6.1176">
        <ele>422.8</ele>
        <time>2025-11-23T15:01:24.000Z</time>
      </trkpt>
      <trkpt lat="43.53129" lon="6.11769">
        <ele>422.4</ele>
        <time>2025-11-23T15:01:33.000Z</time>
      </trkpt>
      <trkpt lat="43.53136" lon="6.11778">
        <ele>421.9</ele>
        <time>2025-11-23T15:01:42.000Z</time>
      </trkpt>
      <trkpt lat="43.53139" lon="6.1179">
        <ele>421.5</ele>
        <time>2025-11-23T15:01:52.000Z</time>
      </trkpt>
      <trkpt lat="43.53139" lon="6.11803">
        <ele>420.8</ele>
        <time>2025-11-23T15:02:04.000Z</time>
      </trkpt>
      <trkpt lat="43.5314" lon="6.11817">
        <ele>420.1</ele>
        <time>2025-11-23T15:02:14.000Z</time>
      </trkpt>
      <trkpt lat="43.53144" lon="6.11829">
        <ele>419.6</ele>
        <time>2025-11-23T15:02:22.000Z</time>
      </trkpt>
      <trkpt lat="43.53149" lon="6.11839">
        <ele>419.3</ele>
        <time>2025-11-23T15:02:31.000Z</time>
      </trkpt>
      <trkpt lat="43.53155" lon="6.11849">
        <ele>418.8</ele>
        <time>2025-11-23T15:02:44.000Z</time>
      </trkpt>
      <trkpt lat="43.53163" lon="6.11857">
        <ele>418.6</ele>
        <time>2025-11-23T15:03:00.000Z</time>
      </trkpt>
      <trkpt lat="43.53166" lon="6.11863">
        <ele>418.4</ele>
        <time>2025-11-23T15:03:21.000Z</time>
      </trkpt>
      <trkpt lat="43.53167" lon="6.11864">
        <ele>418.3</ele>
        <time>2025-11-23T15:03:24.000Z</time>
      </trkpt>
      <trkpt lat="43.53167" lon="6.11864">
        <ele>418.2</ele>
        <time>2025-11-23T15:03:50.000Z</time>
      </trkpt>
      <trkpt lat="43.53168" lon="6.11865">
        <ele>418.2</ele>
        <time>2025-11-23T15:04:10.000Z</time>
      </trkpt>
      <trkpt lat="43.53176" lon="6.11868">
        <ele>418.4</ele>
        <time>2025-11-23T15:04:26.000Z</time>
      </trkpt>
      <trkpt lat="43.53185" lon="6.11874">
        <ele>418.8</ele>
        <time>2025-11-23T15:04:37.000Z</time>
      </trkpt>
      <trkpt lat="43.53193" lon="6.11879">
        <ele>420</ele>
        <time>2025-11-23T15:04:51.000Z</time>
      </trkpt>
      <trkpt lat="43.53201" lon="6.11887">
        <ele>421.1</ele>
        <time>2025-11-23T15:05:03.000Z</time>
      </trkpt>
      <trkpt lat="43.53208" lon="6.11896">
        <ele>422.2</ele>
        <time>2025-11-23T15:05:15.000Z</time>
      </trkpt>
      <trkpt lat="43.53215" lon="6.11905">
        <ele>423</ele>
        <time>2025-11-23T15:05:25.000Z</time>
      </trkpt>
      <trkpt lat="43.53221" lon="6.11915">
        <ele>423.6</ele>
        <time>2025-11-23T15:05:35.000Z</time>
      </trkpt>
      <trkpt lat="43.53229" lon="6.11921">
        <ele>424.9</ele>
        <time>2025-11-23T15:05:52.000Z</time>
      </trkpt>
      <trkpt lat="43.53238" lon="6.11925">
        <ele>426.9</ele>
        <time>2025-11-23T15:06:11.000Z</time>
      </trkpt>
      <trkpt lat="43.53246" lon="6.11931">
        <ele>428.6</ele>
        <time>2025-11-23T15:06:36.000Z</time>
      </trkpt>
      <trkpt lat="43.53255" lon="6.11926">
        <ele>430.9</ele>
        <time>2025-11-23T15:06:58.000Z</time>
      </trkpt>
      <trkpt lat="43.53264" lon="6.11924">
        <ele>432.1</ele>
        <time>2025-11-23T15:07:14.000Z</time>
      </trkpt>
      <trkpt lat="43.53274" lon="6.11925">
        <ele>433</ele>
        <time>2025-11-23T15:07:28.000Z</time>
      </trkpt>
      <trkpt lat="43.53283" lon="6.11925">
        <ele>434</ele>
        <time>2025-11-23T15:07:42.000Z</time>
      </trkpt>
      <trkpt lat="43.53292" lon="6.11927">
        <ele>434.7</ele>
        <time>2025-11-23T15:07:53.000Z</time>
      </trkpt>
      <trkpt lat="43.53301" lon="6.11925">
        <ele>436</ele>
        <time>2025-11-23T15:08:08.000Z</time>
      </trkpt>
      <trkpt lat="43.53311" lon="6.11923">
        <ele>437.3</ele>
        <time>2025-11-23T15:08:22.000Z</time>
      </trkpt>
      <trkpt lat="43.53311" lon="6.1191">
        <ele>440.7</ele>
        <time>2025-11-23T15:08:58.000Z</time>
      </trkpt>
      <trkpt lat="43.53302" lon="6.11905">
        <ele>441.2</ele>
        <time>2025-11-23T15:09:15.000Z</time>
      </trkpt>
      <trkpt lat="43.53293" lon="6.11901">
        <ele>441.3</ele>
        <time>2025-11-23T15:09:26.000Z</time>
      </trkpt>
      <trkpt lat="43.53287" lon="6.11892">
        <ele>441.5</ele>
        <time>2025-11-23T15:09:40.000Z</time>
      </trkpt>
      <trkpt lat="43.53281" lon="6.11886">
        <ele>443.1</ele>
        <time>2025-11-23T15:10:48.000Z</time>
      </trkpt>
      <trkpt lat="43.53279" lon="6.1189">
        <ele>443.1</ele>
        <time>2025-11-23T15:11:04.000Z</time>
      </trkpt>
      <trkpt lat="43.53283" lon="6.11893">
        <ele>443</ele>
        <time>2025-11-23T15:11:52.000Z</time>
      </trkpt>
      <trkpt lat="43.53274" lon="6.11887">
        <ele>443.2</ele>
        <time>2025-11-23T15:13:24.000Z</time>
      </trkpt>
      <trkpt lat="43.53269" lon="6.11876">
        <ele>443.3</ele>
        <time>2025-11-23T15:13:29.000Z</time>
      </trkpt>
      <trkpt lat="43.53269" lon="6.11881">
        <ele>443.4</ele>
        <time>2025-11-23T15:13:46.000Z</time>
      </trkpt>
      <trkpt lat="43.53276" lon="6.1189">
        <ele>443.4</ele>
        <time>2025-11-23T15:13:49.000Z</time>
      </trkpt>
      <trkpt lat="43.53277" lon="6.11898">
        <ele>443.5</ele>
        <time>2025-11-23T15:14:03.000Z</time>
      </trkpt>
      <trkpt lat="43.53277" lon="6.119">
        <ele>443.5</ele>
        <time>2025-11-23T15:14:06.000Z</time>
      </trkpt>
      <trkpt lat="43.53285" lon="6.11907">
        <ele>443.5</ele>
        <time>2025-11-23T15:14:18.000Z</time>
      </trkpt>
      <trkpt lat="43.53294" lon="6.11911">
        <ele>443.3</ele>
        <time>2025-11-23T15:14:27.000Z</time>
      </trkpt>
      <trkpt lat="43.53303" lon="6.11915">
        <ele>443</ele>
        <time>2025-11-23T15:14:37.000Z</time>
      </trkpt>
      <trkpt lat="43.53313" lon="6.11919">
        <ele>442.8</ele>
        <time>2025-11-23T15:14:47.000Z</time>
      </trkpt>
      <trkpt lat="43.53322" lon="6.11924">
        <ele>442.6</ele>
        <time>2025-11-23T15:14:59.000Z</time>
      </trkpt>
      <trkpt lat="43.5333" lon="6.1193">
        <ele>442.5</ele>
        <time>2025-11-23T15:15:09.000Z</time>
      </trkpt>
      <trkpt lat="43.53339" lon="6.11936">
        <ele>442.6</ele>
        <time>2025-11-23T15:15:19.000Z</time>
      </trkpt>
      <trkpt lat="43.5334" lon="6.11923">
        <ele>443</ele>
        <time>2025-11-23T15:15:31.000Z</time>
      </trkpt>
      <trkpt lat="43.53334" lon="6.11912">
        <ele>443.5</ele>
        <time>2025-11-23T15:15:41.000Z</time>
      </trkpt>
      <trkpt lat="43.53326" lon="6.11906">
        <ele>444.5</ele>
        <time>2025-11-23T15:15:53.000Z</time>
      </trkpt>
      <trkpt lat="43.53317" lon="6.11902">
        <ele>445.3</ele>
        <time>2025-11-23T15:16:03.000Z</time>
      </trkpt>
      <trkpt lat="43.53311" lon="6.11892">
        <ele>446.6</ele>
        <time>2025-11-23T15:16:19.000Z</time>
      </trkpt>
      <trkpt lat="43.53307" lon="6.11889">
        <ele>447.5</ele>
        <time>2025-11-23T15:16:56.000Z</time>
      </trkpt>
      <trkpt lat="43.53305" lon="6.11889">
        <ele>447.5</ele>
        <time>2025-11-23T15:17:01.000Z</time>
      </trkpt>
      <trkpt lat="43.53313" lon="6.11882">
        <ele>447.5</ele>
        <time>2025-11-23T15:17:09.000Z</time>
      </trkpt>
      <trkpt lat="43.53288" lon="6.11909">
        <ele>447.5</ele>
        <time>2025-11-23T15:18:27.000Z</time>
      </trkpt>
      <trkpt lat="43.53298" lon="6.11907">
        <ele>447.5</ele>
        <time>2025-11-23T15:18:38.000Z</time>
      </trkpt>
      <trkpt lat="43.53306" lon="6.11897">
        <ele>447.5</ele>
        <time>2025-11-23T15:18:42.000Z</time>
      </trkpt>
      <trkpt lat="43.53309" lon="6.11897">
        <ele>447.4</ele>
        <time>2025-11-23T15:19:14.000Z</time>
      </trkpt>
      <trkpt lat="43.53309" lon="6.11898">
        <ele>447.4</ele>
        <time>2025-11-23T15:19:15.000Z</time>
      </trkpt>
      <trkpt lat="43.53316" lon="6.11907">
        <ele>447.2</ele>
        <time>2025-11-23T15:19:42.000Z</time>
      </trkpt>
      <trkpt lat="43.53325" lon="6.11913">
        <ele>446.8</ele>
        <time>2025-11-23T15:19:52.000Z</time>
      </trkpt>
      <trkpt lat="43.53333" lon="6.1192">
        <ele>445.8</ele>
        <time>2025-11-23T15:20:02.000Z</time>
      </trkpt>
      <trkpt lat="43.53339" lon="6.11929">
        <ele>444.9</ele>
        <time>2025-11-23T15:20:12.000Z</time>
      </trkpt>
      <trkpt lat="43.53344" lon="6.1194">
        <ele>444.2</ele>
        <time>2025-11-23T15:20:22.000Z</time>
      </trkpt>
      <trkpt lat="43.53351" lon="6.1195">
        <ele>443.8</ele>
        <time>2025-11-23T15:20:31.000Z</time>
      </trkpt>
      <trkpt lat="43.53358" lon="6.11958">
        <ele>443.8</ele>
        <time>2025-11-23T15:20:39.000Z</time>
      </trkpt>
      <trkpt lat="43.53365" lon="6.11968">
        <ele>444</ele>
        <time>2025-11-23T15:20:49.000Z</time>
      </trkpt>
      <trkpt lat="43.53371" lon="6.11978">
        <ele>444.1</ele>
        <time>2025-11-23T15:20:59.000Z</time>
      </trkpt>
      <trkpt lat="43.5338" lon="6.11986">
        <ele>444</ele>
        <time>2025-11-23T15:21:07.000Z</time>
      </trkpt>
      <trkpt lat="43.53385" lon="6.11998">
        <ele>443.3</ele>
        <time>2025-11-23T15:21:17.000Z</time>
      </trkpt>
      <trkpt lat="43.53392" lon="6.12007">
        <ele>442.3</ele>
        <time>2025-11-23T15:21:26.000Z</time>
      </trkpt>
      <trkpt lat="43.534" lon="6.12016">
        <ele>441.2</ele>
        <time>2025-11-23T15:21:35.000Z</time>
      </trkpt>
      <trkpt lat="43.53408" lon="6.12021">
        <ele>440</ele>
        <time>2025-11-23T15:21:43.000Z</time>
      </trkpt>
      <trkpt lat="43.53416" lon="6.12028">
        <ele>439.2</ele>
        <time>2025-11-23T15:21:50.000Z</time>
      </trkpt>
      <trkpt lat="43.53424" lon="6.12035">
        <ele>438.6</ele>
        <time>2025-11-23T15:21:58.000Z</time>
      </trkpt>
      <trkpt lat="43.53432" lon="6.12042">
        <ele>438.3</ele>
        <time>2025-11-23T15:22:07.000Z</time>
      </trkpt>
      <trkpt lat="43.53439" lon="6.1205">
        <ele>438</ele>
        <time>2025-11-23T15:22:16.000Z</time>
      </trkpt>
      <trkpt lat="43.53447" lon="6.1206">
        <ele>437.6</ele>
        <time>2025-11-23T15:22:25.000Z</time>
      </trkpt>
      <trkpt lat="43.53452" lon="6.1207">
        <ele>437.2</ele>
        <time>2025-11-23T15:22:33.000Z</time>
      </trkpt>
      <trkpt lat="43.53458" lon="6.1208">
        <ele>436.6</ele>
        <time>2025-11-23T15:22:42.000Z</time>
      </trkpt>
      <trkpt lat="43.53463" lon="6.12091">
        <ele>436.1</ele>
        <time>2025-11-23T15:22:52.000Z</time>
      </trkpt>
      <trkpt lat="43.53462" lon="6.12104">
        <ele>435.5</ele>
        <time>2025-11-23T15:23:02.000Z</time>
      </trkpt>
      <trkpt lat="43.53456" lon="6.12115">
        <ele>434</ele>
        <time>2025-11-23T15:23:13.000Z</time>
      </trkpt>
      <trkpt lat="43.53452" lon="6.12127">
        <ele>431.9</ele>
        <time>2025-11-23T15:23:27.000Z</time>
      </trkpt>
      <trkpt lat="43.53444" lon="6.12121">
        <ele>429.8</ele>
        <time>2025-11-23T15:23:44.000Z</time>
      </trkpt>
      <trkpt lat="43.53435" lon="6.12118">
        <ele>428</ele>
        <time>2025-11-23T15:24:00.000Z</time>
      </trkpt>
      <trkpt lat="43.53427" lon="6.12114">
        <ele>427</ele>
        <time>2025-11-23T15:24:08.000Z</time>
      </trkpt>
      <trkpt lat="43.53418" lon="6.12107">
        <ele>425.8</ele>
        <time>2025-11-23T15:24:17.000Z</time>
      </trkpt>
      <trkpt lat="43.53409" lon="6.12109">
        <ele>425</ele>
        <time>2025-11-23T15:24:26.000Z</time>
      </trkpt>
      <trkpt lat="43.53401" lon="6.12116">
        <ele>423.3</ele>
        <time>2025-11-23T15:24:41.000Z</time>
      </trkpt>
      <trkpt lat="43.53394" lon="6.12125">
        <ele>422.1</ele>
        <time>2025-11-23T15:24:51.000Z</time>
      </trkpt>
      <trkpt lat="43.53387" lon="6.12134">
        <ele>420.8</ele>
        <time>2025-11-23T15:25:00.000Z</time>
      </trkpt>
      <trkpt lat="43.53387" lon="6.12131">
        <ele>419.7</ele>
        <time>2025-11-23T15:25:21.000Z</time>
      </trkpt>
      <trkpt lat="43.53387" lon="6.12131">
        <ele>419.5</ele>
        <time>2025-11-23T15:25:55.000Z</time>
      </trkpt>
      <trkpt lat="43.53387" lon="6.12131">
        <ele>419.4</ele>
        <time>2025-11-23T15:26:00.000Z</time>
      </trkpt>
      <trkpt lat="43.53387" lon="6.12131">
        <ele>419.4</ele>
        <time>2025-11-23T15:26:01.000Z</time>
      </trkpt>
      <trkpt lat="43.53387" lon="6.12132">
        <ele>419.4</ele>
        <time>2025-11-23T15:26:04.000Z</time>
      </trkpt>
      <trkpt lat="43.53382" lon="6.1214">
        <ele>419.3</ele>
        <time>2025-11-23T15:26:13.000Z</time>
      </trkpt>
      <trkpt lat="43.53374" lon="6.12147">
        <ele>418.6</ele>
        <time>2025-11-23T15:26:22.000Z</time>
      </trkpt>
      <trkpt lat="43.53366" lon="6.12153">
        <ele>417.5</ele>
        <time>2025-11-23T15:26:30.000Z</time>
      </trkpt>
      <trkpt lat="43.53361" lon="6.12165">
        <ele>416.5</ele>
        <time>2025-11-23T15:26:37.000Z</time>
      </trkpt>
      <trkpt lat="43.53361" lon="6.12178">
        <ele>415.5</ele>
        <time>2025-11-23T15:26:44.000Z</time>
      </trkpt>
      <trkpt lat="43.53365" lon="6.1219">
        <ele>414.3</ele>
        <time>2025-11-23T15:26:53.000Z</time>
      </trkpt>
      <trkpt lat="43.53372" lon="6.12201">
        <ele>413.3</ele>
        <time>2025-11-23T15:27:01.000Z</time>
      </trkpt>
      <trkpt lat="43.53381" lon="6.12206">
        <ele>412.4</ele>
        <time>2025-11-23T15:27:07.000Z</time>
      </trkpt>
      <trkpt lat="43.53387" lon="6.12217">
        <ele>411.7</ele>
        <time>2025-11-23T15:27:16.000Z</time>
      </trkpt>
      <trkpt lat="43.53393" lon="6.12227">
        <ele>411.4</ele>
        <time>2025-11-23T15:27:25.000Z</time>
      </trkpt>
      <trkpt lat="43.53397" lon="6.12238">
        <ele>411</ele>
        <time>2025-11-23T15:27:34.000Z</time>
      </trkpt>
      <trkpt lat="43.534" lon="6.1225">
        <ele>410.4</ele>
        <time>2025-11-23T15:27:41.000Z</time>
      </trkpt>
      <trkpt lat="43.534" lon="6.12263">
        <ele>409.1</ele>
        <time>2025-11-23T15:27:50.000Z</time>
      </trkpt>
      <trkpt lat="43.53402" lon="6.12276">
        <ele>407.9</ele>
        <time>2025-11-23T15:27:58.000Z</time>
      </trkpt>
      <trkpt lat="43.53401" lon="6.12288">
        <ele>406.3</ele>
        <time>2025-11-23T15:28:08.000Z</time>
      </trkpt>
      <trkpt lat="43.53404" lon="6.12302">
        <ele>404.6</ele>
        <time>2025-11-23T15:28:19.000Z</time>
      </trkpt>
      <trkpt lat="43.53404" lon="6.12315">
        <ele>403.5</ele>
        <time>2025-11-23T15:28:29.000Z</time>
      </trkpt>
      <trkpt lat="43.53405" lon="6.12328">
        <ele>402.3</ele>
        <time>2025-11-23T15:28:40.000Z</time>
      </trkpt>
      <trkpt lat="43.53405" lon="6.12341">
        <ele>401</ele>
        <time>2025-11-23T15:28:50.000Z</time>
      </trkpt>
      <trkpt lat="43.53406" lon="6.12354">
        <ele>399.7</ele>
        <time>2025-11-23T15:29:01.000Z</time>
      </trkpt>
      <trkpt lat="43.53403" lon="6.12367">
        <ele>398.8</ele>
        <time>2025-11-23T15:29:10.000Z</time>
      </trkpt>
      <trkpt lat="43.53403" lon="6.1238">
        <ele>397.8</ele>
        <time>2025-11-23T15:29:20.000Z</time>
      </trkpt>
      <trkpt lat="43.53404" lon="6.12392">
        <ele>397.1</ele>
        <time>2025-11-23T15:29:28.000Z</time>
      </trkpt>
      <trkpt lat="43.53407" lon="6.12404">
        <ele>396.4</ele>
        <time>2025-11-23T15:29:36.000Z</time>
      </trkpt>
      <trkpt lat="43.53412" lon="6.12415">
        <ele>395.9</ele>
        <time>2025-11-23T15:29:43.000Z</time>
      </trkpt>
      <trkpt lat="43.53412" lon="6.12428">
        <ele>395</ele>
        <time>2025-11-23T15:29:51.000Z</time>
      </trkpt>
      <trkpt lat="43.53414" lon="6.12442">
        <ele>394.2</ele>
        <time>2025-11-23T15:30:00.000Z</time>
      </trkpt>
      <trkpt lat="43.53416" lon="6.12454">
        <ele>393.1</ele>
        <time>2025-11-23T15:30:10.000Z</time>
      </trkpt>
      <trkpt lat="43.53416" lon="6.12467">
        <ele>392.3</ele>
        <time>2025-11-23T15:30:19.000Z</time>
      </trkpt>
      <trkpt lat="43.53417" lon="6.12481">
        <ele>391.6</ele>
        <time>2025-11-23T15:30:28.000Z</time>
      </trkpt>
      <trkpt lat="43.5342" lon="6.12492">
        <ele>391.3</ele>
        <time>2025-11-23T15:30:34.000Z</time>
      </trkpt>
      <trkpt lat="43.53418" lon="6.12506">
        <ele>390.7</ele>
        <time>2025-11-23T15:30:43.000Z</time>
      </trkpt>
      <trkpt lat="43.53414" lon="6.12518">
        <ele>390.3</ele>
        <time>2025-11-23T15:30:52.000Z</time>
      </trkpt>
      <trkpt lat="43.53409" lon="6.12529">
        <ele>390</ele>
        <time>2025-11-23T15:31:01.000Z</time>
      </trkpt>
      <trkpt lat="43.53407" lon="6.12529">
        <ele>388.7</ele>
        <time>2025-11-23T15:31:50.000Z</time>
      </trkpt>
      <trkpt lat="43.53407" lon="6.1253">
        <ele>388.7</ele>
        <time>2025-11-23T15:32:05.000Z</time>
      </trkpt>
      <trkpt lat="43.53411" lon="6.1253">
        <ele>388.8</ele>
        <time>2025-11-23T15:32:43.000Z</time>
      </trkpt>
      <trkpt lat="43.53411" lon="6.12531">
        <ele>388.8</ele>
        <time>2025-11-23T15:33:00.000Z</time>
      </trkpt>
      <trkpt lat="43.53409" lon="6.12531">
        <ele>389</ele>
        <time>2025-11-23T15:33:26.000Z</time>
      </trkpt>
      <trkpt lat="43.53409" lon="6.12531">
        <ele>389.1</ele>
        <time>2025-11-23T15:33:34.099Z</time>
      </trkpt>
      <trkpt lat="43.53409" lon="6.12531">
        <ele>389.1</ele>
        <time>2025-11-23T15:33:35.000Z</time>
      </trkpt>
      <trkpt lat="43.53409" lon="6.12531">
        <ele>389.1</ele>
        <time>2025-11-23T15:33:35.000Z</time>
      </trkpt>
    </trkseg>
  </trk>
</gpx>